<?xml version="1.0" encoding="UTF-8" standalone="no" ?><gpx xmlns="http://www.topografix.com/GPX/1/1" xmlns:gpxx="http://www.garmin.com/xmlschemas/GpxExtensions/v3" xmlns:wptx1="http://www.garmin.com/xmlschemas/WaypointExtension/v1" xmlns:gpxtpx="http://www.garmin.com/xmlschemas/TrackPointExtension/v1" creator="Dakota 20" version="1.1" xmlns:xsi="http://www.w3.org/2001/XMLSchema-instance" xsi:schemaLocation="http://www.topografix.com/GPX/1/1 http://www.topografix.com/GPX/1/1/gpx.xsd http://www.garmin.com/xmlschemas/GpxExtensions/v3 http://www8.garmin.com/xmlschemas/GpxExtensionsv3.xsd http://www.garmin.com/xmlschemas/WaypointExtension/v1 http://www8.garmin.com/xmlschemas/WaypointExtensionv1.xsd http://www.garmin.com/xmlschemas/TrackPointExtension/v1 http://www.garmin.com/xmlschemas/TrackPointExtensionv1.xsd"><metadata><link href="http://www.garmin.com"><text>Garmin International</text></link><time>2015-04-15T13:52:49Z</time></metadata><trk><name>Current Track: 15 APR 2015 09:46</name><extensions><gpxx:TrackExtension><gpxx:DisplayColor>Cyan</gpxx:DisplayColor></gpxx:TrackExtension></extensions><trkseg><trkpt lat="51.8511650618" lon="-2.0483449381"><ele>207.78</ele><time>2015-04-15T08:46:43Z</time></trkpt><trkpt lat="51.8511681631" lon="-2.0483626239"><ele>207.30</ele><time>2015-04-15T08:47:07Z</time></trkpt><trkpt lat="51.8511723541" lon="-2.0483700000"><ele>207.30</ele><time>2015-04-15T08:47:28Z</time></trkpt><trkpt lat="51.8511753716" lon="-2.0485067926"><ele>206.34</ele><time>2015-04-15T08:47:42Z</time></trkpt><trkpt lat="51.8511572666" lon="-2.0486962236"><ele>206.82</ele><time>2015-04-15T08:47:59Z</time></trkpt><trkpt lat="51.8511673249" lon="-2.0488646999"><ele>205.86</ele><time>2015-04-15T08:48:09Z</time></trkpt><trkpt lat="51.8511559255" lon="-2.0490005706"><ele>206.34</ele><time>2015-04-15T08:48:16Z</time></trkpt><trkpt lat="51.8511479627" lon="-2.0490511134"><ele>208.26</ele><time>2015-04-15T08:48:19Z</time></trkpt><trkpt lat="51.8511441909" lon="-2.0490778517"><ele>206.34</ele><time>2015-04-15T08:48:21Z</time></trkpt><trkpt lat="51.8511348031" lon="-2.0491831284"><ele>206.34</ele><time>2015-04-15T08:48:29Z</time></trkpt><trkpt lat="51.8511152733" lon="-2.0492630079"><ele>206.34</ele><time>2015-04-15T08:48:34Z</time></trkpt><trkpt lat="51.8511162791" lon="-2.0493456535"><ele>208.26</ele><time>2015-04-15T08:48:39Z</time></trkpt><trkpt lat="51.8511212245" lon="-2.0493596513"><ele>206.34</ele><time>2015-04-15T08:48:41Z</time></trkpt><trkpt lat="51.8512319494" lon="-2.0495209191"><ele>207.30</ele><time>2015-04-15T08:48:56Z</time></trkpt><trkpt lat="51.8512519822" lon="-2.0495530218"><ele>208.74</ele><time>2015-04-15T08:48:58Z</time></trkpt><trkpt lat="51.8513032794" lon="-2.0495659299"><ele>204.90</ele><time>2015-04-15T08:49:02Z</time></trkpt><trkpt lat="51.8513156846" lon="-2.0495634992"><ele>206.34</ele><time>2015-04-15T08:49:03Z</time></trkpt><trkpt lat="51.8513282575" lon="-2.0494318195"><ele>206.34</ele><time>2015-04-15T08:49:12Z</time></trkpt><trkpt lat="51.8513027765" lon="-2.0493623335"><ele>207.30</ele><time>2015-04-15T08:49:29Z</time></trkpt><trkpt lat="51.8512311950" lon="-2.0493748225"><ele>207.30</ele><time>2015-04-15T08:49:55Z</time></trkpt><trkpt lat="51.8513381481" lon="-2.0493138861"><ele>206.34</ele><time>2015-04-15T08:50:08Z</time></trkpt><trkpt lat="51.8514015153" lon="-2.0492844656"><ele>209.22</ele><time>2015-04-15T08:50:14Z</time></trkpt><trkpt lat="51.8514223862" lon="-2.0492518600"><ele>205.38</ele><time>2015-04-15T08:50:16Z</time></trkpt><trkpt lat="51.8514272477" lon="-2.0492314082"><ele>206.34</ele><time>2015-04-15T08:50:17Z</time></trkpt><trkpt lat="51.8514357973" lon="-2.0491399616"><ele>208.26</ele><time>2015-04-15T08:50:22Z</time></trkpt><trkpt lat="51.8514474481" lon="-2.0490620099"><ele>207.78</ele><time>2015-04-15T08:50:26Z</time></trkpt><trkpt lat="51.8514483701" lon="-2.0489843935"><ele>211.15</ele><time>2015-04-15T08:50:30Z</time></trkpt><trkpt lat="51.8514369708" lon="-2.0489307493"><ele>207.78</ele><time>2015-04-15T08:50:32Z</time></trkpt><trkpt lat="51.8514508847" lon="-2.0487931184"><ele>212.59</ele><time>2015-04-15T08:50:39Z</time></trkpt><trkpt lat="51.8514530640" lon="-2.0487507898"><ele>206.34</ele><time>2015-04-15T08:50:42Z</time></trkpt><trkpt lat="51.8514544051" lon="-2.0487377141"><ele>209.22</ele><time>2015-04-15T08:50:43Z</time></trkpt><trkpt lat="51.8514684029" lon="-2.0487129875"><ele>213.07</ele><time>2015-04-15T08:50:45Z</time></trkpt><trkpt lat="51.8514791317" lon="-2.0487041865"><ele>209.70</ele><time>2015-04-15T08:50:46Z</time></trkpt><trkpt lat="51.8515288364" lon="-2.0486699883"><ele>213.55</ele><time>2015-04-15T08:50:50Z</time></trkpt><trkpt lat="51.8515373021" lon="-2.0486662164"><ele>207.78</ele><time>2015-04-15T08:50:51Z</time></trkpt><trkpt lat="51.8515396491" lon="-2.0486560743"><ele>208.74</ele><time>2015-04-15T08:50:52Z</time></trkpt><trkpt lat="51.8515442591" lon="-2.0486403164"><ele>211.15</ele><time>2015-04-15T08:50:53Z</time></trkpt><trkpt lat="51.8515601009" lon="-2.0485942159"><ele>209.70</ele><time>2015-04-15T08:50:56Z</time></trkpt><trkpt lat="51.8515692372" lon="-2.0485799666"><ele>210.19</ele><time>2015-04-15T08:50:57Z</time></trkpt><trkpt lat="51.8516001664" lon="-2.0484825689"><ele>210.19</ele><time>2015-04-15T08:51:03Z</time></trkpt><trkpt lat="51.8516052794" lon="-2.0484660566"><ele>211.15</ele><time>2015-04-15T08:51:04Z</time></trkpt><trkpt lat="51.8516061176" lon="-2.0484273322"><ele>212.59</ele><time>2015-04-15T08:51:06Z</time></trkpt><trkpt lat="51.8516049441" lon="-2.0483944751"><ele>209.22</ele><time>2015-04-15T08:51:08Z</time></trkpt><trkpt lat="51.8516295869" lon="-2.0483342931"><ele>213.07</ele><time>2015-04-15T08:51:12Z</time></trkpt><trkpt lat="51.8516580854" lon="-2.0482984185"><ele>208.74</ele><time>2015-04-15T08:51:15Z</time></trkpt><trkpt lat="51.8516745139" lon="-2.0482803974"><ele>212.59</ele><time>2015-04-15T08:51:17Z</time></trkpt><trkpt lat="51.8516821414" lon="-2.0482638013"><ele>218.36</ele><time>2015-04-15T08:51:18Z</time></trkpt><trkpt lat="51.8516944628" lon="-2.0482515637"><ele>211.63</ele><time>2015-04-15T08:51:19Z</time></trkpt><trkpt lat="51.8517091312" lon="-2.0482399128"><ele>208.26</ele><time>2015-04-15T08:51:20Z</time></trkpt><trkpt lat="51.8517217878" lon="-2.0482290164"><ele>212.59</ele><time>2015-04-15T08:51:21Z</time></trkpt><trkpt lat="51.8517345283" lon="-2.0482195448"><ele>209.22</ele><time>2015-04-15T08:51:22Z</time></trkpt><trkpt lat="51.8517588358" lon="-2.0481946506"><ele>213.07</ele><time>2015-04-15T08:51:24Z</time></trkpt><trkpt lat="51.8517823890" lon="-2.0481498912"><ele>209.70</ele><time>2015-04-15T08:51:27Z</time></trkpt><trkpt lat="51.8517908547" lon="-2.0481350552"><ele>211.63</ele><time>2015-04-15T08:51:28Z</time></trkpt><trkpt lat="51.8518132344" lon="-2.0481001027"><ele>215.47</ele><time>2015-04-15T08:51:30Z</time></trkpt><trkpt lat="51.8518296629" lon="-2.0480602048"><ele>210.67</ele><time>2015-04-15T08:51:32Z</time></trkpt><trkpt lat="51.8518359493" lon="-2.0480461232"><ele>214.99</ele><time>2015-04-15T08:51:33Z</time></trkpt><trkpt lat="51.8518437445" lon="-2.0480322931"><ele>211.15</ele><time>2015-04-15T08:51:34Z</time></trkpt><trkpt lat="51.8518598378" lon="-2.0479691774"><ele>215.95</ele><time>2015-04-15T08:51:38Z</time></trkpt><trkpt lat="51.8518709857" lon="-2.0479485579"><ele>210.67</ele><time>2015-04-15T08:51:40Z</time></trkpt><trkpt lat="51.8518817984" lon="-2.0479378290"><ele>212.11</ele><time>2015-04-15T08:51:41Z</time></trkpt><trkpt lat="51.8519063573" lon="-2.0479119290"><ele>215.95</ele><time>2015-04-15T08:51:43Z</time></trkpt><trkpt lat="51.8519431539" lon="-2.0478856936"><ele>211.63</ele><time>2015-04-15T08:51:47Z</time></trkpt><trkpt lat="51.8519520387" lon="-2.0478836820"><ele>212.59</ele><time>2015-04-15T08:51:48Z</time></trkpt><trkpt lat="51.8519721553" lon="-2.0478788204"><ele>215.95</ele><time>2015-04-15T08:51:50Z</time></trkpt><trkpt lat="51.8519845605" lon="-2.0478800777"><ele>214.51</ele><time>2015-04-15T08:51:51Z</time></trkpt><trkpt lat="51.8520129751" lon="-2.0478794910"><ele>212.11</ele><time>2015-04-15T08:51:53Z</time></trkpt><trkpt lat="51.8520509452" lon="-2.0478721149"><ele>215.95</ele><time>2015-04-15T08:51:56Z</time></trkpt><trkpt lat="51.8520950340" lon="-2.0478453767"><ele>211.15</ele><time>2015-04-15T08:52:00Z</time></trkpt><trkpt lat="51.8521174137" lon="-2.0478171296"><ele>214.51</ele><time>2015-04-15T08:52:02Z</time></trkpt><trkpt lat="51.8523099460" lon="-2.0476069115"><ele>213.07</ele><time>2015-04-15T08:52:26Z</time></trkpt><trkpt lat="51.8523189984" lon="-2.0476098452"><ele>214.51</ele><time>2015-04-15T08:52:27Z</time></trkpt><trkpt lat="51.8523701280" lon="-2.0476098452"><ele>214.03</ele><time>2015-04-15T08:52:32Z</time></trkpt><trkpt lat="51.8524174858" lon="-2.0476134494"><ele>217.40</ele><time>2015-04-15T08:52:37Z</time></trkpt><trkpt lat="51.8524391111" lon="-2.0476230048"><ele>214.03</ele><time>2015-04-15T08:52:39Z</time></trkpt><trkpt lat="51.8524597306" lon="-2.0476300456"><ele>216.91</ele><time>2015-04-15T08:52:41Z</time></trkpt><trkpt lat="51.8525044899" lon="-2.0476305485"><ele>214.03</ele><time>2015-04-15T08:52:46Z</time></trkpt><trkpt lat="51.8525149673" lon="-2.0476416126"><ele>216.91</ele><time>2015-04-15T08:52:47Z</time></trkpt><trkpt lat="51.8525542784" lon="-2.0476512518"><ele>213.55</ele><time>2015-04-15T08:52:51Z</time></trkpt><trkpt lat="51.8525883090" lon="-2.0476632379"><ele>216.91</ele><time>2015-04-15T08:52:54Z</time></trkpt><trkpt lat="51.8526153825" lon="-2.0476554427"><ele>213.07</ele><time>2015-04-15T08:53:05Z</time></trkpt><trkpt lat="51.8526628241" lon="-2.0476356614"><ele>216.91</ele><time>2015-04-15T08:53:08Z</time></trkpt><trkpt lat="51.8527002074" lon="-2.0476293750"><ele>213.55</ele><time>2015-04-15T08:53:10Z</time></trkpt><trkpt lat="51.8527655862" lon="-2.0476116892"><ele>216.91</ele><time>2015-04-15T08:53:15Z</time></trkpt><trkpt lat="51.8527848646" lon="-2.0476038940"><ele>213.07</ele><time>2015-04-15T08:53:17Z</time></trkpt><trkpt lat="51.8527955096" lon="-2.0476016309"><ele>213.55</ele><time>2015-04-15T08:53:18Z</time></trkpt><trkpt lat="51.8528048974" lon="-2.0475971885"><ele>214.99</ele><time>2015-04-15T08:53:19Z</time></trkpt><trkpt lat="51.8528699409" lon="-2.0475880522"><ele>215.47</ele><time>2015-04-15T08:53:25Z</time></trkpt><trkpt lat="51.8529127724" lon="-2.0475779101"><ele>213.55</ele><time>2015-04-15T08:53:31Z</time></trkpt><trkpt lat="51.8529712781" lon="-2.0475655887"><ele>213.55</ele><time>2015-04-15T08:53:36Z</time></trkpt><trkpt lat="51.8530414347" lon="-2.0475563686"><ele>213.07</ele><time>2015-04-15T08:53:43Z</time></trkpt><trkpt lat="51.8531856872" lon="-2.0475486573"><ele>212.11</ele><time>2015-04-15T08:53:56Z</time></trkpt><trkpt lat="51.8532147724" lon="-2.0475295465"><ele>214.03</ele><time>2015-04-15T08:53:59Z</time></trkpt><trkpt lat="51.8532149401" lon="-2.0475293789"><ele>212.11</ele><time>2015-04-15T08:54:01Z</time></trkpt><trkpt lat="51.8532164488" lon="-2.0475287084"><ele>214.99</ele><time>2015-04-15T08:54:06Z</time></trkpt><trkpt lat="51.8532299437" lon="-2.0475237630"><ele>209.70</ele><time>2015-04-15T08:54:08Z</time></trkpt><trkpt lat="51.8532302789" lon="-2.0475244336"><ele>212.11</ele><time>2015-04-15T08:54:09Z</time></trkpt><trkpt lat="51.8532314524" lon="-2.0475251880"><ele>215.47</ele><time>2015-04-15T08:54:11Z</time></trkpt><trkpt lat="51.8532322906" lon="-2.0475261100"><ele>210.19</ele><time>2015-04-15T08:54:13Z</time></trkpt><trkpt lat="51.8533166125" lon="-2.0475306362"><ele>213.55</ele><time>2015-04-15T08:54:18Z</time></trkpt><trkpt lat="51.8533497211" lon="-2.0475282054"><ele>210.19</ele><time>2015-04-15T08:54:20Z</time></trkpt><trkpt lat="51.8533666525" lon="-2.0475323964"><ele>211.63</ele><time>2015-04-15T08:54:21Z</time></trkpt><trkpt lat="51.8533859309" lon="-2.0475458074"><ele>211.63</ele><time>2015-04-15T08:54:26Z</time></trkpt><trkpt lat="51.8535355479" lon="-2.0476112701"><ele>213.55</ele><time>2015-04-15T08:54:47Z</time></trkpt><trkpt lat="51.8536191992" lon="-2.0476317219"><ele>211.63</ele><time>2015-04-15T08:54:50Z</time></trkpt><trkpt lat="51.8538342789" lon="-2.0476680156"><ele>210.67</ele><time>2015-04-15T08:55:01Z</time></trkpt><trkpt lat="51.8538852409" lon="-2.0476613939"><ele>214.03</ele><time>2015-04-15T08:55:04Z</time></trkpt><trkpt lat="51.8540345225" lon="-2.0476589631"><ele>212.11</ele><time>2015-04-15T08:55:18Z</time></trkpt><trkpt lat="51.8541286513" lon="-2.0477183070"><ele>213.55</ele><time>2015-04-15T08:55:27Z</time></trkpt><trkpt lat="51.8543989677" lon="-2.0477613062"><ele>211.63</ele><time>2015-04-15T08:55:52Z</time></trkpt><trkpt lat="51.8544001412" lon="-2.0477561094"><ele>213.07</ele><time>2015-04-15T08:55:53Z</time></trkpt><trkpt lat="51.8544552941" lon="-2.0477697719"><ele>216.43</ele><time>2015-04-15T08:56:00Z</time></trkpt><trkpt lat="51.8544690404" lon="-2.0477731247"><ele>212.59</ele><time>2015-04-15T08:56:01Z</time></trkpt><trkpt lat="51.8544815294" lon="-2.0477773156"><ele>214.03</ele><time>2015-04-15T08:56:02Z</time></trkpt><trkpt lat="51.8545359280" lon="-2.0478046406"><ele>214.99</ele><time>2015-04-15T08:56:07Z</time></trkpt><trkpt lat="51.8545553740" lon="-2.0478155371"><ele>215.95</ele><time>2015-04-15T08:56:09Z</time></trkpt><trkpt lat="51.8546017259" lon="-2.0478703547"><ele>214.99</ele><time>2015-04-15T08:56:16Z</time></trkpt><trkpt lat="51.8546506763" lon="-2.0478813350"><ele>219.32</ele><time>2015-04-15T08:56:23Z</time></trkpt><trkpt lat="51.8546595611" lon="-2.0478846040"><ele>215.95</ele><time>2015-04-15T08:56:24Z</time></trkpt><trkpt lat="51.8546810187" lon="-2.0479024574"><ele>219.32</ele><time>2015-04-15T08:56:27Z</time></trkpt><trkpt lat="51.8546883110" lon="-2.0479078218"><ele>215.95</ele><time>2015-04-15T08:56:28Z</time></trkpt><trkpt lat="51.8547167256" lon="-2.0479234960"><ele>219.80</ele><time>2015-04-15T08:56:31Z</time></trkpt><trkpt lat="51.8547252752" lon="-2.0479301177"><ele>215.95</ele><time>2015-04-15T08:56:32Z</time></trkpt><trkpt lat="51.8547583837" lon="-2.0479557663"><ele>219.80</ele><time>2015-04-15T08:56:37Z</time></trkpt><trkpt lat="51.8547645025" lon="-2.0479580294"><ele>214.99</ele><time>2015-04-15T08:56:38Z</time></trkpt><trkpt lat="51.8547690287" lon="-2.0479638129"><ele>217.40</ele><time>2015-04-15T08:56:39Z</time></trkpt><trkpt lat="51.8547795899" lon="-2.0479710214"><ele>220.76</ele><time>2015-04-15T08:56:41Z</time></trkpt><trkpt lat="51.8547868822" lon="-2.0479729492"><ele>216.43</ele><time>2015-04-15T08:56:42Z</time></trkpt><trkpt lat="51.8547967728" lon="-2.0479780622"><ele>217.40</ele><time>2015-04-15T08:56:43Z</time></trkpt><trkpt lat="51.8548184820" lon="-2.0479913056"><ele>217.88</ele><time>2015-04-15T08:56:45Z</time></trkpt><trkpt lat="51.8548650015" lon="-2.0480477996"><ele>218.84</ele><time>2015-04-15T08:56:50Z</time></trkpt><trkpt lat="51.8550678436" lon="-2.0481357258"><ele>218.84</ele><time>2015-04-15T08:57:08Z</time></trkpt><trkpt lat="51.8550887983" lon="-2.0481580216"><ele>220.28</ele><time>2015-04-15T08:57:10Z</time></trkpt><trkpt lat="51.8550984375" lon="-2.0481683314"><ele>216.91</ele><time>2015-04-15T08:57:11Z</time></trkpt><trkpt lat="51.8551069032" lon="-2.0481762104"><ele>218.36</ele><time>2015-04-15T08:57:12Z</time></trkpt><trkpt lat="51.8551475555" lon="-2.0481781382"><ele>222.20</ele><time>2015-04-15T08:57:16Z</time></trkpt><trkpt lat="51.8551600445" lon="-2.0481767133"><ele>216.43</ele><time>2015-04-15T08:57:17Z</time></trkpt><trkpt lat="51.8551716954" lon="-2.0481757913"><ele>218.36</ele><time>2015-04-15T08:57:18Z</time></trkpt><trkpt lat="51.8552373257" lon="-2.0482082292"><ele>220.76</ele><time>2015-04-15T08:57:25Z</time></trkpt><trkpt lat="51.8552486412" lon="-2.0482139289"><ele>217.88</ele><time>2015-04-15T08:57:26Z</time></trkpt><trkpt lat="51.8553142715" lon="-2.0482311957"><ele>220.76</ele><time>2015-04-15T08:57:31Z</time></trkpt><trkpt lat="51.8553375732" lon="-2.0482356381"><ele>217.88</ele><time>2015-04-15T08:57:33Z</time></trkpt><trkpt lat="51.8553924747" lon="-2.0482195448"><ele>218.84</ele><time>2015-04-15T08:57:38Z</time></trkpt><trkpt lat="51.8554148544" lon="-2.0482124202"><ele>222.20</ele><time>2015-04-15T08:57:41Z</time></trkpt><trkpt lat="51.8554329593" lon="-2.0482306089"><ele>218.84</ele><time>2015-04-15T08:57:47Z</time></trkpt><trkpt lat="51.8556113262" lon="-2.0484305173"><ele>221.72</ele><time>2015-04-15T08:58:09Z</time></trkpt><trkpt lat="51.8556967378" lon="-2.0484684035"><ele>220.76</ele><time>2015-04-15T08:58:17Z</time></trkpt><trkpt lat="51.8558067083" lon="-2.0485238079"><ele>220.76</ele><time>2015-04-15T08:58:36Z</time></trkpt><trkpt lat="51.8558731768" lon="-2.0485782064"><ele>221.72</ele><time>2015-04-15T08:58:51Z</time></trkpt><trkpt lat="51.8559611868" lon="-2.0485829841"><ele>223.64</ele><time>2015-04-15T08:59:07Z</time></trkpt><trkpt lat="51.8559937924" lon="-2.0486124884"><ele>222.20</ele><time>2015-04-15T08:59:13Z</time></trkpt><trkpt lat="51.8560091313" lon="-2.0486191940"><ele>217.88</ele><time>2015-04-15T08:59:16Z</time></trkpt><trkpt lat="51.8560116459" lon="-2.0486196969"><ele>223.16</ele><time>2015-04-15T08:59:17Z</time></trkpt><trkpt lat="51.8560575787" lon="-2.0486491174"><ele>226.53</ele><time>2015-04-15T08:59:20Z</time></trkpt><trkpt lat="51.8560683075" lon="-2.0486608520"><ele>220.28</ele><time>2015-04-15T08:59:21Z</time></trkpt><trkpt lat="51.8560792040" lon="-2.0486704074"><ele>221.72</ele><time>2015-04-15T08:59:22Z</time></trkpt><trkpt lat="51.8560961355" lon="-2.0486797951"><ele>226.53</ele><time>2015-04-15T08:59:24Z</time></trkpt><trkpt lat="51.8560968060" lon="-2.0486804657"><ele>221.24</ele><time>2015-04-15T08:59:25Z</time></trkpt><trkpt lat="51.8561057746" lon="-2.0486823935"><ele>222.68</ele><time>2015-04-15T08:59:26Z</time></trkpt><trkpt lat="51.8561282381" lon="-2.0486956369"><ele>227.49</ele><time>2015-04-15T08:59:28Z</time></trkpt><trkpt lat="51.8561401404" lon="-2.0486999117"><ele>222.68</ele><time>2015-04-15T08:59:29Z</time></trkpt><trkpt lat="51.8561499473" lon="-2.0487051923"><ele>222.68</ele><time>2015-04-15T08:59:30Z</time></trkpt><trkpt lat="51.8561960477" lon="-2.0487257279"><ele>227.97</ele><time>2015-04-15T08:59:34Z</time></trkpt><trkpt lat="51.8562061060" lon="-2.0487259794"><ele>221.72</ele><time>2015-04-15T08:59:35Z</time></trkpt><trkpt lat="51.8562375382" lon="-2.0487315953"><ele>226.05</ele><time>2015-04-15T08:59:37Z</time></trkpt><trkpt lat="51.8562646955" lon="-2.0487361215"><ele>221.24</ele><time>2015-04-15T08:59:39Z</time></trkpt><trkpt lat="51.8562792800" lon="-2.0487414859"><ele>224.12</ele><time>2015-04-15T08:59:40Z</time></trkpt><trkpt lat="51.8562995642" lon="-2.0487463474"><ele>225.09</ele><time>2015-04-15T08:59:42Z</time></trkpt><trkpt lat="51.8563221954" lon="-2.0487553161"><ele>222.68</ele><time>2015-04-15T08:59:44Z</time></trkpt><trkpt lat="51.8563504424" lon="-2.0487752650"><ele>225.57</ele><time>2015-04-15T08:59:46Z</time></trkpt><trkpt lat="51.8564546295" lon="-2.0487615187"><ele>226.53</ele><time>2015-04-15T09:00:02Z</time></trkpt><trkpt lat="51.8564530369" lon="-2.0487623569"><ele>223.16</ele><time>2015-04-15T09:00:03Z</time></trkpt><trkpt lat="51.8564594910" lon="-2.0487913582"><ele>227.49</ele><time>2015-04-15T09:00:05Z</time></trkpt><trkpt lat="51.8564687949" lon="-2.0488049369"><ele>227.49</ele><time>2015-04-15T09:00:06Z</time></trkpt><trkpt lat="51.8565301504" lon="-2.0488432422"><ele>224.12</ele><time>2015-04-15T09:00:13Z</time></trkpt><trkpt lat="51.8565583136" lon="-2.0488563180"><ele>228.45</ele><time>2015-04-15T09:00:16Z</time></trkpt><trkpt lat="51.8565660249" lon="-2.0488607604"><ele>225.09</ele><time>2015-04-15T09:00:17Z</time></trkpt><trkpt lat="51.8565913383" lon="-2.0488812961"><ele>226.53</ele><time>2015-04-15T09:00:20Z</time></trkpt><trkpt lat="51.8566110358" lon="-2.0488993172"><ele>227.97</ele><time>2015-04-15T09:00:22Z</time></trkpt><trkpt lat="51.8566186633" lon="-2.0489019994"><ele>224.61</ele><time>2015-04-15T09:00:23Z</time></trkpt><trkpt lat="51.8566286378" lon="-2.0489082020"><ele>226.53</ele><time>2015-04-15T09:00:24Z</time></trkpt><trkpt lat="51.8566521071" lon="-2.0489265583"><ele>228.93</ele><time>2015-04-15T09:00:26Z</time></trkpt><trkpt lat="51.8566611595" lon="-2.0489350241"><ele>224.61</ele><time>2015-04-15T09:00:27Z</time></trkpt><trkpt lat="51.8566740677" lon="-2.0489414781"><ele>226.53</ele><time>2015-04-15T09:00:28Z</time></trkpt><trkpt lat="51.8568273727" lon="-2.0490221959"><ele>227.49</ele><time>2015-04-15T09:00:46Z</time></trkpt><trkpt lat="51.8570120260" lon="-2.0491082780"><ele>227.97</ele><time>2015-04-15T09:01:06Z</time></trkpt><trkpt lat="51.8570877146" lon="-2.0491432305"><ele>231.33</ele><time>2015-04-15T09:01:14Z</time></trkpt><trkpt lat="51.8571905605" lon="-2.0491790213"><ele>228.93</ele><time>2015-04-15T09:01:25Z</time></trkpt><trkpt lat="51.8572326377" lon="-2.0491998922"><ele>228.93</ele><time>2015-04-15T09:01:30Z</time></trkpt><trkpt lat="51.8573468830" lon="-2.0492562186"><ele>232.30</ele><time>2015-04-15T09:01:41Z</time></trkpt><trkpt lat="51.8574076518" lon="-2.0492847171"><ele>229.89</ele><time>2015-04-15T09:01:47Z</time></trkpt><trkpt lat="51.8574385811" lon="-2.0493105333"><ele>232.30</ele><time>2015-04-15T09:01:50Z</time></trkpt><trkpt lat="51.8575332128" lon="-2.0493372716"><ele>232.30</ele><time>2015-04-15T09:01:58Z</time></trkpt><trkpt lat="51.8577306066" lon="-2.0494497567"><ele>230.85</ele><time>2015-04-15T09:02:19Z</time></trkpt><trkpt lat="51.8577870168" lon="-2.0494858827"><ele>233.74</ele><time>2015-04-15T09:02:27Z</time></trkpt><trkpt lat="51.8578261603" lon="-2.0495052449"><ele>232.30</ele><time>2015-04-15T09:02:30Z</time></trkpt><trkpt lat="51.8579735141" lon="-2.0495878067"><ele>233.74</ele><time>2015-04-15T09:02:50Z</time></trkpt><trkpt lat="51.8580062874" lon="-2.0496077556"><ele>232.78</ele><time>2015-04-15T09:02:54Z</time></trkpt><trkpt lat="51.8580383901" lon="-2.0496271178"><ele>236.14</ele><time>2015-04-15T09:02:57Z</time></trkpt><trkpt lat="51.8580541480" lon="-2.0496433787"><ele>229.89</ele><time>2015-04-15T09:02:58Z</time></trkpt><trkpt lat="51.8580695707" lon="-2.0496577118"><ele>233.74</ele><time>2015-04-15T09:02:59Z</time></trkpt><trkpt lat="51.8582009152" lon="-2.0497583784"><ele>234.22</ele><time>2015-04-15T09:03:10Z</time></trkpt><trkpt lat="51.8583131488" lon="-2.0498241764"><ele>233.74</ele><time>2015-04-15T09:03:29Z</time></trkpt><trkpt lat="51.8583263084" lon="-2.0498534292"><ele>235.66</ele><time>2015-04-15T09:03:53Z</time></trkpt><trkpt lat="51.8583403062" lon="-2.0498649962"><ele>233.26</ele><time>2015-04-15T09:03:56Z</time></trkpt><trkpt lat="51.8586622551" lon="-2.0500692632"><ele>234.70</ele><time>2015-04-15T09:04:16Z</time></trkpt><trkpt lat="51.8587009795" lon="-2.0500893798"><ele>232.78</ele><time>2015-04-15T09:04:20Z</time></trkpt><trkpt lat="51.8587220181" lon="-2.0501134358"><ele>235.18</ele><time>2015-04-15T09:04:23Z</time></trkpt><trkpt lat="51.8588340003" lon="-2.0502302796"><ele>233.74</ele><time>2015-04-15T09:04:40Z</time></trkpt><trkpt lat="51.8590438832" lon="-2.0503892004"><ele>232.78</ele><time>2015-04-15T09:05:00Z</time></trkpt><trkpt lat="51.8591291271" lon="-2.0504415873"><ele>233.26</ele><time>2015-04-15T09:05:10Z</time></trkpt><trkpt lat="51.8591410294" lon="-2.0504527353"><ele>234.70</ele><time>2015-04-15T09:05:13Z</time></trkpt><trkpt lat="51.8592232559" lon="-2.0505792182"><ele>235.66</ele><time>2015-04-15T09:05:33Z</time></trkpt><trkpt lat="51.8592381757" lon="-2.0506015141"><ele>232.30</ele><time>2015-04-15T09:05:36Z</time></trkpt><trkpt lat="51.8595359009" lon="-2.0508145820"><ele>234.22</ele><time>2015-04-15T09:05:59Z</time></trkpt><trkpt lat="51.8596198037" lon="-2.0508742612"><ele>230.37</ele><time>2015-04-15T09:06:07Z</time></trkpt><trkpt lat="51.8596434407" lon="-2.0509033464"><ele>233.74</ele><time>2015-04-15T09:06:10Z</time></trkpt><trkpt lat="51.8596528284" lon="-2.0509295817"><ele>230.37</ele><time>2015-04-15T09:06:13Z</time></trkpt><trkpt lat="51.8596534990" lon="-2.0509311743"><ele>233.74</ele><time>2015-04-15T09:06:15Z</time></trkpt><trkpt lat="51.8596820813" lon="-2.0509462617"><ele>232.78</ele><time>2015-04-15T09:06:23Z</time></trkpt><trkpt lat="51.8597770482" lon="-2.0509701502"><ele>236.14</ele><time>2015-04-15T09:06:37Z</time></trkpt><trkpt lat="51.8597947340" lon="-2.0509746764"><ele>232.78</ele><time>2015-04-15T09:06:38Z</time></trkpt><trkpt lat="51.8598772120" lon="-2.0509938709"><ele>234.22</ele><time>2015-04-15T09:06:42Z</time></trkpt><trkpt lat="51.8600019347" lon="-2.0510957111"><ele>234.22</ele><time>2015-04-15T09:06:51Z</time></trkpt><trkpt lat="51.8600605242" lon="-2.0511391293"><ele>233.74</ele><time>2015-04-15T09:06:57Z</time></trkpt><trkpt lat="51.8601159286" lon="-2.0511745848"><ele>233.74</ele><time>2015-04-15T09:07:05Z</time></trkpt><trkpt lat="51.8601801340" lon="-2.0512227807"><ele>232.30</ele><time>2015-04-15T09:07:13Z</time></trkpt><trkpt lat="51.8603580818" lon="-2.0513019897"><ele>233.74</ele><time>2015-04-15T09:07:35Z</time></trkpt><trkpt lat="51.8604806252" lon="-2.0514193363"><ele>234.22</ele><time>2015-04-15T09:07:52Z</time></trkpt><trkpt lat="51.8605918530" lon="-2.0514746569"><ele>234.22</ele><time>2015-04-15T09:07:58Z</time></trkpt><trkpt lat="51.8606369477" lon="-2.0514959469"><ele>234.70</ele><time>2015-04-15T09:08:02Z</time></trkpt><trkpt lat="51.8606557231" lon="-2.0515122917"><ele>233.26</ele><time>2015-04-15T09:08:04Z</time></trkpt><trkpt lat="51.8608506024" lon="-2.0516539458"><ele>232.78</ele><time>2015-04-15T09:08:26Z</time></trkpt><trkpt lat="51.8609404564" lon="-2.0517589711"><ele>233.26</ele><time>2015-04-15T09:08:47Z</time></trkpt><trkpt lat="51.8610435538" lon="-2.0518329833"><ele>232.78</ele><time>2015-04-15T09:08:58Z</time></trkpt><trkpt lat="51.8611523509" lon="-2.0519563649"><ele>233.74</ele><time>2015-04-15T09:09:11Z</time></trkpt><trkpt lat="51.8612361699" lon="-2.0520457160"><ele>232.30</ele><time>2015-04-15T09:09:21Z</time></trkpt><trkpt lat="51.8612588849" lon="-2.0520627312"><ele>231.33</ele><time>2015-04-15T09:09:23Z</time></trkpt><trkpt lat="51.8613509182" lon="-2.0521278586"><ele>230.37</ele><time>2015-04-15T09:09:30Z</time></trkpt><trkpt lat="51.8613585457" lon="-2.0521344803"><ele>213.07</ele><time>2015-04-15T09:09:31Z</time></trkpt><trkpt lat="51.8613658380" lon="-2.0521394257"><ele>238.06</ele><time>2015-04-15T09:09:32Z</time></trkpt><trkpt lat="51.8613755610" lon="-2.0521390066"><ele>230.85</ele><time>2015-04-15T09:09:33Z</time></trkpt><trkpt lat="51.8613966834" lon="-2.0521397609"><ele>230.37</ele><time>2015-04-15T09:09:35Z</time></trkpt><trkpt lat="51.8615040556" lon="-2.0522661600"><ele>227.01</ele><time>2015-04-15T09:09:47Z</time></trkpt><trkpt lat="51.8615536764" lon="-2.0523769688"><ele>228.93</ele><time>2015-04-15T09:09:57Z</time></trkpt><trkpt lat="51.8615672551" lon="-2.0523892902"><ele>227.01</ele><time>2015-04-15T09:09:59Z</time></trkpt><trkpt lat="51.8616232462" lon="-2.0524342172"><ele>226.53</ele><time>2015-04-15T09:10:06Z</time></trkpt><trkpt lat="51.8616623059" lon="-2.0524825808"><ele>226.05</ele><time>2015-04-15T09:10:11Z</time></trkpt><trkpt lat="51.8618527427" lon="-2.0527309366"><ele>224.12</ele><time>2015-04-15T09:10:33Z</time></trkpt><trkpt lat="51.8619713467" lon="-2.0529579185"><ele>222.68</ele><time>2015-04-15T09:10:52Z</time></trkpt><trkpt lat="51.8619964924" lon="-2.0530413184"><ele>221.24</ele><time>2015-04-15T09:11:06Z</time></trkpt><trkpt lat="51.8620052096" lon="-2.0530552324"><ele>219.32</ele><time>2015-04-15T09:11:08Z</time></trkpt><trkpt lat="51.8620358035" lon="-2.0530699007"><ele>219.32</ele><time>2015-04-15T09:11:12Z</time></trkpt><trkpt lat="51.8620523997" lon="-2.0530826412"><ele>219.80</ele><time>2015-04-15T09:11:14Z</time></trkpt><trkpt lat="51.8621247355" lon="-2.0531191863"><ele>219.80</ele><time>2015-04-15T09:11:36Z</time></trkpt><trkpt lat="51.8621201254" lon="-2.0531426556"><ele>219.32</ele><time>2015-04-15T09:12:03Z</time></trkpt><trkpt lat="51.8621500488" lon="-2.0531706512"><ele>221.24</ele><time>2015-04-15T09:12:30Z</time></trkpt><trkpt lat="51.8621787988" lon="-2.0532120578"><ele>217.88</ele><time>2015-04-15T09:12:33Z</time></trkpt><trkpt lat="51.8621827383" lon="-2.0532234572"><ele>221.24</ele><time>2015-04-15T09:12:35Z</time></trkpt><trkpt lat="51.8621447682" lon="-2.0532936975"><ele>220.28</ele><time>2015-04-15T09:12:49Z</time></trkpt><trkpt lat="51.8621424213" lon="-2.0533121377"><ele>224.61</ele><time>2015-04-15T09:12:50Z</time></trkpt><trkpt lat="51.8621414993" lon="-2.0533275604"><ele>224.12</ele><time>2015-04-15T09:12:51Z</time></trkpt><trkpt lat="51.8621180300" lon="-2.0533989742"><ele>226.05</ele><time>2015-04-15T09:13:01Z</time></trkpt><trkpt lat="51.8621114921" lon="-2.0534112118"><ele>221.72</ele><time>2015-04-15T09:13:02Z</time></trkpt><trkpt lat="51.8621078040" lon="-2.0534202643"><ele>225.57</ele><time>2015-04-15T09:13:03Z</time></trkpt><trkpt lat="51.8620996736" lon="-2.0534412190"><ele>228.45</ele><time>2015-04-15T09:13:05Z</time></trkpt><trkpt lat="51.8620986678" lon="-2.0534516964"><ele>225.09</ele><time>2015-04-15T09:13:06Z</time></trkpt><trkpt lat="51.8620896153" lon="-2.0534959529"><ele>227.01</ele><time>2015-04-15T09:13:09Z</time></trkpt><trkpt lat="51.8620596919" lon="-2.0535949431"><ele>230.37</ele><time>2015-04-15T09:13:17Z</time></trkpt><trkpt lat="51.8620550819" lon="-2.0536138862"><ele>227.01</ele><time>2015-04-15T09:13:18Z</time></trkpt><trkpt lat="51.8620249070" lon="-2.0537079312"><ele>229.89</ele><time>2015-04-15T09:13:27Z</time></trkpt><trkpt lat="51.8620155193" lon="-2.0537440572"><ele>227.97</ele><time>2015-04-15T09:13:30Z</time></trkpt><trkpt lat="51.8620109931" lon="-2.0537669398"><ele>230.37</ele><time>2015-04-15T09:13:32Z</time></trkpt><trkpt lat="51.8619565107" lon="-2.0538979489"><ele>234.22</ele><time>2015-04-15T09:13:48Z</time></trkpt><trkpt lat="51.8619571812" lon="-2.0539089292"><ele>233.74</ele><time>2015-04-15T09:13:49Z</time></trkpt><trkpt lat="51.8619569298" lon="-2.0539173111"><ele>229.89</ele><time>2015-04-15T09:13:50Z</time></trkpt><trkpt lat="51.8619586062" lon="-2.0539297163"><ele>232.30</ele><time>2015-04-15T09:13:51Z</time></trkpt><trkpt lat="51.8619700056" lon="-2.0539726317"><ele>235.66</ele><time>2015-04-15T09:13:56Z</time></trkpt><trkpt lat="51.8619707599" lon="-2.0539740566"><ele>229.41</ele><time>2015-04-15T09:13:57Z</time></trkpt><trkpt lat="51.8619722687" lon="-2.0539821032"><ele>233.26</ele><time>2015-04-15T09:13:58Z</time></trkpt><trkpt lat="51.8619728554" lon="-2.0540042315"><ele>234.70</ele><time>2015-04-15T09:14:00Z</time></trkpt><trkpt lat="51.8619669043" lon="-2.0540228393"><ele>233.26</ele><time>2015-04-15T09:14:02Z</time></trkpt><trkpt lat="51.8619340472" lon="-2.0541117713"><ele>236.62</ele><time>2015-04-15T09:14:09Z</time></trkpt><trkpt lat="51.8619353883" lon="-2.0541210752"><ele>232.78</ele><time>2015-04-15T09:14:10Z</time></trkpt><trkpt lat="51.8619262520" lon="-2.0541376714"><ele>238.06</ele><time>2015-04-15T09:14:14Z</time></trkpt><trkpt lat="51.8619246595" lon="-2.0541385096"><ele>232.78</ele><time>2015-04-15T09:14:15Z</time></trkpt><trkpt lat="51.8618923053" lon="-2.0541404374"><ele>236.62</ele><time>2015-04-15T09:14:24Z</time></trkpt><trkpt lat="51.8618986756" lon="-2.0541477297"><ele>236.62</ele><time>2015-04-15T09:14:46Z</time></trkpt><trkpt lat="51.8618697580" lon="-2.0542104263"><ele>240.47</ele><time>2015-04-15T09:14:59Z</time></trkpt><trkpt lat="51.8618607894" lon="-2.0542207360"><ele>236.14</ele><time>2015-04-15T09:15:00Z</time></trkpt><trkpt lat="51.8618327100" lon="-2.0542637352"><ele>241.43</ele><time>2015-04-15T09:15:04Z</time></trkpt><trkpt lat="51.8618260883" lon="-2.0542728715"><ele>237.10</ele><time>2015-04-15T09:15:05Z</time></trkpt><trkpt lat="51.8618200533" lon="-2.0543043874"><ele>241.43</ele><time>2015-04-15T09:15:07Z</time></trkpt><trkpt lat="51.8618078157" lon="-2.0543949958"><ele>238.54</ele><time>2015-04-15T09:15:12Z</time></trkpt><trkpt lat="51.8617994338" lon="-2.0543996897"><ele>241.43</ele><time>2015-04-15T09:15:13Z</time></trkpt><trkpt lat="51.8617840949" lon="-2.0544198062"><ele>242.39</ele><time>2015-04-15T09:15:15Z</time></trkpt><trkpt lat="51.8617384136" lon="-2.0545554254"><ele>246.72</ele><time>2015-04-15T09:15:26Z</time></trkpt><trkpt lat="51.8617335521" lon="-2.0545596164"><ele>245.75</ele><time>2015-04-15T09:15:27Z</time></trkpt><trkpt lat="51.8617285229" lon="-2.0545815770"><ele>241.43</ele><time>2015-04-15T09:15:29Z</time></trkpt><trkpt lat="51.8617245834" lon="-2.0545905456"><ele>244.31</ele><time>2015-04-15T09:15:30Z</time></trkpt><trkpt lat="51.8616872001" lon="-2.0546300244"><ele>244.79</ele><time>2015-04-15T09:15:53Z</time></trkpt><trkpt lat="51.8616175465" lon="-2.0545711834"><ele>244.31</ele><time>2015-04-15T09:16:20Z</time></trkpt><trkpt lat="51.8616069015" lon="-2.0545580238"><ele>245.27</ele><time>2015-04-15T09:16:33Z</time></trkpt><trkpt lat="51.8616017047" lon="-2.0545500610"><ele>243.83</ele><time>2015-04-15T09:16:52Z</time></trkpt><trkpt lat="51.8616566062" lon="-2.0545566827"><ele>244.31</ele><time>2015-04-15T09:17:14Z</time></trkpt><trkpt lat="51.8616739567" lon="-2.0545731951"><ele>243.83</ele><time>2015-04-15T09:17:36Z</time></trkpt><trkpt lat="51.8616528343" lon="-2.0545749553"><ele>243.83</ele><time>2015-04-15T09:18:01Z</time></trkpt><trkpt lat="51.8616093323" lon="-2.0545312017"><ele>243.83</ele><time>2015-04-15T09:18:22Z</time></trkpt><trkpt lat="51.8615943287" lon="-2.0545064751"><ele>243.35</ele><time>2015-04-15T09:18:46Z</time></trkpt><trkpt lat="51.8615665007" lon="-2.0544891246"><ele>244.31</ele><time>2015-04-15T09:19:16Z</time></trkpt><trkpt lat="51.8616081588" lon="-2.0545398351"><ele>244.79</ele><time>2015-04-15T09:19:47Z</time></trkpt><trkpt lat="51.8616405129" lon="-2.0545861870"><ele>248.16</ele><time>2015-04-15T09:20:08Z</time></trkpt><trkpt lat="51.8616416026" lon="-2.0545894559"><ele>244.79</ele><time>2015-04-15T09:20:09Z</time></trkpt><trkpt lat="51.8616470508" lon="-2.0546016097"><ele>248.16</ele><time>2015-04-15T09:20:11Z</time></trkpt><trkpt lat="51.8616477214" lon="-2.0546052977"><ele>243.83</ele><time>2015-04-15T09:20:12Z</time></trkpt><trkpt lat="51.8616507389" lon="-2.0546260010"><ele>248.16</ele><time>2015-04-15T09:20:15Z</time></trkpt><trkpt lat="51.8616529182" lon="-2.0546347182"><ele>243.35</ele><time>2015-04-15T09:20:16Z</time></trkpt><trkpt lat="51.8616594560" lon="-2.0546460338"><ele>247.20</ele><time>2015-04-15T09:20:18Z</time></trkpt><trkpt lat="51.8617580272" lon="-2.0548311900"><ele>246.23</ele><time>2015-04-15T09:20:33Z</time></trkpt><trkpt lat="51.8617755454" lon="-2.0548536535"><ele>250.08</ele><time>2015-04-15T09:20:35Z</time></trkpt><trkpt lat="51.8618697580" lon="-2.0549587626"><ele>250.56</ele><time>2015-04-15T09:20:47Z</time></trkpt><trkpt lat="51.8619621266" lon="-2.0550948847"><ele>252.48</ele><time>2015-04-15T09:21:02Z</time></trkpt><trkpt lat="51.8620016053" lon="-2.0551982336"><ele>254.41</ele><time>2015-04-15T09:21:13Z</time></trkpt><trkpt lat="51.8620405812" lon="-2.0552631933"><ele>258.25</ele><time>2015-04-15T09:21:23Z</time></trkpt><trkpt lat="51.8620448560" lon="-2.0552703179"><ele>252.96</ele><time>2015-04-15T09:21:24Z</time></trkpt><trkpt lat="51.8620492145" lon="-2.0552797895"><ele>253.93</ele><time>2015-04-15T09:21:25Z</time></trkpt><trkpt lat="51.8620594405" lon="-2.0553023368"><ele>257.29</ele><time>2015-04-15T09:21:27Z</time></trkpt><trkpt lat="51.8620722648" lon="-2.0553343557"><ele>253.44</ele><time>2015-04-15T09:21:31Z</time></trkpt><trkpt lat="51.8620753661" lon="-2.0553444978"><ele>256.81</ele><time>2015-04-15T09:21:32Z</time></trkpt><trkpt lat="51.8620803952" lon="-2.0553658716"><ele>252.96</ele><time>2015-04-15T09:21:34Z</time></trkpt><trkpt lat="51.8620871846" lon="-2.0553770196"><ele>257.29</ele><time>2015-04-15T09:21:35Z</time></trkpt><trkpt lat="51.8621067144" lon="-2.0553985611"><ele>252.96</ele><time>2015-04-15T09:21:37Z</time></trkpt><trkpt lat="51.8621155992" lon="-2.0554093737"><ele>254.89</ele><time>2015-04-15T09:21:38Z</time></trkpt><trkpt lat="51.8621369731" lon="-2.0554339327"><ele>258.73</ele><time>2015-04-15T09:21:40Z</time></trkpt><trkpt lat="51.8621500488" lon="-2.0554569829"><ele>256.81</ele><time>2015-04-15T09:21:42Z</time></trkpt><trkpt lat="51.8621890247" lon="-2.0554890856"><ele>253.93</ele><time>2015-04-15T09:21:45Z</time></trkpt><trkpt lat="51.8622005079" lon="-2.0554920193"><ele>258.25</ele><time>2015-04-15T09:21:46Z</time></trkpt><trkpt lat="51.8622105662" lon="-2.0554961264"><ele>260.17</ele><time>2015-04-15T09:21:47Z</time></trkpt><trkpt lat="51.8622537330" lon="-2.0555055141"><ele>260.17</ele><time>2015-04-15T09:21:52Z</time></trkpt><trkpt lat="51.8622673117" lon="-2.0555173326"><ele>256.33</ele><time>2015-04-15T09:21:54Z</time></trkpt><trkpt lat="51.8622792978" lon="-2.0555226132"><ele>259.69</ele><time>2015-04-15T09:21:55Z</time></trkpt><trkpt lat="51.8623343669" lon="-2.0555691328"><ele>260.65</ele><time>2015-04-15T09:22:01Z</time></trkpt><trkpt lat="51.8624247238" lon="-2.0556313265"><ele>260.65</ele><time>2015-04-15T09:22:11Z</time></trkpt><trkpt lat="51.8624320161" lon="-2.0556393731"><ele>257.77</ele><time>2015-04-15T09:22:12Z</time></trkpt><trkpt lat="51.8624386378" lon="-2.0556474198"><ele>261.14</ele><time>2015-04-15T09:22:13Z</time></trkpt><trkpt lat="51.8625753466" lon="-2.0557615813"><ele>263.54</ele><time>2015-04-15T09:22:29Z</time></trkpt><trkpt lat="51.8626311701" lon="-2.0557899121"><ele>261.62</ele><time>2015-04-15T09:22:35Z</time></trkpt><trkpt lat="51.8626533821" lon="-2.0558019821"><ele>265.94</ele><time>2015-04-15T09:22:37Z</time></trkpt><trkpt lat="51.8626646139" lon="-2.0558081847"><ele>262.58</ele><time>2015-04-15T09:22:38Z</time></trkpt><trkpt lat="51.8627148215" lon="-2.0558155607"><ele>264.02</ele><time>2015-04-15T09:22:43Z</time></trkpt><trkpt lat="51.8627219461" lon="-2.0558180753"><ele>260.17</ele><time>2015-04-15T09:22:44Z</time></trkpt><trkpt lat="51.8627295736" lon="-2.0558226015"><ele>263.54</ele><time>2015-04-15T09:22:45Z</time></trkpt><trkpt lat="51.8627781887" lon="-2.0558438078"><ele>266.90</ele><time>2015-04-15T09:22:50Z</time></trkpt><trkpt lat="51.8628008198" lon="-2.0558524411"><ele>261.62</ele><time>2015-04-15T09:22:52Z</time></trkpt><trkpt lat="51.8628256302" lon="-2.0558578055"><ele>264.50</ele><time>2015-04-15T09:22:55Z</time></trkpt><trkpt lat="51.8628534582" lon="-2.0558768325"><ele>260.65</ele><time>2015-04-15T09:22:58Z</time></trkpt><trkpt lat="51.8628637679" lon="-2.0558854658"><ele>264.50</ele><time>2015-04-15T09:22:59Z</time></trkpt><trkpt lat="51.8628863990" lon="-2.0558920875"><ele>261.14</ele><time>2015-04-15T09:23:14Z</time></trkpt><trkpt lat="51.8628884107" lon="-2.0559007209"><ele>264.98</ele><time>2015-04-15T09:23:15Z</time></trkpt><trkpt lat="51.8628943618" lon="-2.0559443906"><ele>261.14</ele><time>2015-04-15T09:23:18Z</time></trkpt><trkpt lat="51.8628980499" lon="-2.0559652615"><ele>265.46</ele><time>2015-04-15T09:23:19Z</time></trkpt><trkpt lat="51.8629168253" lon="-2.0560128707"><ele>265.46</ele><time>2015-04-15T09:23:22Z</time></trkpt><trkpt lat="51.8629374448" lon="-2.0560375135"><ele>269.31</ele><time>2015-04-15T09:23:25Z</time></trkpt><trkpt lat="51.8629429769" lon="-2.0560431294"><ele>263.06</ele><time>2015-04-15T09:23:26Z</time></trkpt><trkpt lat="51.8629501015" lon="-2.0560515113"><ele>266.90</ele><time>2015-04-15T09:23:27Z</time></trkpt><trkpt lat="51.8630628381" lon="-2.0561557822"><ele>269.79</ele><time>2015-04-15T09:23:39Z</time></trkpt><trkpt lat="51.8631126266" lon="-2.0561753958"><ele>267.86</ele><time>2015-04-15T09:23:59Z</time></trkpt><trkpt lat="51.8630977068" lon="-2.0561602246"><ele>266.42</ele><time>2015-04-15T09:24:27Z</time></trkpt><trkpt lat="51.8630951084" lon="-2.0562003739"><ele>267.38</ele><time>2015-04-15T09:24:30Z</time></trkpt><trkpt lat="51.8630881514" lon="-2.0562806726"><ele>268.83</ele><time>2015-04-15T09:24:34Z</time></trkpt><trkpt lat="51.8631028198" lon="-2.0563452970"><ele>264.98</ele><time>2015-04-15T09:24:38Z</time></trkpt><trkpt lat="51.8632114492" lon="-2.0564271882"><ele>269.79</ele><time>2015-04-15T09:24:47Z</time></trkpt><trkpt lat="51.8632340804" lon="-2.0564799942"><ele>269.79</ele><time>2015-04-15T09:24:50Z</time></trkpt><trkpt lat="51.8632420432" lon="-2.0565005299"><ele>270.27</ele><time>2015-04-15T09:24:51Z</time></trkpt><trkpt lat="51.8632619921" lon="-2.0565860253"><ele>265.46</ele><time>2015-04-15T09:24:55Z</time></trkpt><trkpt lat="51.8632669374" lon="-2.0566089079"><ele>269.79</ele><time>2015-04-15T09:24:56Z</time></trkpt><trkpt lat="51.8632850423" lon="-2.0566693414"><ele>272.19</ele><time>2015-04-15T09:24:59Z</time></trkpt><trkpt lat="51.8632970285" lon="-2.0567036234"><ele>268.35</ele><time>2015-04-15T09:25:01Z</time></trkpt><trkpt lat="51.8633101042" lon="-2.0567278471"><ele>270.27</ele><time>2015-04-15T09:25:03Z</time></trkpt><trkpt lat="51.8633910734" lon="-2.0568035357"><ele>267.86</ele><time>2015-04-15T09:25:10Z</time></trkpt><trkpt lat="51.8633984495" lon="-2.0568140969"><ele>268.83</ele><time>2015-04-15T09:25:11Z</time></trkpt><trkpt lat="51.8634199072" lon="-2.0568602812"><ele>275.07</ele><time>2015-04-15T09:25:14Z</time></trkpt><trkpt lat="51.8634246849" lon="-2.0568739437"><ele>270.75</ele><time>2015-04-15T09:25:15Z</time></trkpt><trkpt lat="51.8634643313" lon="-2.0569912903"><ele>274.11</ele><time>2015-04-15T09:25:22Z</time></trkpt><trkpt lat="51.8634735513" lon="-2.0570080541"><ele>273.63</ele><time>2015-04-15T09:25:23Z</time></trkpt><trkpt lat="51.8634915724" lon="-2.0570351277"><ele>269.79</ele><time>2015-04-15T09:25:25Z</time></trkpt><trkpt lat="51.8635104317" lon="-2.0570637938"><ele>273.15</ele><time>2015-04-15T09:25:27Z</time></trkpt><trkpt lat="51.8635672610" lon="-2.0571482833"><ele>269.31</ele><time>2015-04-15T09:25:34Z</time></trkpt><trkpt lat="51.8635856174" lon="-2.0571766142"><ele>273.15</ele><time>2015-04-15T09:25:36Z</time></trkpt><trkpt lat="51.8636059016" lon="-2.0572014246"><ele>274.11</ele><time>2015-04-15T09:25:38Z</time></trkpt><trkpt lat="51.8636137806" lon="-2.0572110638"><ele>270.75</ele><time>2015-04-15T09:25:39Z</time></trkpt><trkpt lat="51.8636366632" lon="-2.0572434179"><ele>274.11</ele><time>2015-04-15T09:25:42Z</time></trkpt><trkpt lat="51.8636682630" lon="-2.0572964754"><ele>274.59</ele><time>2015-04-15T09:25:46Z</time></trkpt><trkpt lat="51.8636752199" lon="-2.0573060308"><ele>270.75</ele><time>2015-04-15T09:25:47Z</time></trkpt><trkpt lat="51.8636943307" lon="-2.0573282428"><ele>274.11</ele><time>2015-04-15T09:25:49Z</time></trkpt><trkpt lat="51.8637273554" lon="-2.0573899336"><ele>270.27</ele><time>2015-04-15T09:25:53Z</time></trkpt><trkpt lat="51.8637339771" lon="-2.0574018359"><ele>272.19</ele><time>2015-04-15T09:25:54Z</time></trkpt><trkpt lat="51.8637420237" lon="-2.0574148279"><ele>268.83</ele><time>2015-04-15T09:25:55Z</time></trkpt><trkpt lat="51.8637601286" lon="-2.0574432425"><ele>274.59</ele><time>2015-04-15T09:25:57Z</time></trkpt><trkpt lat="51.8637970090" lon="-2.0575080346"><ele>270.75</ele><time>2015-04-15T09:26:02Z</time></trkpt><trkpt lat="51.8638052233" lon="-2.0575192664"><ele>275.56</ele><time>2015-04-15T09:26:03Z</time></trkpt><trkpt lat="51.8639415130" lon="-2.0576808695"><ele>274.59</ele><time>2015-04-15T09:26:17Z</time></trkpt><trkpt lat="51.8639776390" lon="-2.0577252097"><ele>277.96</ele><time>2015-04-15T09:26:21Z</time></trkpt><trkpt lat="51.8639886193" lon="-2.0577438176"><ele>273.15</ele><time>2015-04-15T09:26:23Z</time></trkpt><trkpt lat="51.8639963306" lon="-2.0577518642"><ele>276.52</ele><time>2015-04-15T09:26:24Z</time></trkpt><trkpt lat="51.8640828319" lon="-2.0578819513"><ele>280.36</ele><time>2015-04-15T09:26:36Z</time></trkpt><trkpt lat="51.8640898727" lon="-2.0579002239"><ele>268.83</ele><time>2015-04-15T09:26:39Z</time></trkpt><trkpt lat="51.8640926387" lon="-2.0579085220"><ele>278.44</ele><time>2015-04-15T09:26:40Z</time></trkpt><trkpt lat="51.8641755357" lon="-2.0579903293"><ele>278.44</ele><time>2015-04-15T09:26:52Z</time></trkpt><trkpt lat="51.8642593548" lon="-2.0580549538"><ele>278.44</ele><time>2015-04-15T09:27:07Z</time></trkpt><trkpt lat="51.8642813992" lon="-2.0580911636"><ele>273.63</ele><time>2015-04-15T09:27:19Z</time></trkpt><trkpt lat="51.8642884400" lon="-2.0581020601"><ele>277.96</ele><time>2015-04-15T09:27:20Z</time></trkpt><trkpt lat="51.8643545732" lon="-2.0581992902"><ele>282.77</ele><time>2015-04-15T09:27:27Z</time></trkpt><trkpt lat="51.8643678166" lon="-2.0582187362"><ele>276.52</ele><time>2015-04-15T09:27:29Z</time></trkpt><trkpt lat="51.8643761147" lon="-2.0582298841"><ele>277.48</ele><time>2015-04-15T09:27:30Z</time></trkpt><trkpt lat="51.8643839937" lon="-2.0582416188"><ele>280.84</ele><time>2015-04-15T09:27:31Z</time></trkpt><trkpt lat="51.8643929623" lon="-2.0582540240"><ele>280.84</ele><time>2015-04-15T09:27:32Z</time></trkpt><trkpt lat="51.8644181918" lon="-2.0582857076"><ele>279.40</ele><time>2015-04-15T09:27:35Z</time></trkpt><trkpt lat="51.8644396495" lon="-2.0583059080"><ele>279.88</ele><time>2015-04-15T09:27:54Z</time></trkpt><trkpt lat="51.8644410744" lon="-2.0583072491"><ele>279.88</ele><time>2015-04-15T09:28:36Z</time></trkpt><trkpt lat="51.8644393142" lon="-2.0583137870"><ele>280.36</ele><time>2015-04-15T09:29:08Z</time></trkpt><trkpt lat="51.8644399848" lon="-2.0583165530"><ele>267.38</ele><time>2015-04-15T09:29:29Z</time></trkpt><trkpt lat="51.8644399848" lon="-2.0583165530"><ele>295.74</ele><time>2015-04-15T09:29:30Z</time></trkpt><trkpt lat="51.8644399848" lon="-2.0583166368"><ele>282.28</ele><time>2015-04-15T09:29:31Z</time></trkpt><trkpt lat="51.8644371349" lon="-2.0583150443"><ele>278.92</ele><time>2015-04-15T09:29:50Z</time></trkpt><trkpt lat="51.8644351233" lon="-2.0583244320"><ele>283.25</ele><time>2015-04-15T09:30:08Z</time></trkpt><trkpt lat="51.8644325249" lon="-2.0583336521"><ele>280.84</ele><time>2015-04-15T09:30:30Z</time></trkpt><trkpt lat="51.8644292559" lon="-2.0583409443"><ele>278.44</ele><time>2015-04-15T09:30:31Z</time></trkpt><trkpt lat="51.8643751927" lon="-2.0584273618"><ele>282.77</ele><time>2015-04-15T09:30:40Z</time></trkpt><trkpt lat="51.8643709179" lon="-2.0584570337"><ele>282.28</ele><time>2015-04-15T09:31:16Z</time></trkpt><trkpt lat="51.8643778749" lon="-2.0584481489"><ele>281.32</ele><time>2015-04-15T09:31:37Z</time></trkpt><trkpt lat="51.8645041063" lon="-2.0584907290"><ele>281.32</ele><time>2015-04-15T09:31:47Z</time></trkpt><trkpt lat="51.8645392265" lon="-2.0585447922"><ele>282.77</ele><time>2015-04-15T09:31:50Z</time></trkpt><trkpt lat="51.8645782024" lon="-2.0586118475"><ele>280.36</ele><time>2015-04-15T09:31:55Z</time></trkpt><trkpt lat="51.8645999953" lon="-2.0586420223"><ele>277.96</ele><time>2015-04-15T09:31:58Z</time></trkpt><trkpt lat="51.8646086287" lon="-2.0586518291"><ele>282.77</ele><time>2015-04-15T09:31:59Z</time></trkpt><trkpt lat="51.8646175973" lon="-2.0586602949"><ele>279.88</ele><time>2015-04-15T09:32:00Z</time></trkpt><trkpt lat="51.8646917772" lon="-2.0587584469"><ele>280.84</ele><time>2015-04-15T09:32:07Z</time></trkpt><trkpt lat="51.8647505343" lon="-2.0588487200"><ele>279.40</ele><time>2015-04-15T09:32:12Z</time></trkpt><trkpt lat="51.8647682201" lon="-2.0588923059"><ele>281.32</ele><time>2015-04-15T09:32:14Z</time></trkpt><trkpt lat="51.8648338504" lon="-2.0590220578"><ele>277.48</ele><time>2015-04-15T09:32:22Z</time></trkpt><trkpt lat="51.8648375385" lon="-2.0590358879"><ele>281.80</ele><time>2015-04-15T09:32:23Z</time></trkpt><trkpt lat="51.8648408912" lon="-2.0590481255"><ele>277.96</ele><time>2015-04-15T09:32:24Z</time></trkpt><trkpt lat="51.8648454174" lon="-2.0590722654"><ele>282.77</ele><time>2015-04-15T09:32:26Z</time></trkpt><trkpt lat="51.8648459204" lon="-2.0590830781"><ele>276.52</ele><time>2015-04-15T09:32:27Z</time></trkpt><trkpt lat="51.8648460042" lon="-2.0590911247"><ele>280.36</ele><time>2015-04-15T09:32:28Z</time></trkpt><trkpt lat="51.8648536317" lon="-2.0590990875"><ele>280.36</ele><time>2015-04-15T09:33:00Z</time></trkpt><trkpt lat="51.8648776039" lon="-2.0591283403"><ele>279.40</ele><time>2015-04-15T09:33:15Z</time></trkpt><trkpt lat="51.8649052642" lon="-2.0591752790"><ele>280.84</ele><time>2015-04-15T09:33:18Z</time></trkpt><trkpt lat="51.8649403006" lon="-2.0592756942"><ele>279.40</ele><time>2015-04-15T09:33:24Z</time></trkpt><trkpt lat="51.8649606686" lon="-2.0593232196"><ele>280.84</ele><time>2015-04-15T09:33:27Z</time></trkpt><trkpt lat="51.8649977166" lon="-2.0593961421"><ele>279.40</ele><time>2015-04-15T09:33:33Z</time></trkpt><trkpt lat="51.8650542106" lon="-2.0595961343"><ele>277.96</ele><time>2015-04-15T09:33:44Z</time></trkpt><trkpt lat="51.8650632631" lon="-2.0596575737"><ele>279.88</ele><time>2015-04-15T09:33:47Z</time></trkpt><trkpt lat="51.8650848046" lon="-2.0598063525"><ele>276.04</ele><time>2015-04-15T09:33:55Z</time></trkpt><trkpt lat="51.8650865648" lon="-2.0598496031"><ele>280.36</ele><time>2015-04-15T09:33:57Z</time></trkpt><trkpt lat="51.8650859781" lon="-2.0598732401"><ele>279.88</ele><time>2015-04-15T09:33:58Z</time></trkpt><trkpt lat="51.8650884926" lon="-2.0599487610"><ele>281.80</ele><time>2015-04-15T09:34:01Z</time></trkpt><trkpt lat="51.8650940247" lon="-2.0599887427"><ele>277.96</ele><time>2015-04-15T09:34:03Z</time></trkpt><trkpt lat="51.8650968745" lon="-2.0600059256"><ele>281.32</ele><time>2015-04-15T09:34:04Z</time></trkpt><trkpt lat="51.8651003949" lon="-2.0600693766"><ele>277.96</ele><time>2015-04-15T09:34:08Z</time></trkpt><trkpt lat="51.8651009817" lon="-2.0600889064"><ele>274.59</ele><time>2015-04-15T09:34:09Z</time></trkpt><trkpt lat="51.8651026580" lon="-2.0601121243"><ele>278.92</ele><time>2015-04-15T09:34:10Z</time></trkpt><trkpt lat="51.8650998920" lon="-2.0602338295"><ele>283.73</ele><time>2015-04-15T09:34:15Z</time></trkpt><trkpt lat="51.8651007302" lon="-2.0603054110"><ele>280.84</ele><time>2015-04-15T09:34:19Z</time></trkpt><trkpt lat="51.8651029933" lon="-2.0603422076"><ele>276.52</ele><time>2015-04-15T09:34:21Z</time></trkpt><trkpt lat="51.8651093636" lon="-2.0604090113"><ele>280.36</ele><time>2015-04-15T09:34:24Z</time></trkpt><trkpt lat="51.8651091121" lon="-2.0604335703"><ele>280.36</ele><time>2015-04-15T09:34:25Z</time></trkpt><trkpt lat="51.8651081901" lon="-2.0605679322"><ele>281.80</ele><time>2015-04-15T09:34:31Z</time></trkpt><trkpt lat="51.8651076034" lon="-2.0605856180"><ele>277.96</ele><time>2015-04-15T09:34:32Z</time></trkpt><trkpt lat="51.8651053403" lon="-2.0606048964"><ele>277.96</ele><time>2015-04-15T09:34:33Z</time></trkpt><trkpt lat="51.8651024904" lon="-2.0607259311"><ele>278.92</ele><time>2015-04-15T09:34:38Z</time></trkpt><trkpt lat="51.8650975451" lon="-2.0607841015"><ele>273.63</ele><time>2015-04-15T09:34:40Z</time></trkpt><trkpt lat="51.8650915939" lon="-2.0608108398"><ele>277.48</ele><time>2015-04-15T09:34:41Z</time></trkpt><trkpt lat="51.8650794402" lon="-2.0609089080"><ele>280.84</ele><time>2015-04-15T09:34:45Z</time></trkpt><trkpt lat="51.8650760036" lon="-2.0609464590"><ele>277.48</ele><time>2015-04-15T09:34:47Z</time></trkpt><trkpt lat="51.8650709745" lon="-2.0609756280"><ele>274.59</ele><time>2015-04-15T09:34:49Z</time></trkpt><trkpt lat="51.8650708068" lon="-2.0609928947"><ele>278.92</ele><time>2015-04-15T09:34:50Z</time></trkpt><trkpt lat="51.8650439009" lon="-2.0612372272"><ele>279.40</ele><time>2015-04-15T09:35:03Z</time></trkpt><trkpt lat="51.8650391232" lon="-2.0612712577"><ele>276.52</ele><time>2015-04-15T09:35:05Z</time></trkpt><trkpt lat="51.8650373630" lon="-2.0612880215"><ele>277.00</ele><time>2015-04-15T09:35:06Z</time></trkpt><trkpt lat="51.8650459964" lon="-2.0614133310"><ele>277.48</ele><time>2015-04-15T09:35:14Z</time></trkpt><trkpt lat="51.8650665320" lon="-2.0614593476"><ele>277.96</ele><time>2015-04-15T09:35:18Z</time></trkpt><trkpt lat="51.8651001435" lon="-2.0615657978"><ele>277.00</ele><time>2015-04-15T09:35:34Z</time></trkpt><trkpt lat="51.8651213497" lon="-2.0616592560"><ele>275.56</ele><time>2015-04-15T09:35:44Z</time></trkpt><trkpt lat="51.8651405443" lon="-2.0617763512"><ele>276.52</ele><time>2015-04-15T09:36:02Z</time></trkpt><trkpt lat="51.8651425559" lon="-2.0617825538"><ele>276.04</ele><time>2015-04-15T09:36:30Z</time></trkpt><trkpt lat="51.8651378620" lon="-2.0617832243"><ele>276.52</ele><time>2015-04-15T09:36:54Z</time></trkpt><trkpt lat="51.8651298992" lon="-2.0617824700"><ele>277.00</ele><time>2015-04-15T09:37:26Z</time></trkpt><trkpt lat="51.8651310727" lon="-2.0617789496"><ele>276.52</ele><time>2015-04-15T09:37:51Z</time></trkpt><trkpt lat="51.8651288934" lon="-2.0617797878"><ele>276.52</ele><time>2015-04-15T09:38:18Z</time></trkpt><trkpt lat="51.8651795201" lon="-2.0617861580"><ele>275.56</ele><time>2015-04-15T09:38:37Z</time></trkpt><trkpt lat="51.8651757482" lon="-2.0617957972"><ele>275.07</ele><time>2015-04-15T09:39:03Z</time></trkpt><trkpt lat="51.8651461601" lon="-2.0618402213"><ele>272.67</ele><time>2015-04-15T09:39:07Z</time></trkpt><trkpt lat="51.8651372753" lon="-2.0618511178"><ele>278.92</ele><time>2015-04-15T09:39:08Z</time></trkpt><trkpt lat="51.8651231937" lon="-2.0618957095"><ele>272.67</ele><time>2015-04-15T09:39:11Z</time></trkpt><trkpt lat="51.8651197571" lon="-2.0619120542"><ele>277.00</ele><time>2015-04-15T09:39:12Z</time></trkpt><trkpt lat="51.8650724832" lon="-2.0621052571"><ele>273.63</ele><time>2015-04-15T09:39:25Z</time></trkpt><trkpt lat="51.8650627602" lon="-2.0621418860"><ele>277.00</ele><time>2015-04-15T09:39:27Z</time></trkpt><trkpt lat="51.8650456611" lon="-2.0621896628"><ele>273.63</ele><time>2015-04-15T09:39:30Z</time></trkpt><trkpt lat="51.8650379498" lon="-2.0622200053"><ele>277.48</ele><time>2015-04-15T09:39:32Z</time></trkpt><trkpt lat="51.8650205992" lon="-2.0623037405"><ele>275.56</ele><time>2015-04-15T09:39:38Z</time></trkpt><trkpt lat="51.8650165759" lon="-2.0623202529"><ele>277.00</ele><time>2015-04-15T09:39:40Z</time></trkpt><trkpt lat="51.8649952020" lon="-2.0623324066"><ele>281.80</ele><time>2015-04-15T09:39:45Z</time></trkpt><trkpt lat="51.8649893347" lon="-2.0623440575"><ele>276.04</ele><time>2015-04-15T09:39:46Z</time></trkpt><trkpt lat="51.8649887480" lon="-2.0623811055"><ele>279.88</ele><time>2015-04-15T09:39:49Z</time></trkpt><trkpt lat="51.8649924360" lon="-2.0624052454"><ele>276.04</ele><time>2015-04-15T09:39:51Z</time></trkpt><trkpt lat="51.8649919331" lon="-2.0624254458"><ele>277.48</ele><time>2015-04-15T09:39:52Z</time></trkpt><trkpt lat="51.8649594113" lon="-2.0626673475"><ele>277.00</ele><time>2015-04-15T09:40:09Z</time></trkpt><trkpt lat="51.8649505265" lon="-2.0627487358"><ele>277.00</ele><time>2015-04-15T09:40:16Z</time></trkpt><trkpt lat="51.8649267219" lon="-2.0629403461"><ele>277.48</ele><time>2015-04-15T09:40:28Z</time></trkpt><trkpt lat="51.8649086170" lon="-2.0631626341"><ele>276.52</ele><time>2015-04-15T09:40:43Z</time></trkpt><trkpt lat="51.8649107125" lon="-2.0631970838"><ele>277.48</ele><time>2015-04-15T09:40:45Z</time></trkpt><trkpt lat="51.8649178371" lon="-2.0632766280"><ele>277.48</ele><time>2015-04-15T09:40:50Z</time></trkpt><trkpt lat="51.8649019953" lon="-2.0634371415"><ele>275.56</ele><time>2015-04-15T09:41:09Z</time></trkpt><trkpt lat="51.8649016600" lon="-2.0634590182"><ele>276.04</ele><time>2015-04-15T09:41:34Z</time></trkpt><trkpt lat="51.8649083655" lon="-2.0634855889"><ele>277.96</ele><time>2015-04-15T09:42:03Z</time></trkpt><trkpt lat="51.8649012409" lon="-2.0635031071"><ele>274.11</ele><time>2015-04-15T09:42:05Z</time></trkpt><trkpt lat="51.8648936972" lon="-2.0635103155"><ele>275.56</ele><time>2015-04-15T09:42:06Z</time></trkpt><trkpt lat="51.8648765981" lon="-2.0635237265"><ele>280.36</ele><time>2015-04-15T09:42:08Z</time></trkpt><trkpt lat="51.8648707308" lon="-2.0635285880"><ele>274.11</ele><time>2015-04-15T09:42:09Z</time></trkpt><trkpt lat="51.8648651149" lon="-2.0635339525"><ele>275.56</ele><time>2015-04-15T09:42:10Z</time></trkpt><trkpt lat="51.8648510333" lon="-2.0635463577"><ele>278.44</ele><time>2015-04-15T09:42:12Z</time></trkpt><trkpt lat="51.8648443278" lon="-2.0635532308"><ele>275.56</ele><time>2015-04-15T09:42:13Z</time></trkpt><trkpt lat="51.8648383766" lon="-2.0635609422"><ele>278.44</ele><time>2015-04-15T09:42:14Z</time></trkpt><trkpt lat="51.8648314197" lon="-2.0635688212"><ele>275.07</ele><time>2015-04-15T09:42:15Z</time></trkpt><trkpt lat="51.8648149073" lon="-2.0635886863"><ele>278.92</ele><time>2015-04-15T09:42:17Z</time></trkpt><trkpt lat="51.8648074474" lon="-2.0635967329"><ele>277.96</ele><time>2015-04-15T09:42:18Z</time></trkpt><trkpt lat="51.8647997361" lon="-2.0636067074"><ele>274.59</ele><time>2015-04-15T09:42:19Z</time></trkpt><trkpt lat="51.8647930305" lon="-2.0636171009"><ele>277.00</ele><time>2015-04-15T09:42:20Z</time></trkpt><trkpt lat="51.8647836428" lon="-2.0636425819"><ele>280.36</ele><time>2015-04-15T09:42:22Z</time></trkpt><trkpt lat="51.8647774402" lon="-2.0636645425"><ele>272.67</ele><time>2015-04-15T09:42:23Z</time></trkpt><trkpt lat="51.8647694774" lon="-2.0636808034"><ele>276.04</ele><time>2015-04-15T09:42:24Z</time></trkpt><trkpt lat="51.8647608440" lon="-2.0636977348"><ele>279.40</ele><time>2015-04-15T09:42:25Z</time></trkpt><trkpt lat="51.8647531327" lon="-2.0637125708"><ele>277.48</ele><time>2015-04-15T09:42:26Z</time></trkpt><trkpt lat="51.8647383805" lon="-2.0638924465"><ele>275.56</ele><time>2015-04-15T09:42:35Z</time></trkpt><trkpt lat="51.8647637777" lon="-2.0640206896"><ele>274.11</ele><time>2015-04-15T09:42:42Z</time></trkpt><trkpt lat="51.8647735845" lon="-2.0640480984"><ele>278.44</ele><time>2015-04-15T09:42:44Z</time></trkpt><trkpt lat="51.8647787813" lon="-2.0640618447"><ele>281.80</ele><time>2015-04-15T09:42:45Z</time></trkpt><trkpt lat="51.8647846486" lon="-2.0640727412"><ele>277.00</ele><time>2015-04-15T09:42:46Z</time></trkpt><trkpt lat="51.8647906836" lon="-2.0640829671"><ele>277.00</ele><time>2015-04-15T09:42:47Z</time></trkpt><trkpt lat="51.8648258876" lon="-2.0641817898"><ele>277.00</ele><time>2015-04-15T09:42:54Z</time></trkpt><trkpt lat="51.8648440763" lon="-2.0642744098"><ele>277.48</ele><time>2015-04-15T09:42:59Z</time></trkpt><trkpt lat="51.8648454174" lon="-2.0643392019"><ele>276.04</ele><time>2015-04-15T09:43:03Z</time></trkpt><trkpt lat="51.8648401368" lon="-2.0645626634"><ele>275.56</ele><time>2015-04-15T09:43:17Z</time></trkpt><trkpt lat="51.8648389634" lon="-2.0645746496"><ele>275.56</ele><time>2015-04-15T09:43:18Z</time></trkpt><trkpt lat="51.8648540508" lon="-2.0645895693"><ele>276.04</ele><time>2015-04-15T09:43:31Z</time></trkpt><trkpt lat="51.8648457527" lon="-2.0646120328"><ele>274.11</ele><time>2015-04-15T09:43:35Z</time></trkpt><trkpt lat="51.8648311682" lon="-2.0646613184"><ele>278.44</ele><time>2015-04-15T09:43:38Z</time></trkpt><trkpt lat="51.8648125604" lon="-2.0647018030"><ele>273.63</ele><time>2015-04-15T09:43:41Z</time></trkpt><trkpt lat="51.8647924438" lon="-2.0647826046"><ele>277.00</ele><time>2015-04-15T09:43:45Z</time></trkpt><trkpt lat="51.8647904322" lon="-2.0648011286"><ele>277.48</ele><time>2015-04-15T09:43:46Z</time></trkpt><trkpt lat="51.8647898454" lon="-2.0648474805"><ele>274.11</ele><time>2015-04-15T09:43:49Z</time></trkpt><trkpt lat="51.8647870794" lon="-2.0648936648"><ele>277.00</ele><time>2015-04-15T09:43:51Z</time></trkpt><trkpt lat="51.8647824693" lon="-2.0649691019"><ele>275.56</ele><time>2015-04-15T09:43:55Z</time></trkpt><trkpt lat="51.8647857383" lon="-2.0650090836"><ele>271.71</ele><time>2015-04-15T09:43:57Z</time></trkpt><trkpt lat="51.8647869118" lon="-2.0650320500"><ele>277.00</ele><time>2015-04-15T09:43:58Z</time></trkpt><trkpt lat="51.8647920247" lon="-2.0651000272"><ele>278.44</ele><time>2015-04-15T09:44:01Z</time></trkpt><trkpt lat="51.8647912703" lon="-2.0651353151"><ele>274.11</ele><time>2015-04-15T09:44:03Z</time></trkpt><trkpt lat="51.8647928629" lon="-2.0651761349"><ele>278.92</ele><time>2015-04-15T09:44:05Z</time></trkpt><trkpt lat="51.8648097944" lon="-2.0652945712"><ele>275.56</ele><time>2015-04-15T09:44:11Z</time></trkpt><trkpt lat="51.8648106325" lon="-2.0653120894"><ele>275.07</ele><time>2015-04-15T09:44:12Z</time></trkpt><trkpt lat="51.8648159131" lon="-2.0653542504"><ele>277.48</ele><time>2015-04-15T09:44:14Z</time></trkpt><trkpt lat="51.8648346886" lon="-2.0654244069"><ele>276.04</ele><time>2015-04-15T09:44:18Z</time></trkpt><trkpt lat="51.8648724072" lon="-2.0656449348"><ele>278.92</ele><time>2015-04-15T09:44:30Z</time></trkpt><trkpt lat="51.8648867402" lon="-2.0657113194"><ele>276.04</ele><time>2015-04-15T09:44:34Z</time></trkpt><trkpt lat="51.8648887519" lon="-2.0657316037"><ele>276.04</ele><time>2015-04-15T09:44:35Z</time></trkpt><trkpt lat="51.8648920208" lon="-2.0657771174"><ele>277.48</ele><time>2015-04-15T09:44:37Z</time></trkpt><trkpt lat="51.8648926076" lon="-2.0658363774"><ele>274.59</ele><time>2015-04-15T09:44:40Z</time></trkpt><trkpt lat="51.8649050128" lon="-2.0658938773"><ele>278.44</ele><time>2015-04-15T09:44:43Z</time></trkpt><trkpt lat="51.8649074435" lon="-2.0659138262"><ele>278.44</ele><time>2015-04-15T09:44:44Z</time></trkpt><trkpt lat="51.8649242073" lon="-2.0660015848"><ele>274.59</ele><time>2015-04-15T09:44:49Z</time></trkpt><trkpt lat="51.8649339303" lon="-2.0660538040"><ele>279.40</ele><time>2015-04-15T09:44:52Z</time></trkpt><trkpt lat="51.8649403006" lon="-2.0660832245"><ele>276.04</ele><time>2015-04-15T09:44:54Z</time></trkpt><trkpt lat="51.8649430666" lon="-2.0660948753"><ele>276.52</ele><time>2015-04-15T09:44:55Z</time></trkpt><trkpt lat="51.8649532925" lon="-2.0661455020"><ele>280.36</ele><time>2015-04-15T09:44:58Z</time></trkpt><trkpt lat="51.8649685476" lon="-2.0662135631"><ele>277.00</ele><time>2015-04-15T09:45:02Z</time></trkpt><trkpt lat="51.8649726547" lon="-2.0662308298"><ele>277.00</ele><time>2015-04-15T09:45:03Z</time></trkpt><trkpt lat="51.8649838865" lon="-2.0662805345"><ele>279.88</ele><time>2015-04-15T09:45:06Z</time></trkpt><trkpt lat="51.8649903405" lon="-2.0663038362"><ele>276.52</ele><time>2015-04-15T09:45:08Z</time></trkpt><trkpt lat="51.8650019914" lon="-2.0663506910"><ele>279.88</ele><time>2015-04-15T09:45:11Z</time></trkpt><trkpt lat="51.8650081102" lon="-2.0663935225"><ele>276.52</ele><time>2015-04-15T09:45:14Z</time></trkpt><trkpt lat="51.8650108762" lon="-2.0664111245"><ele>276.52</ele><time>2015-04-15T09:45:15Z</time></trkpt><trkpt lat="51.8650164083" lon="-2.0664972067"><ele>277.96</ele><time>2015-04-15T09:45:28Z</time></trkpt><trkpt lat="51.8650514446" lon="-2.0665285550"><ele>277.00</ele><time>2015-04-15T09:45:32Z</time></trkpt><trkpt lat="51.8650881574" lon="-2.0665532816"><ele>277.00</ele><time>2015-04-15T09:45:51Z</time></trkpt><trkpt lat="51.8650848884" lon="-2.0665747393"><ele>275.07</ele><time>2015-04-15T09:45:58Z</time></trkpt><trkpt lat="51.8650653586" lon="-2.0666434709"><ele>276.52</ele><time>2015-04-15T09:46:02Z</time></trkpt><trkpt lat="51.8650616705" lon="-2.0667075925"><ele>282.77</ele><time>2015-04-15T09:46:05Z</time></trkpt><trkpt lat="51.8650613353" lon="-2.0667246077"><ele>278.92</ele><time>2015-04-15T09:46:06Z</time></trkpt><trkpt lat="51.8650643528" lon="-2.0667558722"><ele>275.56</ele><time>2015-04-15T09:46:08Z</time></trkpt><trkpt lat="51.8650821224" lon="-2.0669206604"><ele>274.59</ele><time>2015-04-15T09:46:17Z</time></trkpt><trkpt lat="51.8650857266" lon="-2.0669404417"><ele>277.96</ele><time>2015-04-15T09:46:18Z</time></trkpt><trkpt lat="51.8651025742" lon="-2.0672226604"><ele>282.77</ele><time>2015-04-15T09:46:35Z</time></trkpt><trkpt lat="51.8651020713" lon="-2.0672397595"><ele>277.48</ele><time>2015-04-15T09:46:36Z</time></trkpt><trkpt lat="51.8651182484" lon="-2.0673176274"><ele>282.28</ele><time>2015-04-15T09:46:41Z</time></trkpt><trkpt lat="51.8651216850" lon="-2.0673287753"><ele>279.40</ele><time>2015-04-15T09:46:42Z</time></trkpt><trkpt lat="51.8651237804" lon="-2.0673408452"><ele>276.04</ele><time>2015-04-15T09:46:43Z</time></trkpt><trkpt lat="51.8651263788" lon="-2.0673544239"><ele>279.40</ele><time>2015-04-15T09:46:44Z</time></trkpt><trkpt lat="51.8651252054" lon="-2.0673861913"><ele>280.36</ele><time>2015-04-15T09:46:46Z</time></trkpt><trkpt lat="51.8651314080" lon="-2.0674291905"><ele>278.44</ele><time>2015-04-15T09:46:49Z</time></trkpt><trkpt lat="51.8651539553" lon="-2.0675809029"><ele>282.77</ele><time>2015-04-15T09:47:01Z</time></trkpt><trkpt lat="51.8651601579" lon="-2.0676207170"><ele>278.44</ele><time>2015-04-15T09:47:04Z</time></trkpt><trkpt lat="51.8651682045" lon="-2.0676803961"><ele>282.28</ele><time>2015-04-15T09:47:07Z</time></trkpt><trkpt lat="51.8651744910" lon="-2.0677119121"><ele>277.96</ele><time>2015-04-15T09:47:09Z</time></trkpt><trkpt lat="51.8651967030" lon="-2.0678466093"><ele>280.84</ele><time>2015-04-15T09:47:18Z</time></trkpt><trkpt lat="51.8652313203" lon="-2.0680321846"><ele>279.40</ele><time>2015-04-15T09:47:30Z</time></trkpt><trkpt lat="51.8652384449" lon="-2.0680635329"><ele>281.32</ele><time>2015-04-15T09:47:32Z</time></trkpt><trkpt lat="51.8652456533" lon="-2.0680896007"><ele>277.96</ele><time>2015-04-15T09:47:34Z</time></trkpt><trkpt lat="51.8652495090" lon="-2.0681012515"><ele>279.88</ele><time>2015-04-15T09:47:35Z</time></trkpt><trkpt lat="51.8652547896" lon="-2.0681305043"><ele>281.80</ele><time>2015-04-15T09:47:37Z</time></trkpt><trkpt lat="51.8652717210" lon="-2.0681763534"><ele>275.56</ele><time>2015-04-15T09:47:41Z</time></trkpt><trkpt lat="51.8652788457" lon="-2.0681908540"><ele>280.36</ele><time>2015-04-15T09:47:42Z</time></trkpt><trkpt lat="51.8653065898" lon="-2.0682531316"><ele>276.04</ele><time>2015-04-15T09:47:46Z</time></trkpt><trkpt lat="51.8653127924" lon="-2.0682666264"><ele>280.36</ele><time>2015-04-15T09:47:47Z</time></trkpt><trkpt lat="51.8653487507" lon="-2.0683702268"><ele>280.36</ele><time>2015-04-15T09:47:54Z</time></trkpt><trkpt lat="51.8653637543" lon="-2.0684762578"><ele>281.32</ele><time>2015-04-15T09:48:01Z</time></trkpt><trkpt lat="51.8653732259" lon="-2.0685027447"><ele>284.69</ele><time>2015-04-15T09:48:03Z</time></trkpt><trkpt lat="51.8653786741" lon="-2.0685169101"><ele>279.88</ele><time>2015-04-15T09:48:04Z</time></trkpt><trkpt lat="51.8653994612" lon="-2.0685882401"><ele>283.73</ele><time>2015-04-15T09:48:08Z</time></trkpt><trkpt lat="51.8654033169" lon="-2.0686051715"><ele>279.88</ele><time>2015-04-15T09:48:09Z</time></trkpt><trkpt lat="51.8654094357" lon="-2.0686195046"><ele>279.88</ele><time>2015-04-15T09:48:10Z</time></trkpt><trkpt lat="51.8654636666" lon="-2.0687962789"><ele>280.36</ele><time>2015-04-15T09:48:23Z</time></trkpt><trkpt lat="51.8655184843" lon="-2.0690585487"><ele>281.80</ele><time>2015-04-15T09:48:40Z</time></trkpt><trkpt lat="51.8655089289" lon="-2.0693077426"><ele>281.80</ele><time>2015-04-15T09:48:56Z</time></trkpt><trkpt lat="51.8655027263" lon="-2.0693365764"><ele>282.28</ele><time>2015-04-15T09:48:58Z</time></trkpt><trkpt lat="51.8655000441" lon="-2.0694665797"><ele>280.36</ele><time>2015-04-15T09:49:06Z</time></trkpt><trkpt lat="51.8654901534" lon="-2.0696215611"><ele>281.80</ele><time>2015-04-15T09:49:14Z</time></trkpt><trkpt lat="51.8654914107" lon="-2.0696975850"><ele>277.96</ele><time>2015-04-15T09:49:18Z</time></trkpt><trkpt lat="51.8654896505" lon="-2.0697167795"><ele>280.84</ele><time>2015-04-15T09:49:19Z</time></trkpt><trkpt lat="51.8654876389" lon="-2.0697972458"><ele>281.32</ele><time>2015-04-15T09:49:24Z</time></trkpt><trkpt lat="51.8654866330" lon="-2.0698308572"><ele>282.28</ele><time>2015-04-15T09:49:26Z</time></trkpt><trkpt lat="51.8654272053" lon="-2.0701014251"><ele>282.28</ele><time>2015-04-15T09:49:42Z</time></trkpt><trkpt lat="51.8653111160" lon="-2.0703289099"><ele>282.28</ele><time>2015-04-15T09:50:00Z</time></trkpt><trkpt lat="51.8652626686" lon="-2.0704259723"><ele>285.65</ele><time>2015-04-15T09:50:09Z</time></trkpt><trkpt lat="51.8652567174" lon="-2.0704410598"><ele>282.28</ele><time>2015-04-15T09:50:10Z</time></trkpt><trkpt lat="51.8652411271" lon="-2.0704890043"><ele>286.13</ele><time>2015-04-15T09:50:13Z</time></trkpt><trkpt lat="51.8652403727" lon="-2.0705265552"><ele>279.88</ele><time>2015-04-15T09:50:16Z</time></trkpt><trkpt lat="51.8652417138" lon="-2.0705411397"><ele>283.73</ele><time>2015-04-15T09:50:17Z</time></trkpt><trkpt lat="51.8651694618" lon="-2.0707016531"><ele>284.21</ele><time>2015-04-15T09:50:31Z</time></trkpt><trkpt lat="51.8651463278" lon="-2.0707659423"><ele>287.09</ele><time>2015-04-15T09:50:37Z</time></trkpt><trkpt lat="51.8651443161" lon="-2.0707737375"><ele>282.28</ele><time>2015-04-15T09:50:38Z</time></trkpt><trkpt lat="51.8651363533" lon="-2.0707918424"><ele>285.65</ele><time>2015-04-15T09:50:41Z</time></trkpt><trkpt lat="51.8651320785" lon="-2.0707992185"><ele>280.36</ele><time>2015-04-15T09:50:42Z</time></trkpt><trkpt lat="51.8651269656" lon="-2.0708058402"><ele>285.17</ele><time>2015-04-15T09:50:43Z</time></trkpt><trkpt lat="51.8651179969" lon="-2.0708146412"><ele>288.05</ele><time>2015-04-15T09:50:45Z</time></trkpt><trkpt lat="51.8651162367" lon="-2.0708138030"><ele>286.13</ele><time>2015-04-15T09:50:47Z</time></trkpt><trkpt lat="51.8650688790" lon="-2.0707312413"><ele>287.09</ele><time>2015-04-15T09:51:00Z</time></trkpt><trkpt lat="51.8650490977" lon="-2.0707155671"><ele>286.13</ele><time>2015-04-15T09:51:19Z</time></trkpt><trkpt lat="51.8650444876" lon="-2.0707130525"><ele>286.61</ele><time>2015-04-15T09:51:42Z</time></trkpt><trkpt lat="51.8650518637" lon="-2.0707416348"><ele>285.65</ele><time>2015-04-15T09:52:07Z</time></trkpt><trkpt lat="51.8650586531" lon="-2.0707709715"><ele>286.13</ele><time>2015-04-15T09:52:24Z</time></trkpt><trkpt lat="51.8650670350" lon="-2.0708231907"><ele>286.61</ele><time>2015-04-15T09:52:52Z</time></trkpt><trkpt lat="51.8650750816" lon="-2.0708127134"><ele>285.65</ele><time>2015-04-15T09:53:18Z</time></trkpt><trkpt lat="51.8650676217" lon="-2.0708140545"><ele>286.13</ele><time>2015-04-15T09:53:39Z</time></trkpt><trkpt lat="51.8650679570" lon="-2.0708211791"><ele>286.61</ele><time>2015-04-15T09:54:07Z</time></trkpt><trkpt lat="51.8650698010" lon="-2.0708211791"><ele>286.61</ele><time>2015-04-15T09:54:37Z</time></trkpt><trkpt lat="51.8650715612" lon="-2.0708134677"><ele>281.80</ele><time>2015-04-15T09:54:53Z</time></trkpt><trkpt lat="51.8650716450" lon="-2.0708130486"><ele>287.57</ele><time>2015-04-15T09:54:54Z</time></trkpt><trkpt lat="51.8650724832" lon="-2.0708117913"><ele>287.09</ele><time>2015-04-15T09:54:55Z</time></trkpt><trkpt lat="51.8650780991" lon="-2.0708223525"><ele>286.61</ele><time>2015-04-15T09:55:18Z</time></trkpt><trkpt lat="51.8650864810" lon="-2.0708781760"><ele>285.17</ele><time>2015-04-15T09:55:32Z</time></trkpt><trkpt lat="51.8650780991" lon="-2.0708908327"><ele>288.53</ele><time>2015-04-15T09:55:34Z</time></trkpt><trkpt lat="51.8650573958" lon="-2.0709527750"><ele>285.17</ele><time>2015-04-15T09:55:38Z</time></trkpt><trkpt lat="51.8650020752" lon="-2.0712085906"><ele>287.09</ele><time>2015-04-15T09:55:53Z</time></trkpt><trkpt lat="51.8649868201" lon="-2.0712494943"><ele>283.25</ele><time>2015-04-15T09:55:56Z</time></trkpt><trkpt lat="51.8649832159" lon="-2.0712618157"><ele>283.73</ele><time>2015-04-15T09:55:57Z</time></trkpt><trkpt lat="51.8649775162" lon="-2.0712997857"><ele>286.13</ele><time>2015-04-15T09:55:59Z</time></trkpt><trkpt lat="51.8649641052" lon="-2.0713603031"><ele>284.69</ele><time>2015-04-15T09:56:03Z</time></trkpt><trkpt lat="51.8649142329" lon="-2.0714226644"><ele>288.05</ele><time>2015-04-15T09:56:13Z</time></trkpt><trkpt lat="51.8648671266" lon="-2.0714880433"><ele>284.69</ele><time>2015-04-15T09:56:18Z</time></trkpt><trkpt lat="51.8648529612" lon="-2.0715313777"><ele>287.57</ele><time>2015-04-15T09:56:20Z</time></trkpt><trkpt lat="51.8648289889" lon="-2.0715911407"><ele>283.73</ele><time>2015-04-15T09:56:23Z</time></trkpt><trkpt lat="51.8648199365" lon="-2.0716103353"><ele>287.09</ele><time>2015-04-15T09:56:24Z</time></trkpt><trkpt lat="51.8648129795" lon="-2.0716260932"><ele>287.09</ele><time>2015-04-15T09:56:25Z</time></trkpt><trkpt lat="51.8647823855" lon="-2.0717262570"><ele>287.57</ele><time>2015-04-15T09:56:33Z</time></trkpt><trkpt lat="51.8647806253" lon="-2.0718115009"><ele>288.05</ele><time>2015-04-15T09:56:39Z</time></trkpt><trkpt lat="51.8647630233" lon="-2.0719733555"><ele>284.69</ele><time>2015-04-15T09:56:54Z</time></trkpt><trkpt lat="51.8647595868" lon="-2.0719808154"><ele>285.65</ele><time>2015-04-15T09:56:55Z</time></trkpt><trkpt lat="51.8647513725" lon="-2.0720859244"><ele>288.53</ele><time>2015-04-15T09:57:01Z</time></trkpt><trkpt lat="51.8647516239" lon="-2.0721623674"><ele>285.65</ele><time>2015-04-15T09:57:07Z</time></trkpt><trkpt lat="51.8647471815" lon="-2.0722569153"><ele>286.13</ele><time>2015-04-15T09:57:13Z</time></trkpt><trkpt lat="51.8647425715" lon="-2.0723663829"><ele>287.57</ele><time>2015-04-15T09:57:21Z</time></trkpt><trkpt lat="51.8647413142" lon="-2.0725071989"><ele>284.69</ele><time>2015-04-15T09:57:39Z</time></trkpt><trkpt lat="51.8647412304" lon="-2.0725628547"><ele>284.69</ele><time>2015-04-15T09:57:42Z</time></trkpt><trkpt lat="51.8647327647" lon="-2.0727095380"><ele>281.32</ele><time>2015-04-15T09:57:51Z</time></trkpt><trkpt lat="51.8647284899" lon="-2.0727236196"><ele>284.69</ele><time>2015-04-15T09:57:52Z</time></trkpt><trkpt lat="51.8647180125" lon="-2.0728476718"><ele>288.53</ele><time>2015-04-15T09:58:01Z</time></trkpt><trkpt lat="51.8647209462" lon="-2.0728588197"><ele>285.17</ele><time>2015-04-15T09:58:02Z</time></trkpt><trkpt lat="51.8646899331" lon="-2.0729479194"><ele>289.49</ele><time>2015-04-15T09:58:11Z</time></trkpt><trkpt lat="51.8646810483" lon="-2.0729563013"><ele>285.17</ele><time>2015-04-15T09:58:12Z</time></trkpt><trkpt lat="51.8646748457" lon="-2.0729689579"><ele>289.01</ele><time>2015-04-15T09:58:13Z</time></trkpt><trkpt lat="51.8646523822" lon="-2.0730193332"><ele>287.09</ele><time>2015-04-15T09:58:17Z</time></trkpt><trkpt lat="51.8646265659" lon="-2.0730490051"><ele>289.01</ele><time>2015-04-15T09:58:34Z</time></trkpt><trkpt lat="51.8646166753" lon="-2.0730793476"><ele>292.86</ele><time>2015-04-15T09:58:45Z</time></trkpt><trkpt lat="51.8646120653" lon="-2.0730862208"><ele>289.01</ele><time>2015-04-15T09:58:46Z</time></trkpt><trkpt lat="51.8645852432" lon="-2.0731625799"><ele>287.57</ele><time>2015-04-15T09:58:51Z</time></trkpt><trkpt lat="51.8645743467" lon="-2.0731942635"><ele>289.01</ele><time>2015-04-15T09:58:53Z</time></trkpt><trkpt lat="51.8645713292" lon="-2.0732754841"><ele>287.09</ele><time>2015-04-15T09:58:57Z</time></trkpt><trkpt lat="51.8645573314" lon="-2.0733491611"><ele>290.46</ele><time>2015-04-15T09:59:01Z</time></trkpt><trkpt lat="51.8645598460" lon="-2.0734049845"><ele>287.57</ele><time>2015-04-15T09:59:05Z</time></trkpt><trkpt lat="51.8645578343" lon="-2.0734912343"><ele>287.57</ele><time>2015-04-15T09:59:14Z</time></trkpt><trkpt lat="51.8645551521" lon="-2.0735694375"><ele>284.69</ele><time>2015-04-15T09:59:18Z</time></trkpt><trkpt lat="51.8645523861" lon="-2.0735872909"><ele>288.05</ele><time>2015-04-15T09:59:19Z</time></trkpt><trkpt lat="51.8645455968" lon="-2.0736223273"><ele>289.01</ele><time>2015-04-15T09:59:21Z</time></trkpt><trkpt lat="51.8645312637" lon="-2.0736645721"><ele>290.46</ele><time>2015-04-15T09:59:24Z</time></trkpt><trkpt lat="51.8645278271" lon="-2.0736770611"><ele>286.61</ele><time>2015-04-15T09:59:25Z</time></trkpt><trkpt lat="51.8645229656" lon="-2.0736896340"><ele>289.01</ele><time>2015-04-15T09:59:26Z</time></trkpt><trkpt lat="51.8645176012" lon="-2.0737035479"><ele>289.01</ele><time>2015-04-15T09:59:27Z</time></trkpt><trkpt lat="51.8644885998" lon="-2.0737556834"><ele>285.17</ele><time>2015-04-15T09:59:31Z</time></trkpt><trkpt lat="51.8644830678" lon="-2.0737639815"><ele>289.49</ele><time>2015-04-15T09:59:32Z</time></trkpt><trkpt lat="51.8644758593" lon="-2.0737660769"><ele>289.01</ele><time>2015-04-15T09:59:33Z</time></trkpt><trkpt lat="51.8644404039" lon="-2.0737739559"><ele>289.01</ele><time>2015-04-15T09:59:37Z</time></trkpt><trkpt lat="51.8644117378" lon="-2.0737785660"><ele>290.46</ele><time>2015-04-15T09:59:40Z</time></trkpt><trkpt lat="51.8644028530" lon="-2.0737738721"><ele>287.57</ele><time>2015-04-15T09:59:41Z</time></trkpt><trkpt lat="51.8643953931" lon="-2.0738016162"><ele>289.01</ele><time>2015-04-15T09:59:57Z</time></trkpt><trkpt lat="51.8644077145" lon="-2.0737905521"><ele>288.05</ele><time>2015-04-15T10:00:24Z</time></trkpt><trkpt lat="51.8644147553" lon="-2.0738186315"><ele>289.49</ele><time>2015-04-15T10:00:43Z</time></trkpt><trkpt lat="51.8644204549" lon="-2.0738678332"><ele>288.05</ele><time>2015-04-15T10:01:08Z</time></trkpt><trkpt lat="51.8644038588" lon="-2.0739462879"><ele>288.05</ele><time>2015-04-15T10:01:13Z</time></trkpt><trkpt lat="51.8643971533" lon="-2.0739748701"><ele>289.01</ele><time>2015-04-15T10:01:15Z</time></trkpt><trkpt lat="51.8643653858" lon="-2.0740823261"><ele>290.94</ele><time>2015-04-15T10:01:22Z</time></trkpt><trkpt lat="51.8643544894" lon="-2.0741154347"><ele>288.05</ele><time>2015-04-15T10:01:24Z</time></trkpt><trkpt lat="51.8643348757" lon="-2.0742244832"><ele>292.86</ele><time>2015-04-15T10:01:30Z</time></trkpt><trkpt lat="51.8643337861" lon="-2.0742363017"><ele>289.49</ele><time>2015-04-15T10:01:31Z</time></trkpt><trkpt lat="51.8643313553" lon="-2.0742674824"><ele>290.94</ele><time>2015-04-15T10:01:33Z</time></trkpt><trkpt lat="51.8643280026" lon="-2.0744650438"><ele>286.61</ele><time>2015-04-15T10:01:44Z</time></trkpt><trkpt lat="51.8643259071" lon="-2.0744834840"><ele>291.42</ele><time>2015-04-15T10:01:45Z</time></trkpt><trkpt lat="51.8643229734" lon="-2.0745730028"><ele>289.97</ele><time>2015-04-15T10:01:50Z</time></trkpt><trkpt lat="51.8643225543" lon="-2.0746481884"><ele>290.94</ele><time>2015-04-15T10:01:54Z</time></trkpt><trkpt lat="51.8643124960" lon="-2.0749135595"><ele>289.49</ele><time>2015-04-15T10:02:09Z</time></trkpt><trkpt lat="51.8643123284" lon="-2.0749340113"><ele>290.94</ele><time>2015-04-15T10:02:10Z</time></trkpt><trkpt lat="51.8642969895" lon="-2.0750760008"><ele>294.30</ele><time>2015-04-15T10:02:19Z</time></trkpt><trkpt lat="51.8642935529" lon="-2.0751024038"><ele>289.49</ele><time>2015-04-15T10:02:21Z</time></trkpt><trkpt lat="51.8642922118" lon="-2.0751466602"><ele>294.78</ele><time>2015-04-15T10:02:24Z</time></trkpt><trkpt lat="51.8642947264" lon="-2.0751590654"><ele>281.80</ele><time>2015-04-15T10:02:25Z</time></trkpt><trkpt lat="51.8642974924" lon="-2.0751715545"><ele>290.94</ele><time>2015-04-15T10:02:26Z</time></trkpt><trkpt lat="51.8643001746" lon="-2.0751977898"><ele>295.26</ele><time>2015-04-15T10:02:28Z</time></trkpt><trkpt lat="51.8642908707" lon="-2.0752374362"><ele>290.46</ele><time>2015-04-15T10:02:31Z</time></trkpt><trkpt lat="51.8642881047" lon="-2.0752545353"><ele>290.46</ele><time>2015-04-15T10:02:32Z</time></trkpt><trkpt lat="51.8642844167" lon="-2.0752754062"><ele>293.82</ele><time>2015-04-15T10:02:33Z</time></trkpt><trkpt lat="51.8642727658" lon="-2.0753290504"><ele>288.05</ele><time>2015-04-15T10:02:36Z</time></trkpt><trkpt lat="51.8642694969" lon="-2.0753435511"><ele>292.86</ele><time>2015-04-15T10:02:37Z</time></trkpt><trkpt lat="51.8642658927" lon="-2.0754572935"><ele>289.97</ele><time>2015-04-15T10:02:43Z</time></trkpt><trkpt lat="51.8642677367" lon="-2.0754772425"><ele>292.86</ele><time>2015-04-15T10:02:44Z</time></trkpt><trkpt lat="51.8642829917" lon="-2.0755292941"><ele>295.26</ele><time>2015-04-15T10:02:47Z</time></trkpt><trkpt lat="51.8642866798" lon="-2.0755454712"><ele>291.90</ele><time>2015-04-15T10:02:48Z</time></trkpt><trkpt lat="51.8642878532" lon="-2.0755595528"><ele>292.38</ele><time>2015-04-15T10:02:49Z</time></trkpt><trkpt lat="51.8642889429" lon="-2.0755732153"><ele>294.30</ele><time>2015-04-15T10:02:50Z</time></trkpt><trkpt lat="51.8642907869" lon="-2.0756068267"><ele>295.26</ele><time>2015-04-15T10:02:52Z</time></trkpt><trkpt lat="51.8643064611" lon="-2.0757309627"><ele>295.26</ele><time>2015-04-15T10:02:59Z</time></trkpt><trkpt lat="51.8643131666" lon="-2.0757652447"><ele>292.38</ele><time>2015-04-15T10:03:01Z</time></trkpt><trkpt lat="51.8643240631" lon="-2.0758426934"><ele>295.26</ele><time>2015-04-15T10:03:05Z</time></trkpt><trkpt lat="51.8643417489" lon="-2.0760047156"><ele>292.38</ele><time>2015-04-15T10:03:14Z</time></trkpt><trkpt lat="51.8643505499" lon="-2.0760622155"><ele>295.26</ele><time>2015-04-15T10:03:17Z</time></trkpt><trkpt lat="51.8643546570" lon="-2.0761277620"><ele>292.38</ele><time>2015-04-15T10:03:21Z</time></trkpt><trkpt lat="51.8643610273" lon="-2.0761892851"><ele>295.74</ele><time>2015-04-15T10:03:24Z</time></trkpt><trkpt lat="51.8643617816" lon="-2.0762053784"><ele>294.78</ele><time>2015-04-15T10:03:25Z</time></trkpt><trkpt lat="51.8643642962" lon="-2.0762356371"><ele>293.82</ele><time>2015-04-15T10:03:27Z</time></trkpt><trkpt lat="51.8643774558" lon="-2.0762736909"><ele>295.26</ele><time>2015-04-15T10:03:30Z</time></trkpt><trkpt lat="51.8643826526" lon="-2.0762997586"><ele>293.34</ele><time>2015-04-15T10:03:32Z</time></trkpt><trkpt lat="51.8643912859" lon="-2.0763941389"><ele>294.78</ele><time>2015-04-15T10:03:37Z</time></trkpt><trkpt lat="51.8643947225" lon="-2.0764217991"><ele>292.86</ele><time>2015-04-15T10:03:39Z</time></trkpt><trkpt lat="51.8643984105" lon="-2.0766269043"><ele>294.78</ele><time>2015-04-15T10:03:50Z</time></trkpt><trkpt lat="51.8644228019" lon="-2.0768091269"><ele>291.42</ele><time>2015-04-15T10:04:00Z</time></trkpt><trkpt lat="51.8644330278" lon="-2.0768939517"><ele>294.30</ele><time>2015-04-15T10:04:04Z</time></trkpt><trkpt lat="51.8644336145" lon="-2.0769097935"><ele>291.42</ele><time>2015-04-15T10:04:05Z</time></trkpt><trkpt lat="51.8644331116" lon="-2.0769268926"><ele>291.90</ele><time>2015-04-15T10:04:06Z</time></trkpt><trkpt lat="51.8644434214" lon="-2.0770638529"><ele>291.90</ele><time>2015-04-15T10:04:14Z</time></trkpt><trkpt lat="51.8644460198" lon="-2.0771001466"><ele>293.34</ele><time>2015-04-15T10:04:16Z</time></trkpt><trkpt lat="51.8644675612" lon="-2.0771884918"><ele>293.34</ele><time>2015-04-15T10:04:22Z</time></trkpt><trkpt lat="51.8645221274" lon="-2.0773699600"><ele>292.38</ele><time>2015-04-15T10:04:36Z</time></trkpt><trkpt lat="51.8645592593" lon="-2.0774134621"><ele>292.86</ele><time>2015-04-15T10:04:51Z</time></trkpt><trkpt lat="51.8645561580" lon="-2.0774187427"><ele>292.86</ele><time>2015-04-15T10:05:15Z</time></trkpt><trkpt lat="51.8645222113" lon="-2.0774474088"><ele>292.38</ele><time>2015-04-15T10:05:29Z</time></trkpt><trkpt lat="51.8644950539" lon="-2.0774778351"><ele>291.42</ele><time>2015-04-15T10:05:44Z</time></trkpt><trkpt lat="51.8644946348" lon="-2.0774779189"><ele>288.05</ele><time>2015-04-15T10:05:49Z</time></trkpt><trkpt lat="51.8644948024" lon="-2.0774785895"><ele>293.34</ele><time>2015-04-15T10:05:50Z</time></trkpt><trkpt lat="51.8644950539" lon="-2.0774799306"><ele>291.42</ele><time>2015-04-15T10:05:53Z</time></trkpt><trkpt lat="51.8644892704" lon="-2.0774831995"><ele>291.42</ele><time>2015-04-15T10:06:11Z</time></trkpt><trkpt lat="51.8644730095" lon="-2.0774721354"><ele>291.90</ele><time>2015-04-15T10:06:30Z</time></trkpt><trkpt lat="51.8644831516" lon="-2.0774796791"><ele>291.42</ele><time>2015-04-15T10:06:49Z</time></trkpt><trkpt lat="51.8644865882" lon="-2.0774646755"><ele>291.90</ele><time>2015-04-15T10:07:08Z</time></trkpt><trkpt lat="51.8644999154" lon="-2.0774752367"><ele>284.69</ele><time>2015-04-15T10:07:14Z</time></trkpt><trkpt lat="51.8644993287" lon="-2.0774707105"><ele>292.86</ele><time>2015-04-15T10:07:15Z</time></trkpt><trkpt lat="51.8645004183" lon="-2.0774696209"><ele>283.25</ele><time>2015-04-15T10:07:22Z</time></trkpt><trkpt lat="51.8645005021" lon="-2.0774692856"><ele>293.82</ele><time>2015-04-15T10:07:23Z</time></trkpt><trkpt lat="51.8645006698" lon="-2.0774692018"><ele>289.97</ele><time>2015-04-15T10:07:33Z</time></trkpt><trkpt lat="51.8645025138" lon="-2.0774676092"><ele>291.42</ele><time>2015-04-15T10:08:02Z</time></trkpt><trkpt lat="51.8645015080" lon="-2.0774674416"><ele>291.42</ele><time>2015-04-15T10:08:29Z</time></trkpt><trkpt lat="51.8645013403" lon="-2.0774682797"><ele>291.42</ele><time>2015-04-15T10:09:04Z</time></trkpt><trkpt lat="51.8645027652" lon="-2.0774688665"><ele>289.97</ele><time>2015-04-15T10:09:33Z</time></trkpt><trkpt lat="51.8645025976" lon="-2.0774684474"><ele>293.82</ele><time>2015-04-15T10:09:34Z</time></trkpt><trkpt lat="51.8644965626" lon="-2.0774650108"><ele>289.49</ele><time>2015-04-15T10:09:35Z</time></trkpt><trkpt lat="51.8644923717" lon="-2.0774604008"><ele>292.86</ele><time>2015-04-15T10:09:36Z</time></trkpt><trkpt lat="51.8644829001" lon="-2.0774609875"><ele>292.38</ele><time>2015-04-15T10:09:55Z</time></trkpt><trkpt lat="51.8644772004" lon="-2.0774626639"><ele>289.49</ele><time>2015-04-15T10:10:18Z</time></trkpt><trkpt lat="51.8644770328" lon="-2.0774563774"><ele>293.82</ele><time>2015-04-15T10:10:19Z</time></trkpt><trkpt lat="51.8644964788" lon="-2.0774766617"><ele>289.49</ele><time>2015-04-15T10:10:30Z</time></trkpt><trkpt lat="51.8644963950" lon="-2.0774770807"><ele>300.55</ele><time>2015-04-15T10:10:31Z</time></trkpt><trkpt lat="51.8644960597" lon="-2.0774768293"><ele>290.94</ele><time>2015-04-15T10:10:32Z</time></trkpt><trkpt lat="51.8644949701" lon="-2.0774791762"><ele>291.42</ele><time>2015-04-15T10:11:06Z</time></trkpt><trkpt lat="51.8644940481" lon="-2.0774749015"><ele>291.42</ele><time>2015-04-15T10:11:38Z</time></trkpt><trkpt lat="51.8644935451" lon="-2.0774760749"><ele>291.90</ele><time>2015-04-15T10:12:09Z</time></trkpt><trkpt lat="51.8644929584" lon="-2.0774742309"><ele>291.90</ele><time>2015-04-15T10:12:37Z</time></trkpt><trkpt lat="51.8644927070" lon="-2.0774751529"><ele>295.26</ele><time>2015-04-15T10:12:45Z</time></trkpt><trkpt lat="51.8644925393" lon="-2.0774749015"><ele>291.90</ele><time>2015-04-15T10:12:46Z</time></trkpt><trkpt lat="51.8644912820" lon="-2.0774752367"><ele>291.42</ele><time>2015-04-15T10:13:12Z</time></trkpt><trkpt lat="51.8644917849" lon="-2.0774737280"><ele>291.90</ele><time>2015-04-15T10:13:45Z</time></trkpt><trkpt lat="51.8644906953" lon="-2.0774733927"><ele>291.42</ele><time>2015-04-15T10:14:15Z</time></trkpt><trkpt lat="51.8644904438" lon="-2.0774753205"><ele>291.42</ele><time>2015-04-15T10:14:45Z</time></trkpt><trkpt lat="51.8644913658" lon="-2.0774779189"><ele>291.90</ele><time>2015-04-15T10:15:14Z</time></trkpt><trkpt lat="51.8644906115" lon="-2.0774775837"><ele>291.90</ele><time>2015-04-15T10:15:45Z</time></trkpt><trkpt lat="51.8644909468" lon="-2.0774759911"><ele>291.42</ele><time>2015-04-15T10:16:18Z</time></trkpt><trkpt lat="51.8644911144" lon="-2.0774754882"><ele>291.90</ele><time>2015-04-15T10:16:52Z</time></trkpt><trkpt lat="51.8644906953" lon="-2.0774765778"><ele>291.90</ele><time>2015-04-15T10:17:28Z</time></trkpt><trkpt lat="51.8644901924" lon="-2.0774780028"><ele>291.90</ele><time>2015-04-15T10:18:06Z</time></trkpt><trkpt lat="51.8644902762" lon="-2.0774768293"><ele>291.90</ele><time>2015-04-15T10:18:33Z</time></trkpt><trkpt lat="51.8644910306" lon="-2.0774773322"><ele>293.34</ele><time>2015-04-15T10:18:37Z</time></trkpt><trkpt lat="51.8644752726" lon="-2.0774688665"><ele>295.74</ele><time>2015-04-15T10:18:51Z</time></trkpt><trkpt lat="51.8644756917" lon="-2.0774678607"><ele>292.86</ele><time>2015-04-15T10:18:52Z</time></trkpt><trkpt lat="51.8644693214" lon="-2.0774831995"><ele>292.86</ele><time>2015-04-15T10:19:23Z</time></trkpt><trkpt lat="51.8644383084" lon="-2.0774957724"><ele>291.90</ele><time>2015-04-15T10:19:35Z</time></trkpt><trkpt lat="51.8644230533" lon="-2.0775223430"><ele>293.34</ele><time>2015-04-15T10:19:37Z</time></trkpt><trkpt lat="51.8644107319" lon="-2.0775400288"><ele>290.94</ele><time>2015-04-15T10:19:39Z</time></trkpt><trkpt lat="51.8643915374" lon="-2.0775590558"><ele>295.74</ele><time>2015-04-15T10:19:41Z</time></trkpt><trkpt lat="51.8643808085" lon="-2.0775691140"><ele>293.34</ele><time>2015-04-15T10:19:42Z</time></trkpt><trkpt lat="51.8643704150" lon="-2.0775765739"><ele>292.38</ele><time>2015-04-15T10:19:43Z</time></trkpt><trkpt lat="51.8642889429" lon="-2.0776204113"><ele>292.38</ele><time>2015-04-15T10:19:50Z</time></trkpt><trkpt lat="51.8642275874" lon="-2.0776556991"><ele>292.86</ele><time>2015-04-15T10:19:56Z</time></trkpt><trkpt lat="51.8642073870" lon="-2.0776687749"><ele>289.49</ele><time>2015-04-15T10:19:58Z</time></trkpt><trkpt lat="51.8641841691" lon="-2.0776897296"><ele>288.53</ele><time>2015-04-15T10:20:00Z</time></trkpt><trkpt lat="51.8640329596" lon="-2.0778100938"><ele>289.49</ele><time>2015-04-15T10:20:16Z</time></trkpt><trkpt lat="51.8640338816" lon="-2.0778095070"><ele>289.01</ele><time>2015-04-15T10:20:45Z</time></trkpt><trkpt lat="51.8640107475" lon="-2.0778381731"><ele>289.01</ele><time>2015-04-15T10:20:48Z</time></trkpt><trkpt lat="51.8639664911" lon="-2.0778794959"><ele>288.05</ele><time>2015-04-15T10:20:52Z</time></trkpt><trkpt lat="51.8637999427" lon="-2.0780013688"><ele>287.09</ele><time>2015-04-15T10:21:08Z</time></trkpt><trkpt lat="51.8636694364" lon="-2.0781136863"><ele>283.73</ele><time>2015-04-15T10:21:21Z</time></trkpt><trkpt lat="51.8636620604" lon="-2.0781193022"><ele>283.25</ele><time>2015-04-15T10:21:22Z</time></trkpt><trkpt lat="51.8636502419" lon="-2.0781273488"><ele>285.17</ele><time>2015-04-15T10:21:24Z</time></trkpt><trkpt lat="51.8636188935" lon="-2.0781446993"><ele>280.84</ele><time>2015-04-15T10:21:27Z</time></trkpt><trkpt lat="51.8635763973" lon="-2.0781846810"><ele>283.25</ele><time>2015-04-15T10:21:30Z</time></trkpt><trkpt lat="51.8635455519" lon="-2.0782203879"><ele>284.21</ele><time>2015-04-15T10:21:32Z</time></trkpt><trkpt lat="51.8634960987" lon="-2.0782778040"><ele>281.32</ele><time>2015-04-15T10:21:36Z</time></trkpt><trkpt lat="51.8634871300" lon="-2.0782845933"><ele>285.17</ele><time>2015-04-15T10:21:37Z</time></trkpt><trkpt lat="51.8634731323" lon="-2.0782892872"><ele>281.32</ele><time>2015-04-15T10:21:39Z</time></trkpt><trkpt lat="51.8634281214" lon="-2.0783413388"><ele>284.69</ele><time>2015-04-15T10:21:44Z</time></trkpt><trkpt lat="51.8634185661" lon="-2.0783575997"><ele>281.32</ele><time>2015-04-15T10:21:45Z</time></trkpt><trkpt lat="51.8634027243" lon="-2.0783793088"><ele>279.88</ele><time>2015-04-15T10:21:47Z</time></trkpt><trkpt lat="51.8633779977" lon="-2.0784261636"><ele>283.73</ele><time>2015-04-15T10:21:51Z</time></trkpt><trkpt lat="51.8633692805" lon="-2.0784431789"><ele>280.84</ele><time>2015-04-15T10:21:52Z</time></trkpt><trkpt lat="51.8633277901" lon="-2.0784938056"><ele>280.84</ele><time>2015-04-15T10:22:11Z</time></trkpt><trkpt lat="51.8633222580" lon="-2.0784797240"><ele>280.84</ele><time>2015-04-15T10:22:47Z</time></trkpt><trkpt lat="51.8633040693" lon="-2.0785710867"><ele>280.84</ele><time>2015-04-15T10:23:06Z</time></trkpt><trkpt lat="51.8632428814" lon="-2.0786751900"><ele>278.92</ele><time>2015-04-15T10:23:15Z</time></trkpt><trkpt lat="51.8631811906" lon="-2.0787319355"><ele>278.44</ele><time>2015-04-15T10:23:19Z</time></trkpt><trkpt lat="51.8631342519" lon="-2.0787652116"><ele>278.92</ele><time>2015-04-15T10:23:22Z</time></trkpt><trkpt lat="51.8630881514" lon="-2.0788067020"><ele>276.52</ele><time>2015-04-15T10:23:26Z</time></trkpt><trkpt lat="51.8630765844" lon="-2.0788140781"><ele>275.56</ele><time>2015-04-15T10:23:27Z</time></trkpt><trkpt lat="51.8630283047" lon="-2.0788421575"><ele>277.00</ele><time>2015-04-15T10:23:31Z</time></trkpt><trkpt lat="51.8629817013" lon="-2.0788746793"><ele>274.11</ele><time>2015-04-15T10:23:34Z</time></trkpt><trkpt lat="51.8629654404" lon="-2.0788833126"><ele>270.27</ele><time>2015-04-15T10:23:35Z</time></trkpt><trkpt lat="51.8629490957" lon="-2.0788911078"><ele>274.59</ele><time>2015-04-15T10:23:36Z</time></trkpt><trkpt lat="51.8629148975" lon="-2.0789092965"><ele>275.56</ele><time>2015-04-15T10:23:38Z</time></trkpt><trkpt lat="51.8628864828" lon="-2.0789253898"><ele>276.04</ele><time>2015-04-15T10:23:40Z</time></trkpt><trkpt lat="51.8628287315" lon="-2.0789450873"><ele>274.59</ele><time>2015-04-15T10:23:44Z</time></trkpt><trkpt lat="51.8627109658" lon="-2.0790098794"><ele>274.59</ele><time>2015-04-15T10:23:55Z</time></trkpt><trkpt lat="51.8626781926" lon="-2.0790272299"><ele>271.23</ele><time>2015-04-15T10:23:57Z</time></trkpt><trkpt lat="51.8626244646" lon="-2.0790628530"><ele>273.63</ele><time>2015-04-15T10:24:00Z</time></trkpt><trkpt lat="51.8625021726" lon="-2.0791382063"><ele>274.11</ele><time>2015-04-15T10:24:09Z</time></trkpt><trkpt lat="51.8624762725" lon="-2.0791516174"><ele>270.75</ele><time>2015-04-15T10:24:12Z</time></trkpt><trkpt lat="51.8624582514" lon="-2.0791667048"><ele>269.79</ele><time>2015-04-15T10:24:14Z</time></trkpt><trkpt lat="51.8624196108" lon="-2.0792010706"><ele>271.71</ele><time>2015-04-15T10:24:17Z</time></trkpt><trkpt lat="51.8623595964" lon="-2.0792363584"><ele>270.75</ele><time>2015-04-15T10:24:21Z</time></trkpt><trkpt lat="51.8623274099" lon="-2.0792439021"><ele>271.71</ele><time>2015-04-15T10:24:23Z</time></trkpt><trkpt lat="51.8622353766" lon="-2.0792542119"><ele>268.35</ele><time>2015-04-15T10:24:31Z</time></trkpt><trkpt lat="51.8622247316" lon="-2.0792555530"><ele>272.19</ele><time>2015-04-15T10:24:32Z</time></trkpt><trkpt lat="51.8622127455" lon="-2.0792556368"><ele>270.75</ele><time>2015-04-15T10:24:33Z</time></trkpt><trkpt lat="51.8621228077" lon="-2.0792818721"><ele>270.27</ele><time>2015-04-15T10:24:39Z</time></trkpt><trkpt lat="51.8619128410" lon="-2.0793655235"><ele>266.90</ele><time>2015-04-15T10:24:52Z</time></trkpt><trkpt lat="51.8619029503" lon="-2.0793691278"><ele>266.90</ele><time>2015-04-15T10:24:53Z</time></trkpt><trkpt lat="51.8618156109" lon="-2.0793882385"><ele>266.42</ele><time>2015-04-15T10:24:59Z</time></trkpt><trkpt lat="51.8617816642" lon="-2.0793880709"><ele>269.31</ele><time>2015-04-15T10:25:01Z</time></trkpt><trkpt lat="51.8616597913" lon="-2.0793861430"><ele>266.42</ele><time>2015-04-15T10:25:10Z</time></trkpt><trkpt lat="51.8616355676" lon="-2.0793808624"><ele>269.79</ele><time>2015-04-15T10:25:12Z</time></trkpt><trkpt lat="51.8616199773" lon="-2.0793782640"><ele>268.35</ele><time>2015-04-15T10:25:13Z</time></trkpt><trkpt lat="51.8615634833" lon="-2.0793742407"><ele>269.79</ele><time>2015-04-15T10:25:17Z</time></trkpt><trkpt lat="51.8614925724" lon="-2.0794004761"><ele>267.86</ele><time>2015-04-15T10:25:23Z</time></trkpt><trkpt lat="51.8614587933" lon="-2.0794081874"><ele>268.35</ele><time>2015-04-15T10:25:26Z</time></trkpt><trkpt lat="51.8614328932" lon="-2.0794249512"><ele>267.38</ele><time>2015-04-15T10:25:28Z</time></trkpt><trkpt lat="51.8613913190" lon="-2.0794477500"><ele>269.79</ele><time>2015-04-15T10:25:31Z</time></trkpt><trkpt lat="51.8613437098" lon="-2.0794664416"><ele>271.23</ele><time>2015-04-15T10:25:34Z</time></trkpt><trkpt lat="51.8613128643" lon="-2.0794837084"><ele>267.38</ele><time>2015-04-15T10:25:36Z</time></trkpt><trkpt lat="51.8612865452" lon="-2.0795034058"><ele>271.71</ele><time>2015-04-15T10:25:38Z</time></trkpt><trkpt lat="51.8612666801" lon="-2.0795221813"><ele>268.35</ele><time>2015-04-15T10:25:40Z</time></trkpt><trkpt lat="51.8612576276" lon="-2.0795282163"><ele>268.35</ele><time>2015-04-15T10:25:41Z</time></trkpt><trkpt lat="51.8612354994" lon="-2.0795453154"><ele>266.90</ele><time>2015-04-15T10:25:43Z</time></trkpt><trkpt lat="51.8612054083" lon="-2.0795652643"><ele>268.83</ele><time>2015-04-15T10:25:45Z</time></trkpt><trkpt lat="51.8610355910" lon="-2.0796759892"><ele>264.98</ele><time>2015-04-15T10:25:57Z</time></trkpt><trkpt lat="51.8609293085" lon="-2.0797470678"><ele>267.38</ele><time>2015-04-15T10:26:05Z</time></trkpt><trkpt lat="51.8608632591" lon="-2.0797706209"><ele>269.31</ele><time>2015-04-15T10:26:09Z</time></trkpt><trkpt lat="51.8608229421" lon="-2.0797910728"><ele>264.98</ele><time>2015-04-15T10:26:12Z</time></trkpt><trkpt lat="51.8608127162" lon="-2.0798018854"><ele>264.98</ele><time>2015-04-15T10:26:13Z</time></trkpt><trkpt lat="51.8608032446" lon="-2.0798038132"><ele>268.35</ele><time>2015-04-15T10:26:14Z</time></trkpt><trkpt lat="51.8607920967" lon="-2.0798085071"><ele>266.90</ele><time>2015-04-15T10:26:15Z</time></trkpt><trkpt lat="51.8607648555" lon="-2.0798284560"><ele>264.98</ele><time>2015-04-15T10:26:17Z</time></trkpt><trkpt lat="51.8606932741" lon="-2.0798608940"><ele>268.35</ele><time>2015-04-15T10:26:22Z</time></trkpt><trkpt lat="51.8606118858" lon="-2.0799038094"><ele>264.98</ele><time>2015-04-15T10:26:30Z</time></trkpt><trkpt lat="51.8605672941" lon="-2.0799258538"><ele>267.38</ele><time>2015-04-15T10:26:34Z</time></trkpt><trkpt lat="51.8604890071" lon="-2.0799496584"><ele>264.50</ele><time>2015-04-15T10:26:41Z</time></trkpt><trkpt lat="51.8604625203" lon="-2.0799573697"><ele>266.90</ele><time>2015-04-15T10:26:43Z</time></trkpt><trkpt lat="51.8604040146" lon="-2.0799851138"><ele>265.94</ele><time>2015-04-15T10:26:48Z</time></trkpt><trkpt lat="51.8602062855" lon="-2.0800860319"><ele>264.50</ele><time>2015-04-15T10:27:05Z</time></trkpt><trkpt lat="51.8600506335" lon="-2.0801817533"><ele>265.94</ele><time>2015-04-15T10:27:19Z</time></trkpt><trkpt lat="51.8599651381" lon="-2.0802296139"><ele>266.90</ele><time>2015-04-15T10:27:27Z</time></trkpt><trkpt lat="51.8599280901" lon="-2.0802347269"><ele>264.50</ele><time>2015-04-15T10:27:30Z</time></trkpt><trkpt lat="51.8598097377" lon="-2.0802487247"><ele>267.38</ele><time>2015-04-15T10:27:43Z</time></trkpt><trkpt lat="51.8596342206" lon="-2.0802142750"><ele>265.46</ele><time>2015-04-15T10:27:59Z</time></trkpt><trkpt lat="51.8596089073" lon="-2.0802135207"><ele>268.35</ele><time>2015-04-15T10:28:01Z</time></trkpt><trkpt lat="51.8595958315" lon="-2.0802136045"><ele>268.83</ele><time>2015-04-15T10:28:02Z</time></trkpt><trkpt lat="51.8595760502" lon="-2.0802094135"><ele>265.46</ele><time>2015-04-15T10:28:04Z</time></trkpt><trkpt lat="51.8595256750" lon="-2.0802027918"><ele>268.83</ele><time>2015-04-15T10:28:09Z</time></trkpt><trkpt lat="51.8593506608" lon="-2.0801586192"><ele>267.86</ele><time>2015-04-15T10:28:25Z</time></trkpt><trkpt lat="51.8593180552" lon="-2.0801457949"><ele>269.31</ele><time>2015-04-15T10:28:28Z</time></trkpt><trkpt lat="51.8592696916" lon="-2.0801223256"><ele>265.94</ele><time>2015-04-15T10:28:33Z</time></trkpt><trkpt lat="51.8592197355" lon="-2.0801055618"><ele>269.79</ele><time>2015-04-15T10:28:37Z</time></trkpt><trkpt lat="51.8592024688" lon="-2.0800998621"><ele>264.02</ele><time>2015-04-15T10:28:39Z</time></trkpt><trkpt lat="51.8591561168" lon="-2.0800871216"><ele>268.35</ele><time>2015-04-15T10:28:43Z</time></trkpt><trkpt lat="51.8590810150" lon="-2.0800654963"><ele>268.83</ele><time>2015-04-15T10:28:50Z</time></trkpt><trkpt lat="51.8589700386" lon="-2.0800267719"><ele>268.35</ele><time>2015-04-15T10:29:00Z</time></trkpt><trkpt lat="51.8589353375" lon="-2.0800088346"><ele>268.35</ele><time>2015-04-15T10:29:03Z</time></trkpt><trkpt lat="51.8588711321" lon="-2.0799772348"><ele>267.38</ele><time>2015-04-15T10:29:09Z</time></trkpt><trkpt lat="51.8588107824" lon="-2.0799302123"><ele>268.83</ele><time>2015-04-15T10:29:15Z</time></trkpt><trkpt lat="51.8587474991" lon="-2.0798799209"><ele>268.35</ele><time>2015-04-15T10:29:21Z</time></trkpt><trkpt lat="51.8586661946" lon="-2.0798189845"><ele>267.86</ele><time>2015-04-15T10:29:29Z</time></trkpt><trkpt lat="51.8585866503" lon="-2.0797596406"><ele>268.35</ele><time>2015-04-15T10:29:38Z</time></trkpt><trkpt lat="51.8585547991" lon="-2.0797343273"><ele>265.94</ele><time>2015-04-15T10:29:41Z</time></trkpt><trkpt lat="51.8585366104" lon="-2.0797121990"><ele>266.90</ele><time>2015-04-15T10:29:43Z</time></trkpt><trkpt lat="51.8585056812" lon="-2.0796862151"><ele>265.94</ele><time>2015-04-15T10:29:47Z</time></trkpt><trkpt lat="51.8584407214" lon="-2.0796153042"><ele>264.50</ele><time>2015-04-15T10:29:55Z</time></trkpt><trkpt lat="51.8584241252" lon="-2.0795917511"><ele>265.94</ele><time>2015-04-15T10:29:57Z</time></trkpt><trkpt lat="51.8583529629" lon="-2.0795292221"><ele>264.98</ele><time>2015-04-15T10:30:04Z</time></trkpt><trkpt lat="51.8583173398" lon="-2.0794795174"><ele>264.98</ele><time>2015-04-15T10:30:08Z</time></trkpt><trkpt lat="51.8582878355" lon="-2.0794512704"><ele>264.98</ele><time>2015-04-15T10:30:11Z</time></trkpt><trkpt lat="51.8582342751" lon="-2.0794025715"><ele>264.50</ele><time>2015-04-15T10:30:16Z</time></trkpt><trkpt lat="51.8581622746" lon="-2.0792655274"><ele>263.06</ele><time>2015-04-15T10:30:29Z</time></trkpt><trkpt lat="51.8581139110" lon="-2.0791621786"><ele>265.46</ele><time>2015-04-15T10:30:45Z</time></trkpt><trkpt lat="51.8580993265" lon="-2.0791410562"><ele>263.06</ele><time>2015-04-15T10:30:53Z</time></trkpt><trkpt lat="51.8580880109" lon="-2.0791086182"><ele>262.58</ele><time>2015-04-15T10:30:55Z</time></trkpt><trkpt lat="51.8580548186" lon="-2.0790480170"><ele>261.14</ele><time>2015-04-15T10:31:00Z</time></trkpt><trkpt lat="51.8579346221" lon="-2.0789388008"><ele>260.65</ele><time>2015-04-15T10:31:15Z</time></trkpt><trkpt lat="51.8579333648" lon="-2.0789363701"><ele>260.65</ele><time>2015-04-15T10:31:26Z</time></trkpt><trkpt lat="51.8578362186" lon="-2.0788471866"><ele>258.73</ele><time>2015-04-15T10:31:39Z</time></trkpt><trkpt lat="51.8578262441" lon="-2.0788299199"><ele>258.25</ele><time>2015-04-15T10:31:41Z</time></trkpt><trkpt lat="51.8577709235" lon="-2.0787714142"><ele>256.33</ele><time>2015-04-15T10:31:55Z</time></trkpt><trkpt lat="51.8577181175" lon="-2.0786524750"><ele>254.89</ele><time>2015-04-15T10:32:09Z</time></trkpt><trkpt lat="51.8576375674" lon="-2.0785149280"><ele>252.96</ele><time>2015-04-15T10:32:23Z</time></trkpt><trkpt lat="51.8575793970" lon="-2.0783989225"><ele>249.60</ele><time>2015-04-15T10:32:39Z</time></trkpt><trkpt lat="51.8575422652" lon="-2.0782850124"><ele>250.08</ele><time>2015-04-15T10:32:54Z</time></trkpt><trkpt lat="51.8575104140" lon="-2.0783193782"><ele>249.60</ele><time>2015-04-15T10:33:16Z</time></trkpt><trkpt lat="51.8575096596" lon="-2.0782951545"><ele>250.08</ele><time>2015-04-15T10:33:43Z</time></trkpt><trkpt lat="51.8575180415" lon="-2.0782801509"><ele>249.60</ele><time>2015-04-15T10:34:12Z</time></trkpt><trkpt lat="51.8575487193" lon="-2.0782094914"><ele>249.12</ele><time>2015-04-15T10:34:31Z</time></trkpt><trkpt lat="51.8575597834" lon="-2.0781327132"><ele>248.16</ele><time>2015-04-15T10:34:45Z</time></trkpt><trkpt lat="51.8575599510" lon="-2.0781332161"><ele>252.00</ele><time>2015-04-15T10:34:46Z</time></trkpt><trkpt lat="51.8575598672" lon="-2.0781333838"><ele>251.04</ele><time>2015-04-15T10:34:47Z</time></trkpt><trkpt lat="51.8575688358" lon="-2.0781426039"><ele>251.04</ele><time>2015-04-15T10:35:26Z</time></trkpt><trkpt lat="51.8575666565" lon="-2.0781377424"><ele>250.56</ele><time>2015-04-15T10:35:57Z</time></trkpt><trkpt lat="51.8575676624" lon="-2.0781334676"><ele>246.23</ele><time>2015-04-15T10:35:58Z</time></trkpt><trkpt lat="51.8575675786" lon="-2.0781332161"><ele>251.52</ele><time>2015-04-15T10:35:59Z</time></trkpt><trkpt lat="51.8576134276" lon="-2.0780317113"><ele>254.41</ele><time>2015-04-15T10:36:10Z</time></trkpt><trkpt lat="51.8576125894" lon="-2.0780165400"><ele>250.56</ele><time>2015-04-15T10:36:11Z</time></trkpt><trkpt lat="51.8576135114" lon="-2.0780044701"><ele>249.60</ele><time>2015-04-15T10:36:12Z</time></trkpt><trkpt lat="51.8576234020" lon="-2.0779711939"><ele>252.48</ele><time>2015-04-15T10:36:14Z</time></trkpt><trkpt lat="51.8576572649" lon="-2.0779048093"><ele>251.04</ele><time>2015-04-15T10:36:19Z</time></trkpt><trkpt lat="51.8576767948" lon="-2.0778333955"><ele>254.89</ele><time>2015-04-15T10:36:23Z</time></trkpt><trkpt lat="51.8576817401" lon="-2.0778204035"><ele>254.41</ele><time>2015-04-15T10:36:24Z</time></trkpt><trkpt lat="51.8576856796" lon="-2.0778054837"><ele>250.56</ele><time>2015-04-15T10:36:25Z</time></trkpt><trkpt lat="51.8576894514" lon="-2.0777898096"><ele>251.52</ele><time>2015-04-15T10:36:26Z</time></trkpt><trkpt lat="51.8576924689" lon="-2.0777690224"><ele>254.41</ele><time>2015-04-15T10:36:27Z</time></trkpt><trkpt lat="51.8576970790" lon="-2.0777223352"><ele>259.21</ele><time>2015-04-15T10:36:29Z</time></trkpt><trkpt lat="51.8576978333" lon="-2.0776925795"><ele>255.85</ele><time>2015-04-15T10:36:30Z</time></trkpt><trkpt lat="51.8577087298" lon="-2.0776197407"><ele>251.52</ele><time>2015-04-15T10:36:34Z</time></trkpt><trkpt lat="51.8577164412" lon="-2.0775816031"><ele>255.37</ele><time>2015-04-15T10:36:36Z</time></trkpt><trkpt lat="51.8577324506" lon="-2.0774999633"><ele>257.29</ele><time>2015-04-15T10:36:39Z</time></trkpt><trkpt lat="51.8577480409" lon="-2.0773886517"><ele>253.93</ele><time>2015-04-15T10:36:45Z</time></trkpt><trkpt lat="51.8577523157" lon="-2.0773696247"><ele>253.93</ele><time>2015-04-15T10:36:46Z</time></trkpt><trkpt lat="51.8577618711" lon="-2.0773267094"><ele>257.29</ele><time>2015-04-15T10:36:48Z</time></trkpt><trkpt lat="51.8577671517" lon="-2.0773097780"><ele>257.77</ele><time>2015-04-15T10:36:49Z</time></trkpt><trkpt lat="51.8578000087" lon="-2.0772167388"><ele>259.21</ele><time>2015-04-15T10:36:55Z</time></trkpt><trkpt lat="51.8578132521" lon="-2.0771676209"><ele>255.85</ele><time>2015-04-15T10:36:58Z</time></trkpt><trkpt lat="51.8578208797" lon="-2.0771222748"><ele>259.21</ele><time>2015-04-15T10:37:00Z</time></trkpt><trkpt lat="51.8578510545" lon="-2.0769973006"><ele>258.25</ele><time>2015-04-15T10:37:08Z</time></trkpt><trkpt lat="51.8578660581" lon="-2.0769316703"><ele>261.14</ele><time>2015-04-15T10:37:11Z</time></trkpt><trkpt lat="51.8578780442" lon="-2.0768201072"><ele>257.77</ele><time>2015-04-15T10:37:16Z</time></trkpt><trkpt lat="51.8578793854" lon="-2.0767990686"><ele>262.10</ele><time>2015-04-15T10:37:17Z</time></trkpt><trkpt lat="51.8578816485" lon="-2.0767792035"><ele>260.65</ele><time>2015-04-15T10:37:18Z</time></trkpt><trkpt lat="51.8579116557" lon="-2.0766509604"><ele>264.50</ele><time>2015-04-15T10:37:24Z</time></trkpt><trkpt lat="51.8579248153" lon="-2.0766144153"><ele>260.65</ele><time>2015-04-15T10:37:26Z</time></trkpt><trkpt lat="51.8579649646" lon="-2.0765072946"><ele>264.02</ele><time>2015-04-15T10:37:32Z</time></trkpt><trkpt lat="51.8579797167" lon="-2.0764791314"><ele>267.38</ele><time>2015-04-15T10:37:34Z</time></trkpt><trkpt lat="51.8579857517" lon="-2.0764668938"><ele>263.06</ele><time>2015-04-15T10:37:35Z</time></trkpt><trkpt lat="51.8579909485" lon="-2.0764322765"><ele>262.10</ele><time>2015-04-15T10:37:37Z</time></trkpt><trkpt lat="51.8579991627" lon="-2.0763898641"><ele>265.46</ele><time>2015-04-15T10:37:39Z</time></trkpt><trkpt lat="51.8580503762" lon="-2.0761768799"><ele>267.38</ele><time>2015-04-15T10:37:51Z</time></trkpt><trkpt lat="51.8580724206" lon="-2.0760691725"><ele>264.50</ele><time>2015-04-15T10:37:58Z</time></trkpt><trkpt lat="51.8580782879" lon="-2.0760540850"><ele>267.38</ele><time>2015-04-15T10:37:59Z</time></trkpt><trkpt lat="51.8580873404" lon="-2.0760149416"><ele>268.35</ele><time>2015-04-15T10:38:01Z</time></trkpt><trkpt lat="51.8581193592" lon="-2.0757811703"><ele>272.19</ele><time>2015-04-15T10:38:12Z</time></trkpt><trkpt lat="51.8581239693" lon="-2.0757489838"><ele>266.90</ele><time>2015-04-15T10:38:14Z</time></trkpt><trkpt lat="51.8581273220" lon="-2.0757336449"><ele>266.90</ele><time>2015-04-15T10:38:15Z</time></trkpt><trkpt lat="51.8581341114" lon="-2.0757168811"><ele>270.27</ele><time>2015-04-15T10:38:16Z</time></trkpt><trkpt lat="51.8581431638" lon="-2.0757003687"><ele>271.71</ele><time>2015-04-15T10:38:17Z</time></trkpt><trkpt lat="51.8581658788" lon="-2.0756375045"><ele>273.63</ele><time>2015-04-15T10:38:21Z</time></trkpt><trkpt lat="51.8581719976" lon="-2.0756269433"><ele>266.42</ele><time>2015-04-15T10:38:22Z</time></trkpt><trkpt lat="51.8581778649" lon="-2.0756183099"><ele>270.27</ele><time>2015-04-15T10:38:23Z</time></trkpt><trkpt lat="51.8581897672" lon="-2.0755913202"><ele>274.59</ele><time>2015-04-15T10:38:25Z</time></trkpt><trkpt lat="51.8581943773" lon="-2.0755766518"><ele>269.79</ele><time>2015-04-15T10:38:26Z</time></trkpt><trkpt lat="51.8581978139" lon="-2.0755615644"><ele>270.27</ele><time>2015-04-15T10:38:27Z</time></trkpt><trkpt lat="51.8582012504" lon="-2.0755255222"><ele>272.19</ele><time>2015-04-15T10:38:29Z</time></trkpt><trkpt lat="51.8582204450" lon="-2.0753266197"><ele>272.67</ele><time>2015-04-15T10:38:44Z</time></trkpt><trkpt lat="51.8582387175" lon="-2.0752976183"><ele>272.19</ele><time>2015-04-15T10:38:54Z</time></trkpt><trkpt lat="51.8582492787" lon="-2.0752580557"><ele>276.52</ele><time>2015-04-15T10:38:57Z</time></trkpt><trkpt lat="51.8582544755" lon="-2.0752471592"><ele>270.75</ele><time>2015-04-15T10:38:58Z</time></trkpt><trkpt lat="51.8582591694" lon="-2.0752321556"><ele>273.63</ele><time>2015-04-15T10:38:59Z</time></trkpt><trkpt lat="51.8582819682" lon="-2.0751608256"><ele>273.15</ele><time>2015-04-15T10:39:11Z</time></trkpt><trkpt lat="51.8582999893" lon="-2.0751257893"><ele>274.11</ele><time>2015-04-15T10:39:15Z</time></trkpt><trkpt lat="51.8583249673" lon="-2.0750183333"><ele>273.63</ele><time>2015-04-15T10:39:21Z</time></trkpt><trkpt lat="51.8583542202" lon="-2.0748182572"><ele>276.52</ele><time>2015-04-15T10:39:34Z</time></trkpt><trkpt lat="51.8583775219" lon="-2.0747406408"><ele>276.04</ele><time>2015-04-15T10:39:40Z</time></trkpt><trkpt lat="51.8583802879" lon="-2.0746386331"><ele>271.23</ele><time>2015-04-15T10:39:52Z</time></trkpt><trkpt lat="51.8583804555" lon="-2.0746384654"><ele>277.96</ele><time>2015-04-15T10:39:53Z</time></trkpt><trkpt lat="51.8583806232" lon="-2.0746382978"><ele>272.67</ele><time>2015-04-15T10:39:54Z</time></trkpt><trkpt lat="51.8583802879" lon="-2.0746328495"><ele>276.04</ele><time>2015-04-15T10:39:55Z</time></trkpt><trkpt lat="51.8583807070" lon="-2.0746254735"><ele>279.88</ele><time>2015-04-15T10:39:56Z</time></trkpt><trkpt lat="51.8583801202" lon="-2.0746185165"><ele>276.52</ele><time>2015-04-15T10:39:57Z</time></trkpt><trkpt lat="51.8583738338" lon="-2.0745864976"><ele>273.15</ele><time>2015-04-15T10:40:10Z</time></trkpt><trkpt lat="51.8583760131" lon="-2.0745790377"><ele>276.52</ele><time>2015-04-15T10:40:11Z</time></trkpt><trkpt lat="51.8583797850" lon="-2.0745554846"><ele>272.19</ele><time>2015-04-15T10:40:13Z</time></trkpt><trkpt lat="51.8583798688" lon="-2.0745458454"><ele>274.59</ele><time>2015-04-15T10:40:14Z</time></trkpt><trkpt lat="51.8583787791" lon="-2.0745376311"><ele>276.52</ele><time>2015-04-15T10:40:16Z</time></trkpt><trkpt lat="51.8583797012" lon="-2.0745250583"><ele>280.36</ele><time>2015-04-15T10:40:20Z</time></trkpt><trkpt lat="51.8583812099" lon="-2.0745155867"><ele>276.52</ele><time>2015-04-15T10:40:21Z</time></trkpt><trkpt lat="51.8584449962" lon="-2.0744440053"><ele>277.00</ele><time>2015-04-15T10:40:37Z</time></trkpt><trkpt lat="51.8583916035" lon="-2.0744854957"><ele>275.56</ele><time>2015-04-15T10:40:43Z</time></trkpt><trkpt lat="51.8583761808" lon="-2.0745085459"><ele>278.92</ele><time>2015-04-15T10:40:45Z</time></trkpt><trkpt lat="51.8583715707" lon="-2.0745177660"><ele>275.56</ele><time>2015-04-15T10:40:46Z</time></trkpt><trkpt lat="51.8583293259" lon="-2.0745564066"><ele>276.04</ele><time>2015-04-15T10:41:02Z</time></trkpt><trkpt lat="51.8582965527" lon="-2.0745529700"><ele>276.52</ele><time>2015-04-15T10:41:14Z</time></trkpt><trkpt lat="51.8581866659" lon="-2.0744962245"><ele>276.52</ele><time>2015-04-15T10:41:25Z</time></trkpt><trkpt lat="51.8580399826" lon="-2.0743543189"><ele>277.48</ele><time>2015-04-15T10:41:41Z</time></trkpt><trkpt lat="51.8580186926" lon="-2.0743361302"><ele>276.04</ele><time>2015-04-15T10:41:43Z</time></trkpt><trkpt lat="51.8579114880" lon="-2.0742699970"><ele>276.52</ele><time>2015-04-15T10:41:56Z</time></trkpt><trkpt lat="51.8579107337" lon="-2.0742591005"><ele>276.04</ele><time>2015-04-15T10:41:59Z</time></trkpt><trkpt lat="51.8578912038" lon="-2.0742212981"><ele>276.04</ele><time>2015-04-15T10:42:02Z</time></trkpt><trkpt lat="51.8578103185" lon="-2.0740684122"><ele>277.48</ele><time>2015-04-15T10:42:15Z</time></trkpt><trkpt lat="51.8577982485" lon="-2.0740012731"><ele>277.48</ele><time>2015-04-15T10:42:22Z</time></trkpt><trkpt lat="51.8577828258" lon="-2.0739455335"><ele>275.07</ele><time>2015-04-15T10:42:26Z</time></trkpt><trkpt lat="51.8577037845" lon="-2.0737755485"><ele>277.48</ele><time>2015-04-15T10:42:36Z</time></trkpt><trkpt lat="51.8576684967" lon="-2.0736639854"><ele>274.11</ele><time>2015-04-15T10:42:42Z</time></trkpt><trkpt lat="51.8576566782" lon="-2.0736316312"><ele>277.48</ele><time>2015-04-15T10:42:44Z</time></trkpt><trkpt lat="51.8576437701" lon="-2.0735996123"><ele>277.96</ele><time>2015-04-15T10:42:46Z</time></trkpt><trkpt lat="51.8576322030" lon="-2.0735705271"><ele>274.59</ele><time>2015-04-15T10:42:48Z</time></trkpt><trkpt lat="51.8576108292" lon="-2.0735167991"><ele>278.44</ele><time>2015-04-15T10:42:51Z</time></trkpt><trkpt lat="51.8575809058" lon="-2.0734494925"><ele>275.07</ele><time>2015-04-15T10:42:56Z</time></trkpt><trkpt lat="51.8575635552" lon="-2.0733890589"><ele>278.44</ele><time>2015-04-15T10:42:59Z</time></trkpt><trkpt lat="51.8575517368" lon="-2.0733617339"><ele>274.59</ele><time>2015-04-15T10:43:01Z</time></trkpt><trkpt lat="51.8575459532" lon="-2.0733492449"><ele>275.56</ele><time>2015-04-15T10:43:02Z</time></trkpt><trkpt lat="51.8575324584" lon="-2.0733191539"><ele>278.92</ele><time>2015-04-15T10:43:04Z</time></trkpt><trkpt lat="51.8575130124" lon="-2.0732397772"><ele>273.15</ele><time>2015-04-15T10:43:09Z</time></trkpt><trkpt lat="51.8575094081" lon="-2.0732242707"><ele>276.52</ele><time>2015-04-15T10:43:10Z</time></trkpt><trkpt lat="51.8574646488" lon="-2.0730750728"><ele>277.00</ele><time>2015-04-15T10:43:20Z</time></trkpt><trkpt lat="51.8574548420" lon="-2.0730418805"><ele>275.56</ele><time>2015-04-15T10:43:22Z</time></trkpt><trkpt lat="51.8574199732" lon="-2.0729361847"><ele>277.48</ele><time>2015-04-15T10:43:29Z</time></trkpt><trkpt lat="51.8573723640" lon="-2.0727967937"><ele>277.00</ele><time>2015-04-15T10:43:37Z</time></trkpt><trkpt lat="51.8573641498" lon="-2.0727715641"><ele>275.56</ele><time>2015-04-15T10:43:39Z</time></trkpt><trkpt lat="51.8573338073" lon="-2.0726647787"><ele>275.56</ele><time>2015-04-15T10:43:46Z</time></trkpt><trkpt lat="51.8572815880" lon="-2.0724990685"><ele>274.59</ele><time>2015-04-15T10:43:57Z</time></trkpt><trkpt lat="51.8572644051" lon="-2.0724450052"><ele>277.96</ele><time>2015-04-15T10:44:00Z</time></trkpt><trkpt lat="51.8572553527" lon="-2.0724118128"><ele>274.59</ele><time>2015-04-15T10:44:02Z</time></trkpt><trkpt lat="51.8571651634" lon="-2.0721785445"><ele>277.48</ele><time>2015-04-15T10:44:17Z</time></trkpt><trkpt lat="51.8571468908" lon="-2.0721157640"><ele>274.11</ele><time>2015-04-15T10:44:21Z</time></trkpt><trkpt lat="51.8571206555" lon="-2.0720435120"><ele>275.07</ele><time>2015-04-15T10:44:26Z</time></trkpt><trkpt lat="51.8570908997" lon="-2.0719726011"><ele>271.23</ele><time>2015-04-15T10:44:32Z</time></trkpt><trkpt lat="51.8570872117" lon="-2.0719578490"><ele>275.07</ele><time>2015-04-15T10:44:33Z</time></trkpt><trkpt lat="51.8570622336" lon="-2.0718872733"><ele>275.07</ele><time>2015-04-15T10:44:38Z</time></trkpt><trkpt lat="51.8570450507" lon="-2.0718392450"><ele>275.07</ele><time>2015-04-15T10:44:56Z</time></trkpt><trkpt lat="51.8570448831" lon="-2.0718368981"><ele>274.59</ele><time>2015-04-15T10:44:59Z</time></trkpt><trkpt lat="51.8570106849" lon="-2.0717296936"><ele>277.00</ele><time>2015-04-15T10:45:08Z</time></trkpt><trkpt lat="51.8569831923" lon="-2.0716460422"><ele>276.04</ele><time>2015-04-15T10:45:13Z</time></trkpt><trkpt lat="51.8569753133" lon="-2.0716187172"><ele>274.11</ele><time>2015-04-15T10:45:15Z</time></trkpt><trkpt lat="51.8569359183" lon="-2.0715162065"><ele>273.63</ele><time>2015-04-15T10:45:22Z</time></trkpt><trkpt lat="51.8569092639" lon="-2.0714506600"><ele>273.63</ele><time>2015-04-15T10:45:27Z</time></trkpt><trkpt lat="51.8568907399" lon="-2.0713913999"><ele>275.56</ele><time>2015-04-15T10:45:30Z</time></trkpt><trkpt lat="51.8568432145" lon="-2.0712348260"><ele>272.67</ele><time>2015-04-15T10:45:40Z</time></trkpt><trkpt lat="51.8568185717" lon="-2.0711403619"><ele>276.52</ele><time>2015-04-15T10:45:45Z</time></trkpt><trkpt lat="51.8568088487" lon="-2.0711147133"><ele>271.71</ele><time>2015-04-15T10:45:47Z</time></trkpt><trkpt lat="51.8568046577" lon="-2.0710993744"><ele>273.15</ele><time>2015-04-15T10:45:48Z</time></trkpt><trkpt lat="51.8567500915" lon="-2.0709066745"><ele>272.19</ele><time>2015-04-15T10:46:01Z</time></trkpt><trkpt lat="51.8566985428" lon="-2.0707006473"><ele>272.67</ele><time>2015-04-15T10:46:15Z</time></trkpt><trkpt lat="51.8566696253" lon="-2.0706042554"><ele>271.71</ele><time>2015-04-15T10:46:21Z</time></trkpt><trkpt lat="51.8566547893" lon="-2.0705346018"><ele>270.75</ele><time>2015-04-15T10:46:25Z</time></trkpt><trkpt lat="51.8566464912" lon="-2.0704993140"><ele>271.71</ele><time>2015-04-15T10:46:27Z</time></trkpt><trkpt lat="51.8566390313" lon="-2.0704617631"><ele>272.19</ele><time>2015-04-15T10:46:29Z</time></trkpt><trkpt lat="51.8566027377" lon="-2.0703529660"><ele>271.71</ele><time>2015-04-15T10:46:36Z</time></trkpt><trkpt lat="51.8565899134" lon="-2.0703271497"><ele>270.27</ele><time>2015-04-15T10:46:38Z</time></trkpt><trkpt lat="51.8565759156" lon="-2.0702779479"><ele>272.19</ele><time>2015-04-15T10:46:41Z</time></trkpt><trkpt lat="51.8565340061" lon="-2.0701522194"><ele>267.38</ele><time>2015-04-15T10:46:50Z</time></trkpt><trkpt lat="51.8565253727" lon="-2.0701248944"><ele>270.75</ele><time>2015-04-15T10:46:52Z</time></trkpt><trkpt lat="51.8564897496" lon="-2.0700174384"><ele>269.79</ele><time>2015-04-15T10:46:58Z</time></trkpt><trkpt lat="51.8564680405" lon="-2.0699373912"><ele>269.31</ele><time>2015-04-15T10:47:03Z</time></trkpt><trkpt lat="51.8564027455" lon="-2.0697049610"><ele>269.31</ele><time>2015-04-15T10:47:17Z</time></trkpt><trkpt lat="51.8563864008" lon="-2.0696442761"><ele>268.35</ele><time>2015-04-15T10:47:21Z</time></trkpt><trkpt lat="51.8563511129" lon="-2.0695012808"><ele>266.90</ele><time>2015-04-15T10:47:29Z</time></trkpt><trkpt lat="51.8563330080" lon="-2.0693598781"><ele>266.90</ele><time>2015-04-15T10:47:37Z</time></trkpt><trkpt lat="51.8563237879" lon="-2.0692894701"><ele>266.42</ele><time>2015-04-15T10:47:43Z</time></trkpt><trkpt lat="51.8563180882" lon="-2.0692664199"><ele>267.38</ele><time>2015-04-15T10:47:44Z</time></trkpt><trkpt lat="51.8562849797" lon="-2.0691194013"><ele>265.94</ele><time>2015-04-15T10:47:51Z</time></trkpt><trkpt lat="51.8562772684" lon="-2.0690617338"><ele>267.86</ele><time>2015-04-15T10:47:54Z</time></trkpt><trkpt lat="51.8562734965" lon="-2.0690320618"><ele>265.94</ele><time>2015-04-15T10:47:56Z</time></trkpt><trkpt lat="51.8562636059" lon="-2.0689546131"><ele>267.38</ele><time>2015-04-15T10:48:01Z</time></trkpt><trkpt lat="51.8562578224" lon="-2.0689232647"><ele>265.46</ele><time>2015-04-15T10:48:03Z</time></trkpt><trkpt lat="51.8562403042" lon="-2.0688336622"><ele>265.46</ele><time>2015-04-15T10:48:08Z</time></trkpt><trkpt lat="51.8562332634" lon="-2.0687520225"><ele>266.90</ele><time>2015-04-15T10:48:13Z</time></trkpt><trkpt lat="51.8562323414" lon="-2.0687318221"><ele>263.54</ele><time>2015-04-15T10:48:15Z</time></trkpt><trkpt lat="51.8561833072" lon="-2.0685154852"><ele>264.50</ele><time>2015-04-15T10:48:28Z</time></trkpt><trkpt lat="51.8561802898" lon="-2.0685026608"><ele>262.58</ele><time>2015-04-15T10:48:29Z</time></trkpt><trkpt lat="51.8561465107" lon="-2.0683377888"><ele>264.50</ele><time>2015-04-15T10:48:40Z</time></trkpt><trkpt lat="51.8561316747" lon="-2.0682336017"><ele>263.06</ele><time>2015-04-15T10:48:46Z</time></trkpt><trkpt lat="51.8561103009" lon="-2.0681753475"><ele>264.50</ele><time>2015-04-15T10:48:49Z</time></trkpt><trkpt lat="51.8560698163" lon="-2.0680438355"><ele>261.14</ele><time>2015-04-15T10:48:56Z</time></trkpt><trkpt lat="51.8560631946" lon="-2.0680291671"><ele>262.58</ele><time>2015-04-15T10:48:57Z</time></trkpt><trkpt lat="51.8559822254" lon="-2.0678164344"><ele>262.10</ele><time>2015-04-15T10:49:11Z</time></trkpt><trkpt lat="51.8559432495" lon="-2.0677078888"><ele>261.14</ele><time>2015-04-15T10:49:19Z</time></trkpt><trkpt lat="51.8558951374" lon="-2.0675141830"><ele>262.58</ele><time>2015-04-15T10:49:30Z</time></trkpt><trkpt lat="51.8558947183" lon="-2.0674838405"><ele>258.73</ele><time>2015-04-15T10:49:32Z</time></trkpt><trkpt lat="51.8558918685" lon="-2.0674368180"><ele>261.62</ele><time>2015-04-15T10:49:35Z</time></trkpt><trkpt lat="51.8558814749" lon="-2.0673987642"><ele>260.17</ele><time>2015-04-15T10:49:38Z</time></trkpt><trkpt lat="51.8558553234" lon="-2.0672436990"><ele>260.17</ele><time>2015-04-15T10:49:51Z</time></trkpt><trkpt lat="51.8558492046" lon="-2.0672109257"><ele>259.69</ele><time>2015-04-15T10:50:04Z</time></trkpt><trkpt lat="51.8557903636" lon="-2.0671053138"><ele>256.81</ele><time>2015-04-15T10:50:11Z</time></trkpt><trkpt lat="51.8557508849" lon="-2.0670103468"><ele>259.69</ele><time>2015-04-15T10:50:17Z</time></trkpt><trkpt lat="51.8557388149" lon="-2.0669759810"><ele>260.65</ele><time>2015-04-15T10:50:19Z</time></trkpt><trkpt lat="51.8557288405" lon="-2.0669512544"><ele>257.29</ele><time>2015-04-15T10:50:21Z</time></trkpt><trkpt lat="51.8557109870" lon="-2.0668993704"><ele>259.69</ele><time>2015-04-15T10:50:24Z</time></trkpt><trkpt lat="51.8556396570" lon="-2.0666564628"><ele>258.25</ele><time>2015-04-15T10:50:38Z</time></trkpt><trkpt lat="51.8555758707" lon="-2.0664206799"><ele>258.25</ele><time>2015-04-15T10:50:51Z</time></trkpt><trkpt lat="51.8555560894" lon="-2.0663170796"><ele>257.77</ele><time>2015-04-15T10:50:57Z</time></trkpt><trkpt lat="51.8555365596" lon="-2.0662348531"><ele>256.81</ele><time>2015-04-15T10:51:02Z</time></trkpt><trkpt lat="51.8554847594" lon="-2.0659974776"><ele>256.81</ele><time>2015-04-15T10:51:19Z</time></trkpt><trkpt lat="51.8554845080" lon="-2.0659890957"><ele>253.93</ele><time>2015-04-15T10:51:22Z</time></trkpt><trkpt lat="51.8554851785" lon="-2.0659285784"><ele>256.33</ele><time>2015-04-15T10:51:25Z</time></trkpt><trkpt lat="51.8554598652" lon="-2.0658315159"><ele>252.96</ele><time>2015-04-15T10:51:30Z</time></trkpt><trkpt lat="51.8554506451" lon="-2.0657984074"><ele>256.33</ele><time>2015-04-15T10:51:32Z</time></trkpt><trkpt lat="51.8554451969" lon="-2.0657842420"><ele>254.41</ele><time>2015-04-15T10:51:33Z</time></trkpt><trkpt lat="51.8554231524" lon="-2.0656999201"><ele>254.89</ele><time>2015-04-15T10:51:39Z</time></trkpt><trkpt lat="51.8553902954" lon="-2.0654726028"><ele>253.93</ele><time>2015-04-15T10:51:52Z</time></trkpt><trkpt lat="51.8553744536" lon="-2.0654127561"><ele>252.96</ele><time>2015-04-15T10:51:57Z</time></trkpt><trkpt lat="51.8553662393" lon="-2.0653781388"><ele>253.93</ele><time>2015-04-15T10:52:17Z</time></trkpt><trkpt lat="51.8553571030" lon="-2.0653660689"><ele>253.93</ele><time>2015-04-15T10:52:41Z</time></trkpt><trkpt lat="51.8553576898" lon="-2.0653733611"><ele>253.93</ele><time>2015-04-15T10:53:08Z</time></trkpt><trkpt lat="51.8553683348" lon="-2.0653652307"><ele>261.14</ele><time>2015-04-15T10:53:15Z</time></trkpt><trkpt lat="51.8553714361" lon="-2.0653677452"><ele>258.73</ele><time>2015-04-15T10:53:16Z</time></trkpt><trkpt lat="51.8553718552" lon="-2.0653674100"><ele>254.89</ele><time>2015-04-15T10:53:17Z</time></trkpt><trkpt lat="51.8553731963" lon="-2.0653577708"><ele>238.06</ele><time>2015-04-15T10:53:20Z</time></trkpt><trkpt lat="51.8553752080" lon="-2.0653679967"><ele>257.77</ele><time>2015-04-15T10:53:21Z</time></trkpt><trkpt lat="51.8553773034" lon="-2.0653752889"><ele>253.93</ele><time>2015-04-15T10:53:22Z</time></trkpt><trkpt lat="51.8553777225" lon="-2.0653754566"><ele>244.31</ele><time>2015-04-15T10:53:24Z</time></trkpt><trkpt lat="51.8553776387" lon="-2.0653757919"><ele>254.89</ele><time>2015-04-15T10:53:25Z</time></trkpt><trkpt lat="51.8553864397" lon="-2.0653969981"><ele>259.69</ele><time>2015-04-15T10:53:32Z</time></trkpt><trkpt lat="51.8553899601" lon="-2.0653917175"><ele>254.41</ele><time>2015-04-15T10:53:33Z</time></trkpt><trkpt lat="51.8553854339" lon="-2.0653810725"><ele>252.96</ele><time>2015-04-15T10:53:36Z</time></trkpt><trkpt lat="51.8553624675" lon="-2.0653640572"><ele>252.96</ele><time>2015-04-15T10:53:40Z</time></trkpt><trkpt lat="51.8553369865" lon="-2.0653259195"><ele>254.41</ele><time>2015-04-15T10:53:43Z</time></trkpt><trkpt lat="51.8553186301" lon="-2.0652855188"><ele>253.93</ele><time>2015-04-15T10:53:46Z</time></trkpt><trkpt lat="51.8552901316" lon="-2.0652489737"><ele>252.00</ele><time>2015-04-15T10:53:50Z</time></trkpt><trkpt lat="51.8552073184" lon="-2.0651295315"><ele>251.52</ele><time>2015-04-15T10:54:01Z</time></trkpt><trkpt lat="51.8551348988" lon="-2.0649872068"><ele>252.96</ele><time>2015-04-15T10:54:13Z</time></trkpt><trkpt lat="51.8551229127" lon="-2.0649761427"><ele>249.12</ele><time>2015-04-15T10:54:15Z</time></trkpt><trkpt lat="51.8551162910" lon="-2.0649698563"><ele>249.12</ele><time>2015-04-15T10:54:16Z</time></trkpt><trkpt lat="51.8550636526" lon="-2.0648625679"><ele>247.68</ele><time>2015-04-15T10:54:25Z</time></trkpt><trkpt lat="51.8550366629" lon="-2.0647928305"><ele>249.12</ele><time>2015-04-15T10:54:30Z</time></trkpt><trkpt lat="51.8549771514" lon="-2.0646472368"><ele>242.39</ele><time>2015-04-15T10:54:42Z</time></trkpt><trkpt lat="51.8549715355" lon="-2.0646289643"><ele>245.75</ele><time>2015-04-15T10:54:43Z</time></trkpt><trkpt lat="51.8549310509" lon="-2.0644723903"><ele>244.31</ele><time>2015-04-15T10:54:59Z</time></trkpt><trkpt lat="51.8549355771" lon="-2.0644539502"><ele>243.35</ele><time>2015-04-15T10:55:19Z</time></trkpt><trkpt lat="51.8549227528" lon="-2.0643994678"><ele>242.39</ele><time>2015-04-15T10:55:29Z</time></trkpt><trkpt lat="51.8548970204" lon="-2.0643097814"><ele>241.43</ele><time>2015-04-15T10:55:35Z</time></trkpt><trkpt lat="51.8548626546" lon="-2.0641859807"><ele>238.54</ele><time>2015-04-15T10:55:47Z</time></trkpt><trkpt lat="51.8548416998" lon="-2.0640472602"><ele>237.10</ele><time>2015-04-15T10:56:00Z</time></trkpt><trkpt lat="51.8548363354" lon="-2.0640226174"><ele>235.66</ele><time>2015-04-15T10:56:03Z</time></trkpt><trkpt lat="51.8548392691" lon="-2.0638991520"><ele>234.70</ele><time>2015-04-15T10:56:19Z</time></trkpt><trkpt lat="51.8548426218" lon="-2.0638316777"><ele>234.70</ele><time>2015-04-15T10:56:36Z</time></trkpt><trkpt lat="51.8548424542" lon="-2.0637679752"><ele>234.22</ele><time>2015-04-15T10:57:00Z</time></trkpt><trkpt lat="51.8548334856" lon="-2.0637710765"><ele>234.22</ele><time>2015-04-15T10:57:06Z</time></trkpt><trkpt lat="51.8547732197" lon="-2.0637725014"><ele>233.74</ele><time>2015-04-15T10:57:11Z</time></trkpt><trkpt lat="51.8547230959" lon="-2.0637187734"><ele>234.70</ele><time>2015-04-15T10:57:17Z</time></trkpt><trkpt lat="51.8546659313" lon="-2.0636409894"><ele>232.78</ele><time>2015-04-15T10:57:25Z</time></trkpt><trkpt lat="51.8545652647" lon="-2.0635435078"><ele>232.30</ele><time>2015-04-15T10:57:39Z</time></trkpt><trkpt lat="51.8545567151" lon="-2.0635350421"><ele>233.26</ele><time>2015-04-15T10:57:40Z</time></trkpt><trkpt lat="51.8544552103" lon="-2.0634366386"><ele>232.30</ele><time>2015-04-15T10:57:51Z</time></trkpt><trkpt lat="51.8543185014" lon="-2.0633143466"><ele>232.78</ele><time>2015-04-15T10:58:06Z</time></trkpt><trkpt lat="51.8542294018" lon="-2.0632442739"><ele>231.81</ele><time>2015-04-15T10:58:16Z</time></trkpt><trkpt lat="51.8541935273" lon="-2.0632083155"><ele>231.33</ele><time>2015-04-15T10:58:20Z</time></trkpt><trkpt lat="51.8541594129" lon="-2.0631736983"><ele>231.81</ele><time>2015-04-15T10:58:24Z</time></trkpt><trkpt lat="51.8541501928" lon="-2.0631446969"><ele>230.85</ele><time>2015-04-15T10:58:26Z</time></trkpt><trkpt lat="51.8540815450" lon="-2.0630120113"><ele>230.37</ele><time>2015-04-15T10:58:37Z</time></trkpt><trkpt lat="51.8540328462" lon="-2.0629447885"><ele>231.33</ele><time>2015-04-15T10:58:44Z</time></trkpt><trkpt lat="51.8539819680" lon="-2.0628550183"><ele>229.41</ele><time>2015-04-15T10:58:52Z</time></trkpt><trkpt lat="51.8539256416" lon="-2.0627760608"><ele>227.97</ele><time>2015-04-15T10:59:00Z</time></trkpt><trkpt lat="51.8538421579" lon="-2.0625549462"><ele>228.45</ele><time>2015-04-15T10:59:14Z</time></trkpt><trkpt lat="51.8538201135" lon="-2.0624617394"><ele>227.01</ele><time>2015-04-15T10:59:20Z</time></trkpt><trkpt lat="51.8537996616" lon="-2.0623516012"><ele>227.97</ele><time>2015-04-15T10:59:26Z</time></trkpt><trkpt lat="51.8537646253" lon="-2.0622844622"><ele>228.45</ele><time>2015-04-15T10:59:32Z</time></trkpt><trkpt lat="51.8537086342" lon="-2.0620889962"><ele>227.49</ele><time>2015-04-15T10:59:44Z</time></trkpt><trkpt lat="51.8536680657" lon="-2.0619910117"><ele>227.01</ele><time>2015-04-15T10:59:51Z</time></trkpt><trkpt lat="51.8536114879" lon="-2.0617772732"><ele>226.53</ele><time>2015-04-15T11:00:04Z</time></trkpt><trkpt lat="51.8535808101" lon="-2.0616782829"><ele>226.05</ele><time>2015-04-15T11:00:11Z</time></trkpt><trkpt lat="51.8535110727" lon="-2.0614924561"><ele>227.01</ele><time>2015-04-15T11:00:25Z</time></trkpt><trkpt lat="51.8535003439" lon="-2.0614492055"><ele>224.61</ele><time>2015-04-15T11:00:28Z</time></trkpt><trkpt lat="51.8534756172" lon="-2.0613858383"><ele>227.49</ele><time>2015-04-15T11:00:32Z</time></trkpt><trkpt lat="51.8534332886" lon="-2.0612374786"><ele>224.61</ele><time>2015-04-15T11:00:41Z</time></trkpt><trkpt lat="51.8533510622" lon="-2.0610568486"><ele>225.57</ele><time>2015-04-15T11:00:54Z</time></trkpt><trkpt lat="51.8533006869" lon="-2.0608854387"><ele>227.01</ele><time>2015-04-15T11:01:05Z</time></trkpt><trkpt lat="51.8532097433" lon="-2.0606925711"><ele>224.12</ele><time>2015-04-15T11:01:20Z</time></trkpt><trkpt lat="51.8531248346" lon="-2.0605219156"><ele>223.64</ele><time>2015-04-15T11:01:32Z</time></trkpt><trkpt lat="51.8530169595" lon="-2.0603733882"><ele>224.61</ele><time>2015-04-15T11:01:45Z</time></trkpt><trkpt lat="51.8529326376" lon="-2.0602251962"><ele>225.57</ele><time>2015-04-15T11:01:57Z</time></trkpt><trkpt lat="51.8528292887" lon="-2.0600587316"><ele>222.20</ele><time>2015-04-15T11:02:11Z</time></trkpt><trkpt lat="51.8528223317" lon="-2.0600459911"><ele>222.68</ele><time>2015-04-15T11:02:12Z</time></trkpt><trkpt lat="51.8528140336" lon="-2.0600329153"><ele>223.64</ele><time>2015-04-15T11:02:13Z</time></trkpt><trkpt lat="51.8527367525" lon="-2.0599065162"><ele>222.68</ele><time>2015-04-15T11:02:23Z</time></trkpt><trkpt lat="51.8527231738" lon="-2.0598812867"><ele>223.64</ele><time>2015-04-15T11:02:25Z</time></trkpt><trkpt lat="51.8526443839" lon="-2.0598035026"><ele>222.68</ele><time>2015-04-15T11:02:35Z</time></trkpt><trkpt lat="51.8526292965" lon="-2.0597981382"><ele>222.68</ele><time>2015-04-15T11:02:38Z</time></trkpt><trkpt lat="51.8525972776" lon="-2.0597765967"><ele>222.68</ele><time>2015-04-15T11:02:42Z</time></trkpt><trkpt lat="51.8525593076" lon="-2.0597412251"><ele>225.09</ele><time>2015-04-15T11:02:46Z</time></trkpt><trkpt lat="51.8525527697" lon="-2.0597342681"><ele>222.20</ele><time>2015-04-15T11:02:47Z</time></trkpt><trkpt lat="51.8525152188" lon="-2.0596988127"><ele>223.64</ele><time>2015-04-15T11:02:51Z</time></trkpt><trkpt lat="51.8524775002" lon="-2.0596869104"><ele>222.68</ele><time>2015-04-15T11:02:55Z</time></trkpt><trkpt lat="51.8524608202" lon="-2.0596750919"><ele>223.64</ele><time>2015-04-15T11:02:57Z</time></trkpt><trkpt lat="51.8524560425" lon="-2.0596604235"><ele>221.72</ele><time>2015-04-15T11:02:59Z</time></trkpt><trkpt lat="51.8524278793" lon="-2.0595186017"><ele>224.61</ele><time>2015-04-15T11:03:11Z</time></trkpt><trkpt lat="51.8524215091" lon="-2.0594964735"><ele>220.28</ele><time>2015-04-15T11:03:13Z</time></trkpt><trkpt lat="51.8524239399" lon="-2.0594370458"><ele>224.12</ele><time>2015-04-15T11:03:16Z</time></trkpt><trkpt lat="51.8524283823" lon="-2.0593971480"><ele>217.40</ele><time>2015-04-15T11:03:18Z</time></trkpt><trkpt lat="51.8524282146" lon="-2.0593953039"><ele>222.68</ele><time>2015-04-15T11:03:19Z</time></trkpt><trkpt lat="51.8524070084" lon="-2.0593363792"><ele>219.32</ele><time>2015-04-15T11:03:24Z</time></trkpt><trkpt lat="51.8524096068" lon="-2.0593216270"><ele>222.20</ele><time>2015-04-15T11:03:25Z</time></trkpt><trkpt lat="51.8523846287" lon="-2.0592577569"><ele>217.88</ele><time>2015-04-15T11:03:32Z</time></trkpt><trkpt lat="51.8523871433" lon="-2.0592509676"><ele>223.16</ele><time>2015-04-15T11:03:33Z</time></trkpt><trkpt lat="51.8523844611" lon="-2.0591860078"><ele>222.68</ele><time>2015-04-15T11:03:53Z</time></trkpt><trkpt lat="51.8521376979" lon="-2.0597332623"><ele>221.72</ele><time>2015-04-15T11:04:19Z</time></trkpt><trkpt lat="51.8522708025" lon="-2.0594709925"><ele>221.24</ele><time>2015-04-15T11:04:36Z</time></trkpt><trkpt lat="51.8522896618" lon="-2.0594381355"><ele>223.64</ele><time>2015-04-15T11:04:40Z</time></trkpt><trkpt lat="51.8522710539" lon="-2.0594310109"><ele>222.20</ele><time>2015-04-15T11:04:42Z</time></trkpt><trkpt lat="51.8522614148" lon="-2.0593975671"><ele>221.24</ele><time>2015-04-15T11:04:44Z</time></trkpt><trkpt lat="51.8522624206" lon="-2.0593439229"><ele>222.20</ele><time>2015-04-15T11:04:47Z</time></trkpt><trkpt lat="51.8522655219" lon="-2.0592114050"><ele>219.32</ele><time>2015-04-15T11:04:50Z</time></trkpt><trkpt lat="51.8522677012" lon="-2.0591529831"><ele>222.68</ele><time>2015-04-15T11:04:52Z</time></trkpt><trkpt lat="51.8522697128" lon="-2.0591345429"><ele>222.68</ele><time>2015-04-15T11:04:53Z</time></trkpt><trkpt lat="51.8522915896" lon="-2.0590216387"><ele>218.84</ele><time>2015-04-15T11:04:59Z</time></trkpt><trkpt lat="51.8522924278" lon="-2.0590206329"><ele>221.72</ele><time>2015-04-15T11:05:02Z</time></trkpt><trkpt lat="51.8522993848" lon="-2.0590239018"><ele>220.28</ele><time>2015-04-15T11:05:11Z</time></trkpt><trkpt lat="51.8523003906" lon="-2.0590161905"><ele>221.72</ele><time>2015-04-15T11:05:13Z</time></trkpt><trkpt lat="51.8523048330" lon="-2.0591130015"><ele>221.24</ele><time>2015-04-15T11:05:28Z</time></trkpt><trkpt lat="51.8523014802" lon="-2.0590852574"><ele>221.24</ele><time>2015-04-15T11:05:49Z</time></trkpt><trkpt lat="51.8523030728" lon="-2.0591024403"><ele>217.40</ele><time>2015-04-15T11:05:54Z</time></trkpt><trkpt lat="51.8523029890" lon="-2.0591198746"><ele>221.24</ele><time>2015-04-15T11:05:55Z</time></trkpt><trkpt lat="51.8522667792" lon="-2.0591440983"><ele>219.80</ele><time>2015-04-15T11:06:09Z</time></trkpt><trkpt lat="51.8522247020" lon="-2.0591679867"><ele>221.72</ele><time>2015-04-15T11:06:12Z</time></trkpt><trkpt lat="51.8521806970" lon="-2.0591481216"><ele>216.91</ele><time>2015-04-15T11:06:17Z</time></trkpt><trkpt lat="51.8521729857" lon="-2.0591389015"><ele>218.84</ele><time>2015-04-15T11:06:18Z</time></trkpt><trkpt lat="51.8521052599" lon="-2.0590816531"><ele>224.12</ele><time>2015-04-15T11:06:23Z</time></trkpt><trkpt lat="51.8520785216" lon="-2.0590605307"><ele>220.28</ele><time>2015-04-15T11:06:25Z</time></trkpt><trkpt lat="51.8520571478" lon="-2.0590409171"><ele>224.61</ele><time>2015-04-15T11:06:27Z</time></trkpt><trkpt lat="51.8520430662" lon="-2.0590161905"><ele>219.80</ele><time>2015-04-15T11:06:29Z</time></trkpt><trkpt lat="51.8519641925" lon="-2.0589301921"><ele>222.20</ele><time>2015-04-15T11:06:37Z</time></trkpt><trkpt lat="51.8519506976" lon="-2.0589127578"><ele>217.88</ele><time>2015-04-15T11:06:38Z</time></trkpt><trkpt lat="51.8519231211" lon="-2.0588836726"><ele>221.24</ele><time>2015-04-15T11:06:40Z</time></trkpt><trkpt lat="51.8518543057" lon="-2.0588076487"><ele>219.80</ele><time>2015-04-15T11:06:46Z</time></trkpt><trkpt lat="51.8518424034" lon="-2.0587892085"><ele>218.36</ele><time>2015-04-15T11:06:48Z</time></trkpt><trkpt lat="51.8518364523" lon="-2.0587828383"><ele>219.32</ele><time>2015-04-15T11:06:49Z</time></trkpt><trkpt lat="51.8518170901" lon="-2.0587604586"><ele>220.76</ele><time>2015-04-15T11:06:51Z</time></trkpt><trkpt lat="51.8517920282" lon="-2.0587231591"><ele>217.88</ele><time>2015-04-15T11:06:53Z</time></trkpt><trkpt lat="51.8517792039" lon="-2.0587079041"><ele>219.32</ele><time>2015-04-15T11:06:54Z</time></trkpt><trkpt lat="51.8517388031" lon="-2.0586687606"><ele>223.16</ele><time>2015-04-15T11:06:57Z</time></trkpt><trkpt lat="51.8516699877" lon="-2.0585904736"><ele>223.16</ele><time>2015-04-15T11:07:02Z</time></trkpt><trkpt lat="51.8516341969" lon="-2.0585617237"><ele>224.61</ele><time>2015-04-15T11:07:05Z</time></trkpt><trkpt lat="51.8516129907" lon="-2.0585379191"><ele>221.72</ele><time>2015-04-15T11:07:08Z</time></trkpt><trkpt lat="51.8515983224" lon="-2.0585233346"><ele>218.36</ele><time>2015-04-15T11:07:10Z</time></trkpt><trkpt lat="51.8515816424" lon="-2.0584960934"><ele>222.20</ele><time>2015-04-15T11:07:12Z</time></trkpt><trkpt lat="51.8515177723" lon="-2.0584216621"><ele>225.57</ele><time>2015-04-15T11:07:17Z</time></trkpt><trkpt lat="51.8515040260" lon="-2.0584095921"><ele>226.05</ele><time>2015-04-15T11:07:18Z</time></trkpt><trkpt lat="51.8514741026" lon="-2.0583873801"><ele>224.61</ele><time>2015-04-15T11:07:20Z</time></trkpt><trkpt lat="51.8514412455" lon="-2.0583484881"><ele>227.97</ele><time>2015-04-15T11:07:23Z</time></trkpt><trkpt lat="51.8514254037" lon="-2.0583300479"><ele>222.68</ele><time>2015-04-15T11:07:25Z</time></trkpt><trkpt lat="51.8514113221" lon="-2.0583089255"><ele>221.24</ele><time>2015-04-15T11:07:27Z</time></trkpt><trkpt lat="51.8513769563" lon="-2.0582800917"><ele>224.12</ele><time>2015-04-15T11:07:30Z</time></trkpt><trkpt lat="51.8512707576" lon="-2.0581979491"><ele>227.49</ele><time>2015-04-15T11:07:37Z</time></trkpt><trkpt lat="51.8512607832" lon="-2.0581625775"><ele>222.68</ele><time>2015-04-15T11:07:39Z</time></trkpt><trkpt lat="51.8512392417" lon="-2.0581168961"><ele>225.57</ele><time>2015-04-15T11:07:42Z</time></trkpt><trkpt lat="51.8512298539" lon="-2.0580970310"><ele>223.64</ele><time>2015-04-15T11:07:43Z</time></trkpt><trkpt lat="51.8512170296" lon="-2.0580533613"><ele>223.16</ele><time>2015-04-15T11:07:45Z</time></trkpt><trkpt lat="51.8511976674" lon="-2.0580086857"><ele>226.53</ele><time>2015-04-15T11:07:47Z</time></trkpt><trkpt lat="51.8511591945" lon="-2.0579488389"><ele>228.45</ele><time>2015-04-15T11:07:50Z</time></trkpt><trkpt lat="51.8511513155" lon="-2.0579154789"><ele>223.64</ele><time>2015-04-15T11:07:52Z</time></trkpt><trkpt lat="51.8511508964" lon="-2.0579019003"><ele>224.61</ele><time>2015-04-15T11:07:53Z</time></trkpt><trkpt lat="51.8511337973" lon="-2.0577623416"><ele>222.20</ele><time>2015-04-15T11:08:03Z</time></trkpt><trkpt lat="51.8511299416" lon="-2.0577356871"><ele>226.05</ele><time>2015-04-15T11:08:05Z</time></trkpt><trkpt lat="51.8511217274" lon="-2.0577031653"><ele>228.93</ele><time>2015-04-15T11:08:10Z</time></trkpt><trkpt lat="51.8511126749" lon="-2.0576770976"><ele>226.05</ele><time>2015-04-15T11:08:13Z</time></trkpt><trkpt lat="51.8510483019" lon="-2.0575955417"><ele>227.01</ele><time>2015-04-15T11:08:28Z</time></trkpt><trkpt lat="51.8509748764" lon="-2.0575174224"><ele>227.01</ele><time>2015-04-15T11:08:44Z</time></trkpt><trkpt lat="51.8509745412" lon="-2.0575177576"><ele>230.37</ele><time>2015-04-15T11:08:45Z</time></trkpt><trkpt lat="51.8509750441" lon="-2.0575191826"><ele>224.12</ele><time>2015-04-15T11:08:46Z</time></trkpt><trkpt lat="51.8509685062" lon="-2.0575171709"><ele>228.93</ele><time>2015-04-15T11:08:47Z</time></trkpt><trkpt lat="51.8509252556" lon="-2.0575089566"><ele>228.93</ele><time>2015-04-15T11:09:03Z</time></trkpt><trkpt lat="51.8509315420" lon="-2.0574963838"><ele>228.93</ele><time>2015-04-15T11:09:36Z</time></trkpt><trkpt lat="51.8509322125" lon="-2.0574904326"><ele>228.93</ele><time>2015-04-15T11:10:02Z</time></trkpt><trkpt lat="51.8509305362" lon="-2.0574873313"><ele>227.01</ele><time>2015-04-15T11:10:12Z</time></trkpt><trkpt lat="51.8509284407" lon="-2.0574828889"><ele>232.30</ele><time>2015-04-15T11:10:14Z</time></trkpt><trkpt lat="51.8509233277" lon="-2.0574745908"><ele>228.45</ele><time>2015-04-15T11:10:15Z</time></trkpt><trkpt lat="51.8508936558" lon="-2.0574484393"><ele>230.37</ele><time>2015-04-15T11:10:18Z</time></trkpt><trkpt lat="51.8508253433" lon="-2.0574474335"><ele>231.81</ele><time>2015-04-15T11:10:27Z</time></trkpt><trkpt lat="51.8507329747" lon="-2.0573346131"><ele>232.78</ele><time>2015-04-15T11:10:42Z</time></trkpt><trkpt lat="51.8506539334" lon="-2.0572590083"><ele>235.66</ele><time>2015-04-15T11:10:54Z</time></trkpt><trkpt lat="51.8506460544" lon="-2.0572524704"><ele>230.37</ele><time>2015-04-15T11:10:55Z</time></trkpt><trkpt lat="51.8506304640" lon="-2.0572332758"><ele>234.70</ele><time>2015-04-15T11:10:57Z</time></trkpt><trkpt lat="51.8505972717" lon="-2.0571896061"><ele>231.33</ele><time>2015-04-15T11:11:02Z</time></trkpt><trkpt lat="51.8505812623" lon="-2.0571738482"><ele>231.33</ele><time>2015-04-15T11:11:04Z</time></trkpt><trkpt lat="51.8505046517" lon="-2.0571101457"><ele>232.78</ele><time>2015-04-15T11:11:13Z</time></trkpt><trkpt lat="51.8504823558" lon="-2.0570938010"><ele>236.62</ele><time>2015-04-15T11:11:15Z</time></trkpt><trkpt lat="51.8504731357" lon="-2.0570886042"><ele>235.18</ele><time>2015-04-15T11:11:16Z</time></trkpt><trkpt lat="51.8504581321" lon="-2.0570692420"><ele>234.22</ele><time>2015-04-15T11:11:18Z</time></trkpt><trkpt lat="51.8503219262" lon="-2.0569497999"><ele>232.78</ele><time>2015-04-15T11:11:32Z</time></trkpt><trkpt lat="51.8502877280" lon="-2.0569430105"><ele>238.06</ele><time>2015-04-15T11:11:35Z</time></trkpt><trkpt lat="51.8502789270" lon="-2.0569420047"><ele>234.22</ele><time>2015-04-15T11:11:36Z</time></trkpt><trkpt lat="51.8502423819" lon="-2.0568954851"><ele>238.54</ele><time>2015-04-15T11:11:40Z</time></trkpt><trkpt lat="51.8502324913" lon="-2.0568834990"><ele>234.70</ele><time>2015-04-15T11:11:41Z</time></trkpt><trkpt lat="51.8502236065" lon="-2.0568742789"><ele>230.85</ele><time>2015-04-15T11:11:42Z</time></trkpt><trkpt lat="51.8502142187" lon="-2.0568664838"><ele>235.18</ele><time>2015-04-15T11:11:43Z</time></trkpt><trkpt lat="51.8501908332" lon="-2.0568427630"><ele>236.14</ele><time>2015-04-15T11:11:45Z</time></trkpt><trkpt lat="51.8501528632" lon="-2.0567989256"><ele>233.74</ele><time>2015-04-15T11:11:49Z</time></trkpt><trkpt lat="51.8501301482" lon="-2.0567719359"><ele>237.10</ele><time>2015-04-15T11:11:51Z</time></trkpt><trkpt lat="51.8501107860" lon="-2.0567559265"><ele>233.74</ele><time>2015-04-15T11:11:53Z</time></trkpt><trkpt lat="51.8501013983" lon="-2.0567495562"><ele>235.18</ele><time>2015-04-15T11:11:54Z</time></trkpt><trkpt lat="51.8500583153" lon="-2.0566962473"><ele>236.62</ele><time>2015-04-15T11:11:59Z</time></trkpt><trkpt lat="51.8500389531" lon="-2.0566788130"><ele>234.70</ele><time>2015-04-15T11:12:01Z</time></trkpt><trkpt lat="51.8500087783" lon="-2.0566513203"><ele>237.10</ele><time>2015-04-15T11:12:04Z</time></trkpt><trkpt lat="51.8499459140" lon="-2.0565866120"><ele>237.10</ele><time>2015-04-15T11:12:10Z</time></trkpt><trkpt lat="51.8498617597" lon="-2.0565104205"><ele>237.10</ele><time>2015-04-15T11:12:19Z</time></trkpt><trkpt lat="51.8498214427" lon="-2.0564762224"><ele>234.70</ele><time>2015-04-15T11:12:24Z</time></trkpt><trkpt lat="51.8498095404" lon="-2.0564648230"><ele>235.66</ele><time>2015-04-15T11:12:25Z</time></trkpt><trkpt lat="51.8497411441" lon="-2.0564043056"><ele>236.62</ele><time>2015-04-15T11:12:32Z</time></trkpt><trkpt lat="51.8497343548" lon="-2.0563944988"><ele>231.81</ele><time>2015-04-15T11:12:33Z</time></trkpt><trkpt lat="51.8497272301" lon="-2.0563818421"><ele>235.18</ele><time>2015-04-15T11:12:34Z</time></trkpt><trkpt lat="51.8497085385" lon="-2.0563570317"><ele>236.14</ele><time>2015-04-15T11:12:36Z</time></trkpt><trkpt lat="51.8496766873" lon="-2.0563295390"><ele>234.70</ele><time>2015-04-15T11:12:40Z</time></trkpt><trkpt lat="51.8495658785" lon="-2.0562229212"><ele>236.14</ele><time>2015-04-15T11:12:53Z</time></trkpt><trkpt lat="51.8495520484" lon="-2.0562097616"><ele>234.70</ele><time>2015-04-15T11:12:55Z</time></trkpt><trkpt lat="51.8495186884" lon="-2.0561805088"><ele>234.70</ele><time>2015-04-15T11:12:59Z</time></trkpt><trkpt lat="51.8494444247" lon="-2.0560940914"><ele>234.22</ele><time>2015-04-15T11:13:09Z</time></trkpt><trkpt lat="51.8493527267" lon="-2.0559883956"><ele>233.74</ele><time>2015-04-15T11:13:20Z</time></trkpt><trkpt lat="51.8493138347" lon="-2.0559393615"><ele>232.78</ele><time>2015-04-15T11:13:25Z</time></trkpt><trkpt lat="51.8492079712" lon="-2.0558524411"><ele>231.81</ele><time>2015-04-15T11:13:36Z</time></trkpt><trkpt lat="51.8491651397" lon="-2.0558009762"><ele>232.30</ele><time>2015-04-15T11:13:41Z</time></trkpt><trkpt lat="51.8490871042" lon="-2.0557147264"><ele>230.85</ele><time>2015-04-15T11:13:51Z</time></trkpt><trkpt lat="51.8490798958" lon="-2.0557044167"><ele>231.33</ele><time>2015-04-15T11:13:52Z</time></trkpt><trkpt lat="51.8490437698" lon="-2.0556562208"><ele>230.37</ele><time>2015-04-15T11:13:57Z</time></trkpt><trkpt lat="51.8490295205" lon="-2.0556396246"><ele>231.33</ele><time>2015-04-15T11:13:59Z</time></trkpt><trkpt lat="51.8490131758" lon="-2.0556223579"><ele>229.41</ele><time>2015-04-15T11:14:01Z</time></trkpt><trkpt lat="51.8489812408" lon="-2.0555895008"><ele>228.93</ele><time>2015-04-15T11:14:05Z</time></trkpt><trkpt lat="51.8488934822" lon="-2.0555055141"><ele>229.41</ele><time>2015-04-15T11:14:16Z</time></trkpt><trkpt lat="51.8488472141" lon="-2.0554575697"><ele>227.49</ele><time>2015-04-15T11:14:22Z</time></trkpt><trkpt lat="51.8487470504" lon="-2.0553686377"><ele>227.97</ele><time>2015-04-15T11:14:33Z</time></trkpt><trkpt lat="51.8487272691" lon="-2.0553528797"><ele>227.01</ele><time>2015-04-15T11:14:35Z</time></trkpt><trkpt lat="51.8486395106" lon="-2.0552828070"><ele>226.05</ele><time>2015-04-15T11:14:45Z</time></trkpt><trkpt lat="51.8486183882" lon="-2.0552673843"><ele>225.57</ele><time>2015-04-15T11:14:47Z</time></trkpt><trkpt lat="51.8485701084" lon="-2.0551552344"><ele>224.61</ele><time>2015-04-15T11:15:01Z</time></trkpt><trkpt lat="51.8485596310" lon="-2.0550942980"><ele>223.64</ele><time>2015-04-15T11:15:18Z</time></trkpt><trkpt lat="51.8485544343" lon="-2.0550924540"><ele>222.20</ele><time>2015-04-15T11:15:38Z</time></trkpt><trkpt lat="51.8485421129" lon="-2.0550804678"><ele>222.20</ele><time>2015-04-15T11:15:42Z</time></trkpt><trkpt lat="51.8485154584" lon="-2.0550419111"><ele>223.16</ele><time>2015-04-15T11:15:44Z</time></trkpt><trkpt lat="51.8484795000" lon="-2.0549772028"><ele>222.68</ele><time>2015-04-15T11:15:59Z</time></trkpt><trkpt lat="51.8484829366" lon="-2.0549802203"><ele>222.20</ele><time>2015-04-15T11:16:20Z</time></trkpt><trkpt lat="51.8484868761" lon="-2.0549775381"><ele>222.20</ele><time>2015-04-15T11:16:44Z</time></trkpt><trkpt lat="51.8484898098" lon="-2.0549731795"><ele>221.72</ele><time>2015-04-15T11:17:03Z</time></trkpt><trkpt lat="51.8484920729" lon="-2.0549731795"><ele>222.68</ele><time>2015-04-15T11:17:27Z</time></trkpt><trkpt lat="51.8485026341" lon="-2.0549440105"><ele>223.16</ele><time>2015-04-15T11:17:42Z</time></trkpt><trkpt lat="51.8485390954" lon="-2.0548518933"><ele>222.68</ele><time>2015-04-15T11:17:51Z</time></trkpt><trkpt lat="51.8485520873" lon="-2.0547679067"><ele>219.32</ele><time>2015-04-15T11:17:56Z</time></trkpt><trkpt lat="51.8485565297" lon="-2.0547368936"><ele>222.20</ele><time>2015-04-15T11:17:58Z</time></trkpt><trkpt lat="51.8485712819" lon="-2.0546729397"><ele>222.68</ele><time>2015-04-15T11:18:15Z</time></trkpt><trkpt lat="51.8485711142" lon="-2.0546350535"><ele>221.72</ele><time>2015-04-15T11:18:31Z</time></trkpt><trkpt lat="51.8485447951" lon="-2.0546226483"><ele>221.24</ele><time>2015-04-15T11:18:40Z</time></trkpt><trkpt lat="51.8484749738" lon="-2.0546035375"><ele>219.80</ele><time>2015-04-15T11:18:54Z</time></trkpt><trkpt lat="51.8484675977" lon="-2.0546016935"><ele>219.32</ele><time>2015-04-15T11:18:55Z</time></trkpt><trkpt lat="51.8483563699" lon="-2.0544996019"><ele>216.43</ele><time>2015-04-15T11:19:09Z</time></trkpt><trkpt lat="51.8482623249" lon="-2.0543737058"><ele>214.03</ele><time>2015-04-15T11:19:22Z</time></trkpt><trkpt lat="51.8481942639" lon="-2.0542862825"><ele>212.11</ele><time>2015-04-15T11:19:30Z</time></trkpt><trkpt lat="51.8481092714" lon="-2.0541623142"><ele>211.63</ele><time>2015-04-15T11:19:39Z</time></trkpt><trkpt lat="51.8480859697" lon="-2.0541342348"><ele>213.07</ele><time>2015-04-15T11:19:41Z</time></trkpt><trkpt lat="51.8480578903" lon="-2.0541013777"><ele>209.70</ele><time>2015-04-15T11:19:44Z</time></trkpt><trkpt lat="51.8479920924" lon="-2.0540178940"><ele>213.55</ele><time>2015-04-15T11:19:51Z</time></trkpt><trkpt lat="51.8479727302" lon="-2.0539961848"><ele>210.19</ele><time>2015-04-15T11:19:54Z</time></trkpt><trkpt lat="51.8479441479" lon="-2.0539625734"><ele>214.03</ele><time>2015-04-15T11:19:57Z</time></trkpt><trkpt lat="51.8479131348" lon="-2.0539243519"><ele>210.19</ele><time>2015-04-15T11:20:01Z</time></trkpt><trkpt lat="51.8478669506" lon="-2.0538725518"><ele>213.55</ele><time>2015-04-15T11:20:05Z</time></trkpt><trkpt lat="51.8478446547" lon="-2.0538470708"><ele>210.19</ele><time>2015-04-15T11:20:08Z</time></trkpt><trkpt lat="51.8478150666" lon="-2.0538047422"><ele>214.51</ele><time>2015-04-15T11:20:12Z</time></trkpt><trkpt lat="51.8478107080" lon="-2.0537958574"><ele>210.67</ele><time>2015-04-15T11:20:13Z</time></trkpt><trkpt lat="51.8478102889" lon="-2.0537519362"><ele>213.07</ele><time>2015-04-15T11:20:28Z</time></trkpt><trkpt lat="51.8478193413" lon="-2.0537339989"><ele>209.70</ele><time>2015-04-15T11:20:35Z</time></trkpt><trkpt lat="51.8478219397" lon="-2.0537323225"><ele>206.82</ele><time>2015-04-15T11:20:48Z</time></trkpt><trkpt lat="51.8478246219" lon="-2.0537259523"><ele>213.55</ele><time>2015-04-15T11:20:49Z</time></trkpt><trkpt lat="51.8478314951" lon="-2.0537133794"><ele>215.95</ele><time>2015-04-15T11:20:52Z</time></trkpt><trkpt lat="51.8478458282" lon="-2.0536875632"><ele>211.63</ele><time>2015-04-15T11:20:54Z</time></trkpt><trkpt lat="51.8478718121" lon="-2.0536352601"><ele>210.19</ele><time>2015-04-15T11:20:58Z</time></trkpt><trkpt lat="51.8479160685" lon="-2.0535876509"><ele>212.11</ele><time>2015-04-15T11:21:02Z</time></trkpt><trkpt lat="51.8480145559" lon="-2.0534951985"><ele>207.78</ele><time>2015-04-15T11:21:12Z</time></trkpt><trkpt lat="51.8480228540" lon="-2.0534895826"><ele>208.74</ele><time>2015-04-15T11:21:13Z</time></trkpt><trkpt lat="51.8480811920" lon="-2.0534159057"><ele>211.63</ele><time>2015-04-15T11:21:19Z</time></trkpt><trkpt lat="51.8480978720" lon="-2.0533859823"><ele>205.86</ele><time>2015-04-15T11:21:21Z</time></trkpt><trkpt lat="51.8481082655" lon="-2.0533739123"><ele>209.22</ele><time>2015-04-15T11:21:22Z</time></trkpt><trkpt lat="51.8482163921" lon="-2.0532328449"><ele>210.67</ele><time>2015-04-15T11:21:36Z</time></trkpt><trkpt lat="51.8482426275" lon="-2.0531711541"><ele>210.67</ele><time>2015-04-15T11:21:43Z</time></trkpt><trkpt lat="51.8482580502" lon="-2.0531478524"><ele>211.63</ele><time>2015-04-15T11:21:45Z</time></trkpt><trkpt lat="51.8482911587" lon="-2.0530906040"><ele>208.26</ele><time>2015-04-15T11:21:50Z</time></trkpt><trkpt lat="51.8483011331" lon="-2.0530914422"><ele>211.63</ele><time>2015-04-15T11:21:51Z</time></trkpt><trkpt lat="51.8483132031" lon="-2.0530859940"><ele>212.59</ele><time>2015-04-15T11:21:52Z</time></trkpt><trkpt lat="51.8484280352" lon="-2.0529846568"><ele>212.11</ele><time>2015-04-15T11:22:07Z</time></trkpt><trkpt lat="51.8485543504" lon="-2.0528655499"><ele>215.47</ele><time>2015-04-15T11:22:23Z</time></trkpt><trkpt lat="51.8486058153" lon="-2.0528073795"><ele>216.43</ele><time>2015-04-15T11:22:33Z</time></trkpt><trkpt lat="51.8486540951" lon="-2.0527566690"><ele>217.40</ele><time>2015-04-15T11:22:38Z</time></trkpt><trkpt lat="51.8486670870" lon="-2.0527413301"><ele>214.03</ele><time>2015-04-15T11:22:40Z</time></trkpt><trkpt lat="51.8486836832" lon="-2.0527167711"><ele>217.40</ele><time>2015-04-15T11:22:42Z</time></trkpt><trkpt lat="51.8486964237" lon="-2.0526975766"><ele>214.51</ele><time>2015-04-15T11:22:44Z</time></trkpt><trkpt lat="51.8487027939" lon="-2.0526856743"><ele>215.47</ele><time>2015-04-15T11:22:45Z</time></trkpt><trkpt lat="51.8487571087" lon="-2.0526319463"><ele>214.51</ele><time>2015-04-15T11:22:51Z</time></trkpt><trkpt lat="51.8488291092" lon="-2.0525644720"><ele>217.88</ele><time>2015-04-15T11:23:00Z</time></trkpt><trkpt lat="51.8488452025" lon="-2.0525484625"><ele>214.51</ele><time>2015-04-15T11:23:02Z</time></trkpt><trkpt lat="51.8488709349" lon="-2.0525192935"><ele>216.43</ele><time>2015-04-15T11:23:05Z</time></trkpt><trkpt lat="51.8488724437" lon="-2.0525119174"><ele>215.95</ele><time>2015-04-15T11:23:09Z</time></trkpt><trkpt lat="51.8489093240" lon="-2.0524599496"><ele>214.03</ele><time>2015-04-15T11:23:14Z</time></trkpt><trkpt lat="51.8489441089" lon="-2.0524176210"><ele>216.91</ele><time>2015-04-15T11:23:18Z</time></trkpt><trkpt lat="51.8489679135" lon="-2.0523962472"><ele>214.51</ele><time>2015-04-15T11:23:21Z</time></trkpt><trkpt lat="51.8489852641" lon="-2.0523726102"><ele>215.95</ele><time>2015-04-15T11:23:23Z</time></trkpt><trkpt lat="51.8490193784" lon="-2.0523431059"><ele>215.47</ele><time>2015-04-15T11:23:27Z</time></trkpt><trkpt lat="51.8490644731" lon="-2.0522965863"><ele>214.51</ele><time>2015-04-15T11:23:32Z</time></trkpt><trkpt lat="51.8491026107" lon="-2.0522501506"><ele>216.43</ele><time>2015-04-15T11:23:36Z</time></trkpt><trkpt lat="51.8491563387" lon="-2.0521525852"><ele>213.55</ele><time>2015-04-15T11:23:44Z</time></trkpt><trkpt lat="51.8492187839" lon="-2.0520773996"><ele>214.99</ele><time>2015-04-15T11:24:00Z</time></trkpt><trkpt lat="51.8492197059" lon="-2.0520744659"><ele>211.63</ele><time>2015-04-15T11:24:17Z</time></trkpt><trkpt lat="51.8492254894" lon="-2.0520696044"><ele>212.11</ele><time>2015-04-15T11:24:20Z</time></trkpt><trkpt lat="51.8492357992" lon="-2.0520622283"><ele>215.47</ele><time>2015-04-15T11:24:22Z</time></trkpt><trkpt lat="51.8492462765" lon="-2.0520546008"><ele>214.99</ele><time>2015-04-15T11:24:23Z</time></trkpt><trkpt lat="51.8492785469" lon="-2.0520503260"><ele>214.03</ele><time>2015-04-15T11:24:26Z</time></trkpt><trkpt lat="51.8492892757" lon="-2.0520463865"><ele>214.03</ele><time>2015-04-15T11:24:27Z</time></trkpt><trkpt lat="51.8493228871" lon="-2.0520275272"><ele>217.88</ele><time>2015-04-15T11:24:30Z</time></trkpt><trkpt lat="51.8493345380" lon="-2.0520209894"><ele>214.51</ele><time>2015-04-15T11:24:31Z</time></trkpt><trkpt lat="51.8493898585" lon="-2.0519713685"><ele>212.59</ele><time>2015-04-15T11:24:37Z</time></trkpt><trkpt lat="51.8494115677" lon="-2.0519539341"><ele>214.03</ele><time>2015-04-15T11:24:39Z</time></trkpt><trkpt lat="51.8494580872" lon="-2.0519126114"><ele>212.59</ele><time>2015-04-15T11:24:45Z</time></trkpt><trkpt lat="51.8495265674" lon="-2.0518615656"><ele>212.11</ele><time>2015-04-15T11:24:53Z</time></trkpt><trkpt lat="51.8495612685" lon="-2.0518058259"><ele>213.55</ele><time>2015-04-15T11:24:57Z</time></trkpt><trkpt lat="51.8495950475" lon="-2.0517636649"><ele>212.11</ele><time>2015-04-15T11:25:01Z</time></trkpt><trkpt lat="51.8496807944" lon="-2.0516888984"><ele>212.59</ele><time>2015-04-15T11:25:10Z</time></trkpt><trkpt lat="51.8496882543" lon="-2.0516822767"><ele>210.67</ele><time>2015-04-15T11:25:11Z</time></trkpt><trkpt lat="51.8497479334" lon="-2.0516287163"><ele>210.67</ele><time>2015-04-15T11:25:18Z</time></trkpt><trkpt lat="51.8498472590" lon="-2.0515700430"><ele>210.67</ele><time>2015-04-15T11:25:29Z</time></trkpt><trkpt lat="51.8499481771" lon="-2.0514677837"><ele>207.78</ele><time>2015-04-15T11:25:41Z</time></trkpt><trkpt lat="51.8499864824" lon="-2.0514329150"><ele>206.82</ele><time>2015-04-15T11:25:47Z</time></trkpt><trkpt lat="51.8500221055" lon="-2.0513876528"><ele>206.34</ele><time>2015-04-15T11:25:52Z</time></trkpt><trkpt lat="51.8500819523" lon="-2.0513512753"><ele>207.30</ele><time>2015-04-15T11:26:08Z</time></trkpt><trkpt lat="51.8501288071" lon="-2.0512962062"><ele>206.34</ele><time>2015-04-15T11:26:14Z</time></trkpt><trkpt lat="51.8502179906" lon="-2.0511522889"><ele>205.86</ele><time>2015-04-15T11:26:26Z</time></trkpt><trkpt lat="51.8502709642" lon="-2.0510723256"><ele>206.82</ele><time>2015-04-15T11:26:41Z</time></trkpt><trkpt lat="51.8503982015" lon="-2.0509049390"><ele>205.86</ele><time>2015-04-15T11:26:57Z</time></trkpt><trkpt lat="51.8504121993" lon="-2.0508812182"><ele>204.90</ele><time>2015-04-15T11:26:59Z</time></trkpt><trkpt lat="51.8504463974" lon="-2.0508264843"><ele>206.34</ele><time>2015-04-15T11:27:03Z</time></trkpt><trkpt lat="51.8504936714" lon="-2.0507574175"><ele>204.42</ele><time>2015-04-15T11:27:10Z</time></trkpt><trkpt lat="51.8505022209" lon="-2.0507471915"><ele>204.90</ele><time>2015-04-15T11:27:11Z</time></trkpt><trkpt lat="51.8506004568" lon="-2.0506041124"><ele>203.46</ele><time>2015-04-15T11:27:24Z</time></trkpt><trkpt lat="51.8506116048" lon="-2.0506004244"><ele>203.46</ele><time>2015-04-15T11:27:25Z</time></trkpt><trkpt lat="51.8506377563" lon="-2.0505662262"><ele>204.90</ele><time>2015-04-15T11:27:28Z</time></trkpt><trkpt lat="51.8506530114" lon="-2.0505306870"><ele>202.98</ele><time>2015-04-15T11:27:31Z</time></trkpt><trkpt lat="51.8506854493" lon="-2.0504722651"><ele>204.90</ele><time>2015-04-15T11:27:35Z</time></trkpt><trkpt lat="51.8507096730" lon="-2.0504589379"><ele>202.49</ele><time>2015-04-15T11:27:38Z</time></trkpt><trkpt lat="51.8507324718" lon="-2.0504168607"><ele>205.86</ele><time>2015-04-15T11:27:41Z</time></trkpt><trkpt lat="51.8507592101" lon="-2.0503644738"><ele>202.01</ele><time>2015-04-15T11:27:45Z</time></trkpt><trkpt lat="51.8507602159" lon="-2.0503513981"><ele>202.01</ele><time>2015-04-15T11:27:46Z</time></trkpt><trkpt lat="51.8507742975" lon="-2.0503186248"><ele>203.94</ele><time>2015-04-15T11:27:49Z</time></trkpt><trkpt lat="51.8508185539" lon="-2.0502025355"><ele>202.01</ele><time>2015-04-15T11:27:58Z</time></trkpt><trkpt lat="51.8508682586" lon="-2.0501212310"><ele>205.86</ele><time>2015-04-15T11:28:04Z</time></trkpt><trkpt lat="51.8508781493" lon="-2.0501146093"><ele>202.49</ele><time>2015-04-15T11:28:05Z</time></trkpt><trkpt lat="51.8509415165" lon="-2.0500517450"><ele>199.13</ele><time>2015-04-15T11:28:14Z</time></trkpt><trkpt lat="51.8509465456" lon="-2.0500352327"><ele>203.46</ele><time>2015-04-15T11:28:15Z</time></trkpt><trkpt lat="51.8510011956" lon="-2.0499207359"><ele>198.17</ele><time>2015-04-15T11:28:24Z</time></trkpt><trkpt lat="51.8510056380" lon="-2.0499048103"><ele>202.98</ele><time>2015-04-15T11:28:25Z</time></trkpt><trkpt lat="51.8510257546" lon="-2.0498100109"><ele>202.01</ele><time>2015-04-15T11:28:30Z</time></trkpt><trkpt lat="51.8510493077" lon="-2.0497567859"><ele>205.38</ele><time>2015-04-15T11:28:34Z</time></trkpt><trkpt lat="51.8510561809" lon="-2.0497251861"><ele>200.57</ele><time>2015-04-15T11:28:36Z</time></trkpt><trkpt lat="51.8511016108" lon="-2.0495945960"><ele>206.34</ele><time>2015-04-15T11:28:45Z</time></trkpt><trkpt lat="51.8511094898" lon="-2.0495870523"><ele>202.98</ele><time>2015-04-15T11:28:46Z</time></trkpt><trkpt lat="51.8511310313" lon="-2.0495577995"><ele>205.86</ele><time>2015-04-15T11:28:49Z</time></trkpt><trkpt lat="51.8511429336" lon="-2.0495419577"><ele>202.98</ele><time>2015-04-15T11:28:51Z</time></trkpt><trkpt lat="51.8511799816" lon="-2.0494872238"><ele>207.78</ele><time>2015-04-15T11:28:57Z</time></trkpt><trkpt lat="51.8511752877" lon="-2.0494666044"><ele>203.46</ele><time>2015-04-15T11:28:59Z</time></trkpt><trkpt lat="51.8511739466" lon="-2.0494516008"><ele>203.46</ele><time>2015-04-15T11:29:00Z</time></trkpt><trkpt lat="51.8511612900" lon="-2.0493990462"><ele>207.78</ele><time>2015-04-15T11:29:03Z</time></trkpt><trkpt lat="51.8511576857" lon="-2.0493796002"><ele>204.42</ele><time>2015-04-15T11:29:04Z</time></trkpt><trkpt lat="51.8511574343" lon="-2.0493676141"><ele>202.98</ele><time>2015-04-15T11:29:06Z</time></trkpt><trkpt lat="51.8511540815" lon="-2.0493546221"><ele>207.30</ele><time>2015-04-15T11:29:12Z</time></trkpt><trkpt lat="51.8511490524" lon="-2.0493293926"><ele>203.94</ele><time>2015-04-15T11:29:14Z</time></trkpt><trkpt lat="51.8511028681" lon="-2.0491167437"><ele>205.86</ele><time>2015-04-15T11:29:33Z</time></trkpt><trkpt lat="51.8510727771" lon="-2.0491263829"><ele>204.42</ele><time>2015-04-15T11:29:39Z</time></trkpt><trkpt lat="51.8507577013" lon="-2.0492141414"><ele>200.57</ele><time>2015-04-15T11:30:00Z</time></trkpt><trkpt lat="51.8507295381" lon="-2.0492207631"><ele>207.30</ele><time>2015-04-15T11:30:02Z</time></trkpt><trkpt lat="51.8507015426" lon="-2.0492273849"><ele>204.42</ele><time>2015-04-15T11:30:04Z</time></trkpt></trkseg><trkseg><trkpt lat="51.8510904629" lon="-2.0491488464"><ele>202.49</ele><time>2015-04-15T11:30:36Z</time></trkpt><trkpt lat="51.8510877807" lon="-2.0491458289"><ele>204.90</ele><time>2015-04-15T11:30:37Z</time></trkpt><trkpt lat="51.8510627188" lon="-2.0490879100"><ele>203.94</ele><time>2015-04-15T11:30:42Z</time></trkpt><trkpt lat="51.8510768004" lon="-2.0489395503"><ele>206.34</ele><time>2015-04-15T11:30:49Z</time></trkpt><trkpt lat="51.8510763813" lon="-2.0489099622"><ele>203.46</ele><time>2015-04-15T11:30:51Z</time></trkpt><trkpt lat="51.8510796502" lon="-2.0488978922"><ele>204.90</ele><time>2015-04-15T11:30:52Z</time></trkpt><trkpt lat="51.8511019461" lon="-2.0488298312"><ele>204.42</ele><time>2015-04-15T11:30:57Z</time></trkpt><trkpt lat="51.8511061370" lon="-2.0487626083"><ele>204.90</ele><time>2015-04-15T11:31:04Z</time></trkpt><trkpt lat="51.8510956597" lon="-2.0486592595"><ele>204.90</ele><time>2015-04-15T11:31:13Z</time></trkpt><trkpt lat="51.8511113338" lon="-2.0485958084"><ele>203.94</ele><time>2015-04-15T11:31:18Z</time></trkpt><trkpt lat="51.8511123396" lon="-2.0485292561"><ele>205.38</ele><time>2015-04-15T11:31:21Z</time></trkpt><trkpt lat="51.8511192966" lon="-2.0484519750"><ele>203.46</ele><time>2015-04-15T11:31:25Z</time></trkpt><trkpt lat="51.8511278462" lon="-2.0483915415"><ele>206.82</ele><time>2015-04-15T11:31:28Z</time></trkpt><trkpt lat="51.8511546683" lon="-2.0482964907"><ele>205.38</ele><time>2015-04-15T11:31:38Z</time></trkpt></trkseg></trk></gpx>